Dirección General De Aeronáutica Civil

Dirección Meteorológica de Chile - Servicios Climáticos

Informe General de Control de Calidad de la Estación

Listado de niveles de control de calidad para algunos parámetros
Estación Olmué (330088)
Fecha de Revisión de los datos :

Elementos

Registros Niveles de Control Total
Nivel 0 Nivel 1 Nivel 2 Nivel 3 Errores Porcentaje
01 Temperatura del Aire Seco 137.992 0 . 54 0.04 % 0 . 0 . 54 0.04 %
02 Temperatura de Rocío 120.996 0 . 0 . 0 . 0 . 0 0.00 %
03 Humedad Relativa del Aire 121.318 0 . 0 . 0 . 0 . 0 0.00 %
04 Temperatura Máxima PM 10.443 0 . 0 . 636 6.09 % 0 . 636 6.09 %
05 Temperatura Mínima AM 10.399 0 . 0 . 495 4.76 % 0 . 495 4.76 %
06 Viento a 10 m. de Altura 4.495 0 . 0 . 0 . 0 . 0 0.00 %
07 Agua Caida, Acumulada 6 Horas 21.616 0 . 0 . 0 . 0 . 0 0.00 %
08 Presión Atm. a Nivel de Estación (QFE) 120.852 0 . 0 . 0 . 0 . 0 0.00 %
09 Presión Atm. a Nivel Medio del Mar (QFF) 25.313 0 . 0 . 0 . 0 . 0 0.00 %
10 Presión Atm. Estándar OACI (QNH) 25.313 0 . 0 . 0 . 0 . 0 0.00 %

Totales

598.737 . 0.0000 % . 0.0090 % . 0.1889 % . 0.0000 % 1,185 0.1979 %

Detalle de Errores Recientes

Fecha del Dato Descripción Información Error Fecha Ingreso
1994-05-22 00:00:00 Temperatura 18.5 del 22-05-1994 00:00, Mayor que la Máxima 16.8 22-05-1994 00:00 18.5 -- 16.8 2023-12-28 23:47:00
1998-04-07 00:00:00 Temperatura 23.0 del 06-04-1998 18:00, Mayor que la Máxima 19.2 07-04-1998 00:00 23.0 -- 19.2 2023-12-28 23:54:00
2000-09-15 00:00:00 Temperatura 17.3 del 14-09-2000 18:00, Mayor que la Máxima 17.2 15-09-2000 00:00 17.3 -- 17.2 2023-12-28 23:57:00
2000-09-18 00:00:00 Temperatura 16.1 del 17-09-2000 18:00, Mayor que la Máxima 15.4 18-09-2000 00:00 16.1 -- 15.4 2023-12-28 23:57:00
2001-03-25 00:00:00 Temperatura 26.5 del 24-03-2001 18:00, Mayor que la Máxima 26.3 25-03-2001 00:00 26.5 -- 26.3 2023-12-28 23:58:00
2001-04-01 00:00:00 Temperatura 25.3 del 31-03-2001 18:00, Mayor que la Máxima 25.2 01-04-2001 00:00 25.3 -- 25.2 2023-12-28 23:58:00
2001-04-22 00:00:00 Temperatura 23.4 del 21-04-2001 18:00, Mayor que la Máxima 19.6 22-04-2001 00:00 23.4 -- 19.6 2023-12-28 23:58:00
2001-05-15 00:00:00 Temperatura 17.0 del 14-05-2001 18:00, Mayor que la Máxima 16.4 15-05-2001 00:00 17.0 -- 16.4 2023-12-28 23:58:00
2001-12-29 00:00:00 Temperatura 25.1 del 28-12-2001 18:00, Mayor que la Máxima 25.0 29-12-2001 00:00 25.1 -- 25.0 2023-12-28 23:59:00
2002-03-25 00:00:00 Temperatura 30.3 del 24-03-2002 18:00, Mayor que la Máxima 30.2 25-03-2002 00:00 30.3 -- 30.2 2023-12-28 23:59:00
2002-04-14 00:00:00 Temperatura 23.8 del 13-04-2002 18:00, Mayor que la Máxima 23.7 14-04-2002 00:00 23.8 -- 23.7 2023-12-28 23:59:00
2002-05-20 00:00:00 Temperatura 17.3 del 19-05-2002 18:00, Mayor que la Máxima 17.2 20-05-2002 00:00 17.3 -- 17.2 2023-12-28 23:59:00
2002-10-01 00:00:00 Temperatura 25.2 del 30-09-2002 18:00, Mayor que la Máxima 24.0 01-10-2002 00:00 25.2 -- 24.0 2023-12-29 00:00:00
2003-05-26 00:00:00 Temperatura 28.0 del 25-05-2003 18:00, Mayor que la Máxima 18.6 26-05-2003 00:00 28.0 -- 18.6 2023-12-29 00:01:00
2003-11-02 00:00:00 Temperatura 24.3 del 01-11-2003 18:00, Mayor que la Máxima 21.4 02-11-2003 00:00 24.3 -- 21.4 2023-12-29 00:01:00
2003-11-30 00:00:00 Temperatura 24.8 del 29-11-2003 18:00, Mayor que la Máxima 24.6 30-11-2003 00:00 24.8 -- 24.6 2023-12-29 00:01:00
2004-06-10 00:00:00 Temperatura 14.6 del 09-06-2004 18:00, Mayor que la Máxima 10.6 10-06-2004 00:00 14.6 -- 10.6 2023-12-29 00:02:00
2004-07-26 00:00:00 Temperatura 12.0 del 25-07-2004 18:00, Mayor que la Máxima 11.7 26-07-2004 00:00 12.0 -- 11.7 2023-12-29 00:02:00
2004-09-13 00:00:00 Temperatura 26.4 del 12-09-2004 18:00, Mayor que la Máxima 26.2 13-09-2004 00:00 26.4 -- 26.2 2023-12-29 00:03:00
2004-10-24 00:00:00 Temperatura 25.7 del 23-10-2004 18:00, Mayor que la Máxima 25.6 24-10-2004 00:00 25.7 -- 25.6 2023-12-29 00:03:00
2004-12-10 00:00:00 Temperatura 23.9 del 09-12-2004 18:00, Mayor que la Máxima 23.8 10-12-2004 00:00 23.9 -- 23.8 2023-12-29 00:03:00
2004-12-22 00:00:00 Temperatura 27.1 del 21-12-2004 18:00, Mayor que la Máxima 26.2 22-12-2004 00:00 27.1 -- 26.2 2023-12-29 00:03:00
2005-05-23 00:00:00 Temperatura 19.1 del 22-05-2005 18:00, Mayor que la Máxima 14.4 23-05-2005 00:00 19.1 -- 14.4 2023-12-29 00:03:00
2005-05-29 00:00:00 Temperatura 18.4 del 28-05-2005 18:00, Mayor que la Máxima 15.6 29-05-2005 00:00 18.4 -- 15.6 2023-12-29 00:03:00
2005-09-05 00:00:00 Temperatura 20.4 del 04-09-2005 18:00, Mayor que la Máxima 19.0 05-09-2005 00:00 20.4 -- 19.0 2023-12-29 00:04:00
2005-10-03 00:00:00 Temperatura 16.8 del 02-10-2005 18:00, Mayor que la Máxima 16.6 03-10-2005 00:00 16.8 -- 16.6 2023-12-29 00:04:00
2005-12-26 00:00:00 Temperatura 21.5 del 25-12-2005 18:00, Mayor que la Máxima 20.8 26-12-2005 00:00 21.5 -- 20.8 2023-12-29 00:04:00
2006-06-11 00:00:00 Temperatura 14.8 del 10-06-2006 18:00, Mayor que la Máxima 14.7 11-06-2006 00:00 14.8 -- 14.7 2023-12-29 00:05:00
2006-07-27 00:00:00 Temperatura 8.9 del 27-07-2006 00:00, Mayor que la Máxima 8.6 27-07-2006 00:00 8.9 -- 8.6 2023-12-29 00:05:00
2009-02-01 00:00:00 Temperatura 25.3 del 31-01-2009 17:00, Mayor que la Máxima 25.0 01-02-2009 00:00 25.3 -- 25.0 2023-12-31 00:58:00
2009-02-02 00:00:00 Temperatura 22.9 del 01-02-2009 19:00, Mayor que la Máxima 22.4 02-02-2009 00:00 22.9 -- 22.4 2023-12-31 00:58:00
2009-02-03 00:00:00 Temperatura 25.8 del 02-02-2009 19:00, Mayor que la Máxima 24.8 03-02-2009 00:00 25.8 -- 24.8 2023-12-31 00:58:00
2009-02-04 00:00:00 Temperatura 30.1 del 03-02-2009 17:00, Mayor que la Máxima 30.0 04-02-2009 00:00 30.1 -- 30.0 2023-12-31 00:58:00
2009-02-05 00:00:00 Temperatura 29.0 del 04-02-2009 18:00, Mayor que la Máxima 28.4 05-02-2009 00:00 29.0 -- 28.4 2023-12-31 00:58:00
2009-02-06 00:00:00 Temperatura 34.1 del 05-02-2009 19:00, Mayor que la Máxima 33.2 06-02-2009 00:00 34.1 -- 33.2 2023-12-31 00:58:00
2009-02-07 00:00:00 Temperatura 30.3 del 06-02-2009 17:00, Mayor que la Máxima 30.0 07-02-2009 00:00 30.3 -- 30.0 2023-12-31 00:58:00
2009-02-09 00:00:00 Temperatura 29.0 del 08-02-2009 18:00, Mayor que la Máxima 28.4 09-02-2009 00:00 29.0 -- 28.4 2023-12-31 00:58:00
2009-02-10 00:00:00 Temperatura 24.9 del 09-02-2009 16:00, Mayor que la Máxima 24.4 10-02-2009 00:00 24.9 -- 24.4 2023-12-31 00:58:00
2009-02-11 00:00:00 Temperatura 29.4 del 10-02-2009 19:00, Mayor que la Máxima 28.8 11-02-2009 00:00 29.4 -- 28.8 2023-12-31 00:58:00
2009-02-12 00:00:00 Temperatura 36.9 del 11-02-2009 20:00, Mayor que la Máxima 36.4 12-02-2009 00:00 36.9 -- 36.4 2023-12-31 00:58:00
2009-02-13 00:00:00 Temperatura 28.8 del 12-02-2009 17:00, Mayor que la Máxima 28.4 13-02-2009 00:00 28.8 -- 28.4 2023-12-31 00:58:00
2009-02-14 00:00:00 Temperatura 31.3 del 13-02-2009 20:00, Mayor que la Máxima 31.0 14-02-2009 00:00 31.3 -- 31.0 2023-12-31 00:58:00
2009-02-16 00:00:00 Temperatura 25.8 del 15-02-2009 17:00, Mayor que la Máxima 25.2 16-02-2009 00:00 25.8 -- 25.2 2023-12-31 00:58:00
2009-02-17 00:00:00 Temperatura 29.9 del 16-02-2009 18:00, Mayor que la Máxima 29.2 17-02-2009 00:00 29.9 -- 29.2 2023-12-31 00:58:00
2009-02-19 00:00:00 Temperatura 28.7 del 18-02-2009 19:00, Mayor que la Máxima 28.2 19-02-2009 00:00 28.7 -- 28.2 2023-12-31 00:58:00
2009-02-22 00:00:00 Temperatura 25.5 del 21-02-2009 20:00, Mayor que la Máxima 25.2 22-02-2009 00:00 25.5 -- 25.2 2023-12-31 00:58:00
2009-02-23 00:00:00 Temperatura 33.0 del 22-02-2009 20:00, Mayor que la Máxima 32.6 23-02-2009 00:00 33.0 -- 32.6 2023-12-31 00:58:00
2009-02-26 00:00:00 Temperatura 25.9 del 25-02-2009 19:00, Mayor que la Máxima 25.4 26-02-2009 00:00 25.9 -- 25.4 2023-12-31 00:58:00
2009-03-02 00:00:00 Temperatura 26.5 del 01-03-2009 19:00, Mayor que la Máxima 26.2 02-03-2009 00:00 26.5 -- 26.2 2023-12-31 00:58:00
2009-03-04 00:00:00 Temperatura 18.5 del 03-03-2009 19:00, Mayor que la Máxima 18.4 04-03-2009 00:00 18.5 -- 18.4 2023-12-31 00:58:00
2009-03-05 00:00:00 Temperatura 31.8 del 04-03-2009 18:00, Mayor que la Máxima 31.4 05-03-2009 00:00 31.8 -- 31.4 2023-12-31 00:58:00
2009-03-07 00:00:00 Temperatura 30.8 del 06-03-2009 16:00, Mayor que la Máxima 30.6 07-03-2009 00:00 30.8 -- 30.6 2023-12-31 00:58:00
2009-03-08 00:00:00 Temperatura 35.6 del 07-03-2009 19:00, Mayor que la Máxima 35.2 08-03-2009 00:00 35.6 -- 35.2 2023-12-31 00:58:00
2009-03-09 00:00:00 Temperatura 29.7 del 08-03-2009 18:00, Mayor que la Máxima 29.6 09-03-2009 00:00 29.7 -- 29.6 2023-12-31 00:58:00
2009-03-10 00:00:00 Temperatura 25.7 del 09-03-2009 19:00, Mayor que la Máxima 25.4 10-03-2009 00:00 25.7 -- 25.4 2023-12-31 00:58:00
2009-03-11 00:00:00 Temperatura 22.6 del 10-03-2009 20:00, Mayor que la Máxima 22.4 11-03-2009 00:00 22.6 -- 22.4 2023-12-31 00:58:00
2009-03-12 00:00:00 Temperatura 25.4 del 11-03-2009 17:00, Mayor que la Máxima 24.8 12-03-2009 00:00 25.4 -- 24.8 2023-12-31 00:58:00
2009-03-14 00:00:00 Temperatura 26.6 del 13-03-2009 18:00, Mayor que la Máxima 26.2 14-03-2009 00:00 26.6 -- 26.2 2023-12-31 00:58:00
2009-03-15 00:00:00 Temperatura 32.7 del 14-03-2009 21:00, Mayor que la Máxima 32.4 15-03-2009 00:00 32.7 -- 32.4 2023-12-31 00:58:00
2009-03-18 00:00:00 Temperatura 28.5 del 17-03-2009 16:00, Mayor que la Máxima 28.4 18-03-2009 00:00 28.5 -- 28.4 2023-12-31 00:58:00
2009-03-19 00:00:00 Temperatura 24.6 del 18-03-2009 16:00, Mayor que la Máxima 24.2 19-03-2009 00:00 24.6 -- 24.2 2023-12-31 00:58:00
2009-03-20 00:00:00 Temperatura 22.4 del 19-03-2009 20:00, Mayor que la Máxima 22.0 20-03-2009 00:00 22.4 -- 22.0 2023-12-31 00:58:00
2009-03-21 00:00:00 Temperatura 25.2 del 20-03-2009 18:00, Mayor que la Máxima 24.4 21-03-2009 00:00 25.2 -- 24.4 2023-12-31 00:58:00
2009-03-24 00:00:00 Temperatura 24.1 del 23-03-2009 16:00, Mayor que la Máxima 24.0 24-03-2009 00:00 24.1 -- 24.0 2023-12-31 00:58:00
2009-03-25 00:00:00 Temperatura 21.6 del 24-03-2009 18:00, Mayor que la Máxima 21.2 25-03-2009 00:00 21.6 -- 21.2 2023-12-31 00:58:00
2009-03-28 00:00:00 Temperatura 22.2 del 27-03-2009 18:00, Mayor que la Máxima 21.6 28-03-2009 00:00 22.2 -- 21.6 2023-12-31 00:58:00
2009-03-29 00:00:00 Temperatura 26.2 del 28-03-2009 17:00, Mayor que la Máxima 26.0 29-03-2009 00:00 26.2 -- 26.0 2023-12-31 00:58:00
2009-04-04 00:00:00 Temperatura 25.7 del 03-04-2009 17:00, Mayor que la Máxima 25.4 04-04-2009 00:00 25.7 -- 25.4 2023-12-31 00:58:00
2009-04-05 00:00:00 Temperatura 28.3 del 04-04-2009 18:00, Mayor que la Máxima 28.2 05-04-2009 00:00 28.3 -- 28.2 2023-12-31 00:58:00
2009-04-08 00:00:00 Temperatura 25.3 del 07-04-2009 17:00, Mayor que la Máxima 25.2 08-04-2009 00:00 25.3 -- 25.2 2023-12-31 00:58:00
2009-04-12 00:00:00 Temperatura 22.9 del 11-04-2009 18:00, Mayor que la Máxima 22.8 12-04-2009 00:00 22.9 -- 22.8 2023-12-31 00:58:00
2009-04-14 00:00:00 Temperatura 27.8 del 13-04-2009 18:00, Mayor que la Máxima 27.6 14-04-2009 00:00 27.8 -- 27.6 2023-12-31 00:58:00
2009-04-15 00:00:00 Temperatura 24.5 del 14-04-2009 16:00, Mayor que la Máxima 24.2 15-04-2009 00:00 24.5 -- 24.2 2023-12-31 00:58:00
2009-04-19 00:00:00 Temperatura 32.2 del 18-04-2009 18:00, Mayor que la Máxima 32.0 19-04-2009 00:00 32.2 -- 32.0 2023-12-31 00:58:00
2009-04-20 00:00:00 Temperatura 30.5 del 19-04-2009 17:00, Mayor que la Máxima 30.4 20-04-2009 00:00 30.5 -- 30.4 2023-12-31 00:58:00
2009-04-21 00:00:00 Temperatura 31.2 del 20-04-2009 18:00, Mayor que la Máxima 30.4 21-04-2009 00:00 31.2 -- 30.4 2023-12-31 00:58:00
2009-04-22 00:00:00 Temperatura 34.1 del 21-04-2009 17:00, Mayor que la Máxima 33.6 22-04-2009 00:00 34.1 -- 33.6 2023-12-31 00:58:00
2009-04-26 00:00:00 Temperatura 26.5 del 25-04-2009 18:00, Mayor que la Máxima 26.2 26-04-2009 00:00 26.5 -- 26.2 2023-12-31 00:58:00
2009-04-28 00:00:00 Temperatura 13.7 del 27-04-2009 18:00, Mayor que la Máxima 13.4 28-04-2009 00:00 13.7 -- 13.4 2023-12-31 00:58:00
2009-04-29 00:00:00 Temperatura 14.4 del 28-04-2009 18:00, Mayor que la Máxima 14.2 29-04-2009 00:00 14.4 -- 14.2 2023-12-31 00:58:00
2000-06-27 12:00:00 Temperatura 8.4 del 27-06-2000 12:00, Menor que la Mínima 8.5 27-06-2000 12:00 8.4 -- 8.5 2023-12-28 23:57:00
2001-06-09 12:00:00 Temperatura 2.8 del 09-06-2001 12:00, Menor que la Mínima 2.9 09-06-2001 12:00 2.8 -- 2.9 2023-12-28 23:58:00
2001-06-15 12:00:00 Temperatura 9.8 del 15-06-2001 12:00, Menor que la Mínima 10.0 15-06-2001 12:00 9.8 -- 10.0 2023-12-28 23:58:00
2001-06-23 12:00:00 Temperatura 3.4 del 23-06-2001 12:00, Menor que la Mínima 3.7 23-06-2001 12:00 3.4 -- 3.7 2023-12-28 23:58:00
2001-06-28 12:00:00 Temperatura 9.2 del 28-06-2001 12:00, Menor que la Mínima 9.4 28-06-2001 12:00 9.2 -- 9.4 2023-12-28 23:58:00
2001-07-14 12:00:00 Temperatura 9.4 del 14-07-2001 12:00, Menor que la Mínima 9.5 14-07-2001 12:00 9.4 -- 9.5 2023-12-28 23:58:00
2001-07-18 12:00:00 Temperatura 9.9 del 18-07-2001 12:00, Menor que la Mínima 10.1 18-07-2001 12:00 9.9 -- 10.1 2023-12-28 23:58:00
2001-08-02 12:00:00 Temperatura 9.3 del 02-08-2001 12:00, Menor que la Mínima 9.5 02-08-2001 12:00 9.3 -- 9.5 2023-12-28 23:58:00
2001-08-03 12:00:00 Temperatura 9.4 del 03-08-2001 12:00, Menor que la Mínima 9.5 03-08-2001 12:00 9.4 -- 9.5 2023-12-28 23:58:00
2001-08-10 12:00:00 Temperatura 6.5 del 10-08-2001 12:00, Menor que la Mínima 6.6 10-08-2001 12:00 6.5 -- 6.6 2023-12-28 23:58:00
2001-08-22 12:00:00 Temperatura 7.2 del 22-08-2001 12:00, Menor que la Mínima 7.3 22-08-2001 12:00 7.2 -- 7.3 2023-12-28 23:58:00
2001-09-23 12:00:00 Temperatura 11.8 del 23-09-2001 12:00, Menor que la Mínima 11.9 23-09-2001 12:00 11.8 -- 11.9 2023-12-28 23:58:00
2002-02-26 12:00:00 Temperatura 15.6 del 26-02-2002 12:00, Menor que la Mínima 15.7 26-02-2002 12:00 15.6 -- 15.7 2023-12-28 23:59:00
2002-05-17 12:00:00 Temperatura 8.1 del 17-05-2002 12:00, Menor que la Mínima 8.2 17-05-2002 12:00 8.1 -- 8.2 2023-12-28 23:59:00
2002-05-24 12:00:00 Temperatura 8.8 del 24-05-2002 12:00, Menor que la Mínima 9.1 24-05-2002 12:00 8.8 -- 9.1 2023-12-28 23:59:00
2002-05-26 12:00:00 Temperatura 12.2 del 26-05-2002 12:00, Menor que la Mínima 12.4 26-05-2002 12:00 12.2 -- 12.4 2023-12-28 23:59:00
2002-05-27 12:00:00 Temperatura 10.4 del 27-05-2002 12:00, Menor que la Mínima 10.6 27-05-2002 12:00 10.4 -- 10.6 2023-12-28 23:59:00
2002-06-05 12:00:00 Temperatura 8.0 del 05-06-2002 12:00, Menor que la Mínima 8.2 05-06-2002 12:00 8.0 -- 8.2 2023-12-28 23:59:00
2002-07-03 12:00:00 Temperatura -0.6 del 03-07-2002 12:00, Menor que la Mínima -0.5 03-07-2002 12:00 -0.6 -- -0.5 2023-12-28 23:59:00
2002-07-11 12:00:00 Temperatura 4.0 del 11-07-2002 12:00, Menor que la Mínima 4.3 11-07-2002 12:00 4.0 -- 4.3 2023-12-28 23:59:00
2002-07-18 12:00:00 Temperatura 8.7 del 18-07-2002 12:00, Menor que la Mínima 9.0 18-07-2002 12:00 8.7 -- 9.0 2023-12-28 23:59:00
2002-07-20 12:00:00 Temperatura 10.4 del 20-07-2002 12:00, Menor que la Mínima 10.5 20-07-2002 12:00 10.4 -- 10.5 2023-12-28 23:59:00
2002-08-03 12:00:00 Temperatura 9.6 del 03-08-2002 12:00, Menor que la Mínima 9.7 03-08-2002 12:00 9.6 -- 9.7 2023-12-29 00:00:00
2002-08-17 12:00:00 Temperatura 11.0 del 17-08-2002 12:00, Menor que la Mínima 11.2 17-08-2002 12:00 11.0 -- 11.2 2023-12-29 00:00:00
2002-08-26 12:00:00 Temperatura 11.6 del 26-08-2002 12:00, Menor que la Mínima 11.7 26-08-2002 12:00 11.6 -- 11.7 2023-12-29 00:00:00
2003-04-11 12:00:00 Temperatura 10.6 del 11-04-2003 12:00, Menor que la Mínima 10.7 11-04-2003 12:00 10.6 -- 10.7 2023-12-29 00:01:00
2003-05-22 12:00:00 Temperatura 11.5 del 22-05-2003 12:00, Menor que la Mínima 11.6 22-05-2003 12:00 11.5 -- 11.6 2023-12-29 00:01:00
2003-06-03 12:00:00 Temperatura 3.4 del 03-06-2003 12:00, Menor que la Mínima 3.5 03-06-2003 12:00 3.4 -- 3.5 2023-12-29 00:01:00
2003-07-03 12:00:00 Temperatura 8.9 del 03-07-2003 12:00, Menor que la Mínima 9.0 03-07-2003 12:00 8.9 -- 9.0 2023-12-29 00:01:00
2003-07-08 12:00:00 Temperatura 8.2 del 08-07-2003 12:00, Menor que la Mínima 8.4 08-07-2003 12:00 8.2 -- 8.4 2023-12-29 00:01:00
2003-08-09 12:00:00 Temperatura 3.5 del 09-08-2003 12:00, Menor que la Mínima 11.3 09-08-2003 12:00 3.5 -- 11.3 2023-12-29 00:01:00
2004-09-17 12:00:00 Temperatura 11.4 del 17-09-2004 12:00, Menor que la Mínima 11.5 17-09-2004 12:00 11.4 -- 11.5 2023-12-29 00:03:00
2005-09-22 12:00:00 Temperatura 8.3 del 22-09-2005 12:00, Menor que la Mínima 10.0 22-09-2005 12:00 8.3 -- 10.0 2023-12-29 00:04:00
2009-01-31 12:00:00 Temperatura 10.9 del 31-01-2009 10:00, Menor que la Mínima 11.0 31-01-2009 12:00 10.9 -- 11.0 2023-12-31 00:58:00
2009-02-01 12:00:00 Temperatura 11.1 del 01-02-2009 09:00, Menor que la Mínima 11.4 01-02-2009 12:00 11.1 -- 11.4 2023-12-31 00:58:00
2009-02-03 12:00:00 Temperatura 8.2 del 03-02-2009 10:00, Menor que la Mínima 8.4 03-02-2009 12:00 8.2 -- 8.4 2023-12-31 00:58:00
2009-02-06 12:00:00 Temperatura 9.7 del 06-02-2009 10:00, Menor que la Mínima 10.0 06-02-2009 12:00 9.7 -- 10.0 2023-12-31 00:58:00
2009-02-07 12:00:00 Temperatura 7.5 del 07-02-2009 10:00, Menor que la Mínima 7.6 07-02-2009 12:00 7.5 -- 7.6 2023-12-31 00:58:00
2009-02-08 12:00:00 Temperatura 8.9 del 08-02-2009 09:00, Menor que la Mínima 9.0 08-02-2009 12:00 8.9 -- 9.0 2023-12-31 00:58:00
2009-02-09 12:00:00 Temperatura 9.1 del 09-02-2009 09:00, Menor que la Mínima 9.2 09-02-2009 12:00 9.1 -- 9.2 2023-12-31 00:58:00
2009-02-18 12:00:00 Temperatura 13.0 del 18-02-2009 07:00, Menor que la Mínima 13.2 18-02-2009 12:00 13.0 -- 13.2 2023-12-31 00:58:00
2009-02-22 12:00:00 Temperatura 7.0 del 22-02-2009 10:00, Menor que la Mínima 7.2 22-02-2009 12:00 7.0 -- 7.2 2023-12-31 00:58:00
2009-02-28 12:00:00 Temperatura 13.4 del 28-02-2009 03:00, Menor que la Mínima 13.9 28-02-2009 12:00 13.4 -- 13.9 2023-12-31 00:58:00
2009-03-03 12:00:00 Temperatura 15.3 del 03-03-2009 01:00, Menor que la Mínima 15.4 03-03-2009 12:00 15.3 -- 15.4 2023-12-31 00:58:00
2009-03-08 12:00:00 Temperatura 8.4 del 08-03-2009 10:00, Menor que la Mínima 8.5 08-03-2009 12:00 8.4 -- 8.5 2023-12-31 00:58:00
2009-03-09 12:00:00 Temperatura 11.2 del 09-03-2009 05:00, Menor que la Mínima 11.4 09-03-2009 12:00 11.2 -- 11.4 2023-12-31 00:58:00
2009-03-10 12:00:00 Temperatura 15.3 del 10-03-2009 11:00, Menor que la Mínima 15.4 10-03-2009 12:00 15.3 -- 15.4 2023-12-31 00:58:00
2009-03-12 12:00:00 Temperatura 11.2 del 12-03-2009 07:00, Menor que la Mínima 11.3 12-03-2009 12:00 11.2 -- 11.3 2023-12-31 00:58:00
2009-03-15 12:00:00 Temperatura 9.4 del 15-03-2009 10:00, Menor que la Mínima 9.8 15-03-2009 12:00 9.4 -- 9.8 2023-12-31 00:58:00
2009-03-16 12:00:00 Temperatura 7.6 del 16-03-2009 09:00, Menor que la Mínima 7.8 16-03-2009 12:00 7.6 -- 7.8 2023-12-31 00:58:00
2009-03-17 12:00:00 Temperatura 8.8 del 17-03-2009 09:00, Menor que la Mínima 9.0 17-03-2009 12:00 8.8 -- 9.0 2023-12-31 00:58:00
2009-03-18 12:00:00 Temperatura 7.9 del 18-03-2009 10:00, Menor que la Mínima 8.2 18-03-2009 12:00 7.9 -- 8.2 2023-12-31 00:58:00
2009-03-20 12:00:00 Temperatura 8.8 del 20-03-2009 05:00, Menor que la Mínima 9.0 20-03-2009 12:00 8.8 -- 9.0 2023-12-31 00:58:00
2009-03-21 12:00:00 Temperatura 9.5 del 21-03-2009 03:00, Menor que la Mínima 9.6 21-03-2009 12:00 9.5 -- 9.6 2023-12-31 00:58:00
2009-03-24 12:00:00 Temperatura 12.3 del 24-03-2009 10:00, Menor que la Mínima 12.4 24-03-2009 12:00 12.3 -- 12.4 2023-12-31 00:58:00
2009-03-26 12:00:00 Temperatura 10.1 del 26-03-2009 10:00, Menor que la Mínima 10.2 26-03-2009 12:00 10.1 -- 10.2 2023-12-31 00:58:00
2009-03-29 12:00:00 Temperatura 10.5 del 29-03-2009 10:00, Menor que la Mínima 10.6 29-03-2009 12:00 10.5 -- 10.6 2023-12-31 00:58:00
2009-03-30 12:00:00 Temperatura 9.8 del 30-03-2009 08:00, Menor que la Mínima 10.0 30-03-2009 12:00 9.8 -- 10.0 2023-12-31 00:58:00
2009-03-31 12:00:00 Temperatura 10.0 del 31-03-2009 10:00, Menor que la Mínima 10.2 31-03-2009 12:00 10.0 -- 10.2 2023-12-31 00:58:00
2009-04-05 12:00:00 Temperatura 7.5 del 05-04-2009 10:00, Menor que la Mínima 7.7 05-04-2009 12:00 7.5 -- 7.7 2023-12-31 00:58:00
2009-04-07 12:00:00 Temperatura 10.3 del 07-04-2009 07:00, Menor que la Mínima 10.4 07-04-2009 12:00 10.3 -- 10.4 2023-12-31 00:58:00
2009-04-08 12:00:00 Temperatura 12.9 del 08-04-2009 09:00, Menor que la Mínima 13.0 08-04-2009 12:00 12.9 -- 13.0 2023-12-31 00:58:00
2009-04-10 12:00:00 Temperatura 10.8 del 10-04-2009 01:00, Menor que la Mínima 12.4 10-04-2009 12:00 10.8 -- 12.4 2023-12-31 00:58:00
2009-04-11 12:00:00 Temperatura 6.8 del 11-04-2009 10:00, Menor que la Mínima 7.0 11-04-2009 12:00 6.8 -- 7.0 2023-12-31 00:58:00
2009-04-13 12:00:00 Temperatura 6.8 del 13-04-2009 10:00, Menor que la Mínima 7.2 13-04-2009 12:00 6.8 -- 7.2 2023-12-31 00:58:00
2009-04-17 12:00:00 Temperatura 10.7 del 17-04-2009 10:00, Menor que la Mínima 10.8 17-04-2009 12:00 10.7 -- 10.8 2023-12-31 00:58:00
2009-04-19 12:00:00 Temperatura 6.3 del 19-04-2009 10:00, Menor que la Mínima 6.4 19-04-2009 12:00 6.3 -- 6.4 2023-12-31 00:58:00
2009-04-21 12:00:00 Temperatura 7.5 del 21-04-2009 10:00, Menor que la Mínima 7.6 21-04-2009 12:00 7.5 -- 7.6 2023-12-31 00:58:00
2009-04-22 12:00:00 Temperatura 7.3 del 22-04-2009 10:00, Menor que la Mínima 7.5 22-04-2009 12:00 7.3 -- 7.5 2023-12-31 00:58:00
2009-04-24 12:00:00 Temperatura 5.3 del 24-04-2009 09:00, Menor que la Mínima 5.6 24-04-2009 12:00 5.3 -- 5.6 2023-12-31 00:58:00
2009-04-30 12:00:00 Temperatura 9.9 del 30-04-2009 11:00, Menor que la Mínima 10.0 30-04-2009 12:00 9.9 -- 10.0 2023-12-31 00:58:00
Total de Errores Recientes 151

Detalle de Errores Encontrados

Nivel Fecha del Dato Descripción Información Error Fecha Ingreso
1 2016-06-04 14:00:00 Ts debe ser mayor o igual a Td Ts=10.6 - Td=10.7 2023-10-24 23:30:00
1 2017-06-24 14:00:00 Ts debe ser mayor o igual a Td Ts=12.5 - Td=12.6 2023-10-24 23:38:00
1 2018-08-31 12:00:00 Ts debe ser mayor o igual a Td Ts=8.6 - Td=8.7 2023-11-10 04:53:00
1 2019-05-15 05:00:00 Ts debe ser mayor o igual a Td Ts=8.6 - Td=8.7 2023-10-24 23:52:00
1 2019-05-15 06:00:00 Ts debe ser mayor o igual a Td Ts=8.5 - Td=8.6 2023-10-24 23:52:00
1 2019-05-15 08:00:00 Ts debe ser mayor o igual a Td Ts=8.7 - Td=8.8 2023-10-24 23:52:00
1 2019-05-15 09:00:00 Ts debe ser mayor o igual a Td Ts=8.4 - Td=8.5 2023-10-24 23:52:00
1 2019-05-31 10:00:00 Ts debe ser mayor o igual a Td Ts=11.6 - Td=11.7 2023-10-24 23:53:00
1 2019-05-31 11:00:00 Ts debe ser mayor o igual a Td Ts=11.7 - Td=11.8 2023-10-24 23:53:00
1 2019-10-02 11:00:00 Ts debe ser mayor o igual a Td Ts=1.4 - Td=2.8 2023-10-24 23:55:00
1 2019-10-02 12:00:00 Ts debe ser mayor o igual a Td Ts=3.9 - Td=5.0 2023-10-24 23:55:00
1 2019-10-03 12:00:00 Ts debe ser mayor o igual a Td Ts=3.9 - Td=4.5 2023-10-24 23:55:00
1 2019-10-04 11:00:00 Ts debe ser mayor o igual a Td Ts=1.3 - Td=2.3 2023-10-24 23:55:00
1 2019-10-04 12:00:00 Ts debe ser mayor o igual a Td Ts=3.9 - Td=5.2 2023-10-24 23:55:00
1 2019-10-05 12:00:00 Ts debe ser mayor o igual a Td Ts=5.0 - Td=5.1 2023-10-24 23:55:00
1 2019-10-16 11:00:00 Ts debe ser mayor o igual a Td Ts=5.6 - Td=6.3 2023-10-24 23:55:00
1 2019-10-21 11:00:00 Ts debe ser mayor o igual a Td Ts=3.6 - Td=6.0 2023-10-24 23:56:00
1 2019-10-22 11:00:00 Ts debe ser mayor o igual a Td Ts=5.5 - Td=5.9 2023-10-24 23:56:00
1 2019-10-23 11:00:00 Ts debe ser mayor o igual a Td Ts=4.6 - Td=6.6 2023-10-24 23:56:00
1 2019-10-23 12:00:00 Ts debe ser mayor o igual a Td Ts=9.0 - Td=9.2 2023-10-24 23:56:00
1 2019-10-24 07:00:00 Ts debe ser mayor o igual a Td Ts=8.9 - Td=9.3 2023-10-24 23:56:00
1 2019-10-26 11:00:00 Ts debe ser mayor o igual a Td Ts=5.9 - Td=6.7 2023-10-24 23:56:00
1 2019-10-27 11:00:00 Ts debe ser mayor o igual a Td Ts=7.7 - Td=8.9 2023-10-24 23:56:00
1 2019-10-27 12:00:00 Ts debe ser mayor o igual a Td Ts=10.1 - Td=10.7 2023-10-24 23:56:00
1 2019-10-28 11:00:00 Ts debe ser mayor o igual a Td Ts=7.4 - Td=7.6 2023-10-24 23:56:00
1 2019-10-30 11:00:00 Ts debe ser mayor o igual a Td Ts=4.8 - Td=5.5 2023-10-24 23:56:00
1 2019-10-31 11:00:00 Ts debe ser mayor o igual a Td Ts=6.6 - Td=6.7 2023-10-24 23:56:00
1 2019-11-01 11:00:00 Ts debe ser mayor o igual a Td Ts=5.4 - Td=7.8 2023-10-24 23:56:00
1 2019-11-02 11:00:00 Ts debe ser mayor o igual a Td Ts=5.1 - Td=6.5 2023-10-24 23:56:00
1 2019-11-03 11:00:00 Ts debe ser mayor o igual a Td Ts=6.5 - Td=7.6 2023-10-24 23:56:00
1 2019-11-05 11:00:00 Ts debe ser mayor o igual a Td Ts=6.3 - Td=8.8 2023-10-24 23:56:00
1 2019-11-06 11:00:00 Ts debe ser mayor o igual a Td Ts=7.4 - Td=8.0 2023-10-24 23:56:00
1 2019-11-08 11:00:00 Ts debe ser mayor o igual a Td Ts=9.2 - Td=10.3 2023-10-24 23:56:00
1 2019-11-09 10:00:00 Ts debe ser mayor o igual a Td Ts=6.8 - Td=7.7 2023-10-24 23:56:00
1 2019-11-09 11:00:00 Ts debe ser mayor o igual a Td Ts=8.1 - Td=10.3 2023-10-24 23:56:00
1 2019-11-09 12:00:00 Ts debe ser mayor o igual a Td Ts=11.9 - Td=12.3 2023-10-24 23:56:00
1 2019-11-10 10:00:00 Ts debe ser mayor o igual a Td Ts=7.0 - Td=8.2 2023-10-24 23:56:00
1 2019-11-10 11:00:00 Ts debe ser mayor o igual a Td Ts=8.7 - Td=11.3 2023-10-24 23:56:00
1 2019-11-11 07:00:00 Ts debe ser mayor o igual a Td Ts=11.1 - Td=11.3 2023-10-24 23:56:00
1 2019-11-14 11:00:00 Ts debe ser mayor o igual a Td Ts=10.1 - Td=12.1 2023-10-24 23:56:00
1 2019-11-20 11:00:00 Ts debe ser mayor o igual a Td Ts=10.2 - Td=11.0 2023-10-24 23:56:00
1 2019-11-21 10:00:00 Ts debe ser mayor o igual a Td Ts=9.9 - Td=10.4 2023-10-24 23:56:00
1 2019-11-21 11:00:00 Ts debe ser mayor o igual a Td Ts=11.1 - Td=11.8 2023-10-24 23:56:00
1 2019-11-21 12:00:00 Ts debe ser mayor o igual a Td Ts=13.1 - Td=13.4 2023-10-24 23:56:00
1 2019-11-22 11:00:00 Ts debe ser mayor o igual a Td Ts=10.5 - Td=12.4 2023-10-24 23:56:00
1 2019-11-23 10:00:00 Ts debe ser mayor o igual a Td Ts=9.0 - Td=9.7 2023-10-24 23:56:00
1 2019-11-24 11:00:00 Ts debe ser mayor o igual a Td Ts=9.0 - Td=9.8 2023-10-24 23:56:00
1 2019-12-03 10:00:00 Ts debe ser mayor o igual a Td Ts=9.2 - Td=9.3 2023-10-24 23:57:00
1 2019-12-03 11:00:00 Ts debe ser mayor o igual a Td Ts=10.3 - Td=12.1 2023-10-24 23:57:00
1 2019-12-04 11:00:00 Ts debe ser mayor o igual a Td Ts=7.9 - Td=8.6 2023-10-24 23:57:00
1 2019-12-06 11:00:00 Ts debe ser mayor o igual a Td Ts=8.1 - Td=10.3 2023-10-24 23:57:00
1 2019-12-06 12:00:00 Ts debe ser mayor o igual a Td Ts=12.3 - Td=12.5 2023-10-24 23:57:00
1 2019-12-10 07:00:00 Ts debe ser mayor o igual a Td Ts=9.4 - Td=10.0 2023-10-24 23:57:00
1 2019-12-11 10:00:00 Ts debe ser mayor o igual a Td Ts=8.1 - Td=9.4 2023-10-24 23:57:00
Errores del Nivel 54
Nivel Fecha del Dato Descripción Información Error Fecha Ingreso
2 1994-05-22 00:00:00 Temperatura 18.5 del 22-05-1994 00:00, Mayor que la Máxima 16.8 22-05-1994 00:00 18.5 -- 16.8 2023-12-28 23:47:00
2 1998-04-07 00:00:00 Temperatura 23.0 del 06-04-1998 18:00, Mayor que la Máxima 19.2 07-04-1998 00:00 23.0 -- 19.2 2023-12-28 23:54:00
2 2000-09-15 00:00:00 Temperatura 17.3 del 14-09-2000 18:00, Mayor que la Máxima 17.2 15-09-2000 00:00 17.3 -- 17.2 2023-12-28 23:57:00
2 2000-09-18 00:00:00 Temperatura 16.1 del 17-09-2000 18:00, Mayor que la Máxima 15.4 18-09-2000 00:00 16.1 -- 15.4 2023-12-28 23:57:00
2 2001-03-25 00:00:00 Temperatura 26.5 del 24-03-2001 18:00, Mayor que la Máxima 26.3 25-03-2001 00:00 26.5 -- 26.3 2023-12-28 23:58:00
2 2001-04-01 00:00:00 Temperatura 25.3 del 31-03-2001 18:00, Mayor que la Máxima 25.2 01-04-2001 00:00 25.3 -- 25.2 2023-12-28 23:58:00
2 2001-04-22 00:00:00 Temperatura 23.4 del 21-04-2001 18:00, Mayor que la Máxima 19.6 22-04-2001 00:00 23.4 -- 19.6 2023-12-28 23:58:00
2 2001-05-15 00:00:00 Temperatura 17.0 del 14-05-2001 18:00, Mayor que la Máxima 16.4 15-05-2001 00:00 17.0 -- 16.4 2023-12-28 23:58:00
2 2001-12-29 00:00:00 Temperatura 25.1 del 28-12-2001 18:00, Mayor que la Máxima 25.0 29-12-2001 00:00 25.1 -- 25.0 2023-12-28 23:59:00
2 2002-03-25 00:00:00 Temperatura 30.3 del 24-03-2002 18:00, Mayor que la Máxima 30.2 25-03-2002 00:00 30.3 -- 30.2 2023-12-28 23:59:00
2 2002-04-14 00:00:00 Temperatura 23.8 del 13-04-2002 18:00, Mayor que la Máxima 23.7 14-04-2002 00:00 23.8 -- 23.7 2023-12-28 23:59:00
2 2002-05-20 00:00:00 Temperatura 17.3 del 19-05-2002 18:00, Mayor que la Máxima 17.2 20-05-2002 00:00 17.3 -- 17.2 2023-12-28 23:59:00
2 2002-10-01 00:00:00 Temperatura 25.2 del 30-09-2002 18:00, Mayor que la Máxima 24.0 01-10-2002 00:00 25.2 -- 24.0 2023-12-29 00:00:00
2 2003-05-26 00:00:00 Temperatura 28.0 del 25-05-2003 18:00, Mayor que la Máxima 18.6 26-05-2003 00:00 28.0 -- 18.6 2023-12-29 00:01:00
2 2003-11-02 00:00:00 Temperatura 24.3 del 01-11-2003 18:00, Mayor que la Máxima 21.4 02-11-2003 00:00 24.3 -- 21.4 2023-12-29 00:01:00
2 2003-11-30 00:00:00 Temperatura 24.8 del 29-11-2003 18:00, Mayor que la Máxima 24.6 30-11-2003 00:00 24.8 -- 24.6 2023-12-29 00:01:00
2 2004-06-10 00:00:00 Temperatura 14.6 del 09-06-2004 18:00, Mayor que la Máxima 10.6 10-06-2004 00:00 14.6 -- 10.6 2023-12-29 00:02:00
2 2004-07-26 00:00:00 Temperatura 12.0 del 25-07-2004 18:00, Mayor que la Máxima 11.7 26-07-2004 00:00 12.0 -- 11.7 2023-12-29 00:02:00
2 2004-09-13 00:00:00 Temperatura 26.4 del 12-09-2004 18:00, Mayor que la Máxima 26.2 13-09-2004 00:00 26.4 -- 26.2 2023-12-29 00:03:00
2 2004-10-24 00:00:00 Temperatura 25.7 del 23-10-2004 18:00, Mayor que la Máxima 25.6 24-10-2004 00:00 25.7 -- 25.6 2023-12-29 00:03:00
2 2004-12-10 00:00:00 Temperatura 23.9 del 09-12-2004 18:00, Mayor que la Máxima 23.8 10-12-2004 00:00 23.9 -- 23.8 2023-12-29 00:03:00
2 2004-12-22 00:00:00 Temperatura 27.1 del 21-12-2004 18:00, Mayor que la Máxima 26.2 22-12-2004 00:00 27.1 -- 26.2 2023-12-29 00:03:00
2 2005-05-23 00:00:00 Temperatura 19.1 del 22-05-2005 18:00, Mayor que la Máxima 14.4 23-05-2005 00:00 19.1 -- 14.4 2023-12-29 00:03:00
2 2005-05-29 00:00:00 Temperatura 18.4 del 28-05-2005 18:00, Mayor que la Máxima 15.6 29-05-2005 00:00 18.4 -- 15.6 2023-12-29 00:03:00
2 2005-09-05 00:00:00 Temperatura 20.4 del 04-09-2005 18:00, Mayor que la Máxima 19.0 05-09-2005 00:00 20.4 -- 19.0 2023-12-29 00:04:00
2 2005-10-03 00:00:00 Temperatura 16.8 del 02-10-2005 18:00, Mayor que la Máxima 16.6 03-10-2005 00:00 16.8 -- 16.6 2023-12-29 00:04:00
2 2005-12-26 00:00:00 Temperatura 21.5 del 25-12-2005 18:00, Mayor que la Máxima 20.8 26-12-2005 00:00 21.5 -- 20.8 2023-12-29 00:04:00
2 2006-06-11 00:00:00 Temperatura 14.8 del 10-06-2006 18:00, Mayor que la Máxima 14.7 11-06-2006 00:00 14.8 -- 14.7 2023-12-29 00:05:00
2 2006-07-27 00:00:00 Temperatura 8.9 del 27-07-2006 00:00, Mayor que la Máxima 8.6 27-07-2006 00:00 8.9 -- 8.6 2023-12-29 00:05:00
2 2009-02-01 00:00:00 Temperatura 25.3 del 31-01-2009 17:00, Mayor que la Máxima 25.0 01-02-2009 00:00 25.3 -- 25.0 2023-12-31 00:58:00
2 2009-02-02 00:00:00 Temperatura 22.9 del 01-02-2009 19:00, Mayor que la Máxima 22.4 02-02-2009 00:00 22.9 -- 22.4 2023-12-31 00:58:00
2 2009-02-03 00:00:00 Temperatura 25.8 del 02-02-2009 19:00, Mayor que la Máxima 24.8 03-02-2009 00:00 25.8 -- 24.8 2023-12-31 00:58:00
2 2009-02-04 00:00:00 Temperatura 30.1 del 03-02-2009 17:00, Mayor que la Máxima 30.0 04-02-2009 00:00 30.1 -- 30.0 2023-12-31 00:58:00
2 2009-02-05 00:00:00 Temperatura 29.0 del 04-02-2009 18:00, Mayor que la Máxima 28.4 05-02-2009 00:00 29.0 -- 28.4 2023-12-31 00:58:00
2 2009-02-06 00:00:00 Temperatura 34.1 del 05-02-2009 19:00, Mayor que la Máxima 33.2 06-02-2009 00:00 34.1 -- 33.2 2023-12-31 00:58:00
2 2009-02-07 00:00:00 Temperatura 30.3 del 06-02-2009 17:00, Mayor que la Máxima 30.0 07-02-2009 00:00 30.3 -- 30.0 2023-12-31 00:58:00
2 2009-02-09 00:00:00 Temperatura 29.0 del 08-02-2009 18:00, Mayor que la Máxima 28.4 09-02-2009 00:00 29.0 -- 28.4 2023-12-31 00:58:00
2 2009-02-10 00:00:00 Temperatura 24.9 del 09-02-2009 16:00, Mayor que la Máxima 24.4 10-02-2009 00:00 24.9 -- 24.4 2023-12-31 00:58:00
2 2009-02-11 00:00:00 Temperatura 29.4 del 10-02-2009 19:00, Mayor que la Máxima 28.8 11-02-2009 00:00 29.4 -- 28.8 2023-12-31 00:58:00
2 2009-02-12 00:00:00 Temperatura 36.9 del 11-02-2009 20:00, Mayor que la Máxima 36.4 12-02-2009 00:00 36.9 -- 36.4 2023-12-31 00:58:00
2 2009-02-13 00:00:00 Temperatura 28.8 del 12-02-2009 17:00, Mayor que la Máxima 28.4 13-02-2009 00:00 28.8 -- 28.4 2023-12-31 00:58:00
2 2009-02-14 00:00:00 Temperatura 31.3 del 13-02-2009 20:00, Mayor que la Máxima 31.0 14-02-2009 00:00 31.3 -- 31.0 2023-12-31 00:58:00
2 2009-02-16 00:00:00 Temperatura 25.8 del 15-02-2009 17:00, Mayor que la Máxima 25.2 16-02-2009 00:00 25.8 -- 25.2 2023-12-31 00:58:00
2 2009-02-17 00:00:00 Temperatura 29.9 del 16-02-2009 18:00, Mayor que la Máxima 29.2 17-02-2009 00:00 29.9 -- 29.2 2023-12-31 00:58:00
2 2009-02-19 00:00:00 Temperatura 28.7 del 18-02-2009 19:00, Mayor que la Máxima 28.2 19-02-2009 00:00 28.7 -- 28.2 2023-12-31 00:58:00
2 2009-02-22 00:00:00 Temperatura 25.5 del 21-02-2009 20:00, Mayor que la Máxima 25.2 22-02-2009 00:00 25.5 -- 25.2 2023-12-31 00:58:00
2 2009-02-23 00:00:00 Temperatura 33.0 del 22-02-2009 20:00, Mayor que la Máxima 32.6 23-02-2009 00:00 33.0 -- 32.6 2023-12-31 00:58:00
2 2009-02-26 00:00:00 Temperatura 25.9 del 25-02-2009 19:00, Mayor que la Máxima 25.4 26-02-2009 00:00 25.9 -- 25.4 2023-12-31 00:58:00
2 2009-03-02 00:00:00 Temperatura 26.5 del 01-03-2009 19:00, Mayor que la Máxima 26.2 02-03-2009 00:00 26.5 -- 26.2 2023-12-31 00:58:00
2 2009-03-04 00:00:00 Temperatura 18.5 del 03-03-2009 19:00, Mayor que la Máxima 18.4 04-03-2009 00:00 18.5 -- 18.4 2023-12-31 00:58:00
2 2009-03-05 00:00:00 Temperatura 31.8 del 04-03-2009 18:00, Mayor que la Máxima 31.4 05-03-2009 00:00 31.8 -- 31.4 2023-12-31 00:58:00
2 2009-03-07 00:00:00 Temperatura 30.8 del 06-03-2009 16:00, Mayor que la Máxima 30.6 07-03-2009 00:00 30.8 -- 30.6 2023-12-31 00:58:00
2 2009-03-08 00:00:00 Temperatura 35.6 del 07-03-2009 19:00, Mayor que la Máxima 35.2 08-03-2009 00:00 35.6 -- 35.2 2023-12-31 00:58:00
2 2009-03-09 00:00:00 Temperatura 29.7 del 08-03-2009 18:00, Mayor que la Máxima 29.6 09-03-2009 00:00 29.7 -- 29.6 2023-12-31 00:58:00
2 2009-03-10 00:00:00 Temperatura 25.7 del 09-03-2009 19:00, Mayor que la Máxima 25.4 10-03-2009 00:00 25.7 -- 25.4 2023-12-31 00:58:00
2 2009-03-11 00:00:00 Temperatura 22.6 del 10-03-2009 20:00, Mayor que la Máxima 22.4 11-03-2009 00:00 22.6 -- 22.4 2023-12-31 00:58:00
2 2009-03-12 00:00:00 Temperatura 25.4 del 11-03-2009 17:00, Mayor que la Máxima 24.8 12-03-2009 00:00 25.4 -- 24.8 2023-12-31 00:58:00
2 2009-03-14 00:00:00 Temperatura 26.6 del 13-03-2009 18:00, Mayor que la Máxima 26.2 14-03-2009 00:00 26.6 -- 26.2 2023-12-31 00:58:00
2 2009-03-15 00:00:00 Temperatura 32.7 del 14-03-2009 21:00, Mayor que la Máxima 32.4 15-03-2009 00:00 32.7 -- 32.4 2023-12-31 00:58:00
2 2009-03-18 00:00:00 Temperatura 28.5 del 17-03-2009 16:00, Mayor que la Máxima 28.4 18-03-2009 00:00 28.5 -- 28.4 2023-12-31 00:58:00
2 2009-03-19 00:00:00 Temperatura 24.6 del 18-03-2009 16:00, Mayor que la Máxima 24.2 19-03-2009 00:00 24.6 -- 24.2 2023-12-31 00:58:00
2 2009-03-20 00:00:00 Temperatura 22.4 del 19-03-2009 20:00, Mayor que la Máxima 22.0 20-03-2009 00:00 22.4 -- 22.0 2023-12-31 00:58:00
2 2009-03-21 00:00:00 Temperatura 25.2 del 20-03-2009 18:00, Mayor que la Máxima 24.4 21-03-2009 00:00 25.2 -- 24.4 2023-12-31 00:58:00
2 2009-03-24 00:00:00 Temperatura 24.1 del 23-03-2009 16:00, Mayor que la Máxima 24.0 24-03-2009 00:00 24.1 -- 24.0 2023-12-31 00:58:00
2 2009-03-25 00:00:00 Temperatura 21.6 del 24-03-2009 18:00, Mayor que la Máxima 21.2 25-03-2009 00:00 21.6 -- 21.2 2023-12-31 00:58:00
2 2009-03-28 00:00:00 Temperatura 22.2 del 27-03-2009 18:00, Mayor que la Máxima 21.6 28-03-2009 00:00 22.2 -- 21.6 2023-12-31 00:58:00
2 2009-03-29 00:00:00 Temperatura 26.2 del 28-03-2009 17:00, Mayor que la Máxima 26.0 29-03-2009 00:00 26.2 -- 26.0 2023-12-31 00:58:00
2 2009-04-04 00:00:00 Temperatura 25.7 del 03-04-2009 17:00, Mayor que la Máxima 25.4 04-04-2009 00:00 25.7 -- 25.4 2023-12-31 00:58:00
2 2009-04-05 00:00:00 Temperatura 28.3 del 04-04-2009 18:00, Mayor que la Máxima 28.2 05-04-2009 00:00 28.3 -- 28.2 2023-12-31 00:58:00
2 2009-04-08 00:00:00 Temperatura 25.3 del 07-04-2009 17:00, Mayor que la Máxima 25.2 08-04-2009 00:00 25.3 -- 25.2 2023-12-31 00:58:00
2 2009-04-12 00:00:00 Temperatura 22.9 del 11-04-2009 18:00, Mayor que la Máxima 22.8 12-04-2009 00:00 22.9 -- 22.8 2023-12-31 00:58:00
2 2009-04-14 00:00:00 Temperatura 27.8 del 13-04-2009 18:00, Mayor que la Máxima 27.6 14-04-2009 00:00 27.8 -- 27.6 2023-12-31 00:58:00
2 2009-04-15 00:00:00 Temperatura 24.5 del 14-04-2009 16:00, Mayor que la Máxima 24.2 15-04-2009 00:00 24.5 -- 24.2 2023-12-31 00:58:00
2 2009-04-19 00:00:00 Temperatura 32.2 del 18-04-2009 18:00, Mayor que la Máxima 32.0 19-04-2009 00:00 32.2 -- 32.0 2023-12-31 00:58:00
2 2009-04-20 00:00:00 Temperatura 30.5 del 19-04-2009 17:00, Mayor que la Máxima 30.4 20-04-2009 00:00 30.5 -- 30.4 2023-12-31 00:58:00
2 2009-04-21 00:00:00 Temperatura 31.2 del 20-04-2009 18:00, Mayor que la Máxima 30.4 21-04-2009 00:00 31.2 -- 30.4 2023-12-31 00:58:00
2 2009-04-22 00:00:00 Temperatura 34.1 del 21-04-2009 17:00, Mayor que la Máxima 33.6 22-04-2009 00:00 34.1 -- 33.6 2023-12-31 00:58:00
2 2009-04-26 00:00:00 Temperatura 26.5 del 25-04-2009 18:00, Mayor que la Máxima 26.2 26-04-2009 00:00 26.5 -- 26.2 2023-12-31 00:58:00
2 2009-04-28 00:00:00 Temperatura 13.7 del 27-04-2009 18:00, Mayor que la Máxima 13.4 28-04-2009 00:00 13.7 -- 13.4 2023-12-31 00:58:00
2 2009-04-29 00:00:00 Temperatura 14.4 del 28-04-2009 18:00, Mayor que la Máxima 14.2 29-04-2009 00:00 14.4 -- 14.2 2023-12-31 00:58:00
2 2010-01-01 00:00:00 Temperatura 26.3 del 31-12-2009 18:00, Mayor que la Máxima 13.6 01-01-2010 00:00 26.3 -- 13.6 2020-10-27 22:58:00
2 2010-01-01 00:00:00 Temperatura 20.9 del 01-01-2010 00:00, Mayor que la Máxima 13.6 01-01-2010 00:00 20.9 -- 13.6 2020-10-27 22:58:00
2 2010-02-26 00:00:00 Temperatura 24.1 del 25-02-2010 15:00, Mayor que la Máxima 22.0 26-02-2010 00:00 24.1 -- 22.0 2020-10-27 23:04:00
2 2010-04-16 00:00:00 Temperatura 21.8 del 15-04-2010 16:00, Mayor que la Máxima 21.6 16-04-2010 00:00 21.8 -- 21.6 2020-10-27 23:10:00
2 2010-05-15 00:00:00 Temperatura 14.2 del 14-05-2010 16:00, Mayor que la Máxima 14.1 15-05-2010 00:00 14.2 -- 14.1 2020-10-27 23:13:00
2 2010-06-15 00:00:00 Temperatura 16.5 del 14-06-2010 16:00, Mayor que la Máxima 16.2 15-06-2010 00:00 16.5 -- 16.2 2020-10-27 23:16:00
2 2010-07-07 00:00:00 Temperatura 12.2 del 06-07-2010 14:00, Mayor que la Máxima 10.3 07-07-2010 00:00 12.2 -- 10.3 2020-10-27 23:18:00
2 2010-07-31 00:00:00 Temperatura 11.7 del 30-07-2010 15:00, Mayor que la Máxima 11.1 31-07-2010 00:00 11.7 -- 11.1 2020-10-27 23:21:00
2 2010-08-16 00:00:00 Temperatura 14.0 del 15-08-2010 16:00, Mayor que la Máxima 12.6 16-08-2010 00:00 14.0 -- 12.6 2020-10-27 23:22:00
2 2010-11-08 00:00:00 Temperatura 14.6 del 07-11-2010 14:00, Mayor que la Máxima 13.3 08-11-2010 00:00 14.6 -- 13.3 2020-10-27 23:31:00
2 2010-11-25 00:00:00 Temperatura 23.0 del 24-11-2010 17:00, Mayor que la Máxima 22.8 25-11-2010 00:00 23.0 -- 22.8 2020-10-27 23:33:00
2 2011-01-02 00:00:00 Temperatura 25.8 del 01-01-2011 19:00, Mayor que la Máxima 25.2 02-01-2011 00:00 25.8 -- 25.2 2012-07-25 17:00:00
2 2011-01-02 00:00:00 Temperatura 25.8 del 01-01-2011 19:00, Mayor que la Máxima 25.2 02-01-2011 00:00 25.8 -- 25.2 2012-07-25 17:00:00
2 2011-01-03 00:00:00 Temperatura 25.2 del 02-01-2011 18:00, Mayor que la Máxima 25.0 03-01-2011 00:00 25.2 -- 25.0 2012-07-25 18:23:00
2 2011-01-04 00:00:00 Temperatura 27.4 del 03-01-2011 16:00, Mayor que la Máxima 26.6 04-01-2011 00:00 27.4 -- 26.6 2012-07-25 19:10:00
2 2011-01-06 00:00:00 Temperatura 32.4 del 05-01-2011 18:00, Mayor que la Máxima 32.2 06-01-2011 00:00 32.4 -- 32.2 2012-07-25 20:02:00
2 2011-01-07 00:00:00 Temperatura 24.8 del 06-01-2011 19:00, Mayor que la Máxima 24.2 07-01-2011 00:00 24.8 -- 24.2 2012-07-25 20:09:00
2 2011-01-08 00:00:00 Temperatura 26.9 del 07-01-2011 18:00, Mayor que la Máxima 26.4 08-01-2011 00:00 26.9 -- 26.4 2012-07-25 20:18:00
2 2011-01-12 00:00:00 Temperatura 27.4 del 11-01-2011 17:00, Mayor que la Máxima 26.4 12-01-2011 00:00 27.4 -- 26.4 2012-07-26 14:22:00
2 2011-01-13 00:00:00 Temperatura 26.2 del 12-01-2011 18:00, Mayor que la Máxima 25.6 13-01-2011 00:00 26.2 -- 25.6 2012-07-26 14:28:00
2 2011-01-14 00:00:00 Temperatura 27.1 del 13-01-2011 20:00, Mayor que la Máxima 26.8 14-01-2011 00:00 27.1 -- 26.8 2012-07-26 14:32:00
2 2011-01-15 00:00:00 Temperatura 28.3 del 14-01-2011 18:00, Mayor que la Máxima 28.0 15-01-2011 00:00 28.3 -- 28.0 2012-07-27 15:19:00
2 2011-01-16 00:00:00 Temperatura 26.9 del 15-01-2011 16:00, Mayor que la Máxima 26.2 16-01-2011 00:00 26.9 -- 26.2 2012-07-27 15:40:00
2 2011-01-17 00:00:00 Temperatura 31.3 del 16-01-2011 18:00, Mayor que la Máxima 30.0 17-01-2011 00:00 31.3 -- 30.0 2012-07-27 16:33:00
2 2011-01-18 00:00:00 Temperatura 33.4 del 17-01-2011 19:00, Mayor que la Máxima 32.6 18-01-2011 00:00 33.4 -- 32.6 2012-07-27 16:48:00
2 2011-01-19 00:00:00 Temperatura 28.6 del 18-01-2011 16:00, Mayor que la Máxima 28.0 19-01-2011 00:00 28.6 -- 28.0 2012-07-27 18:37:00
2 2011-01-20 00:00:00 Temperatura 34.1 del 19-01-2011 18:00, Mayor que la Máxima 33.0 20-01-2011 00:00 34.1 -- 33.0 2012-07-27 18:42:00
2 2011-01-21 00:00:00 Temperatura 28.1 del 20-01-2011 18:00, Mayor que la Máxima 28.0 21-01-2011 00:00 28.1 -- 28.0 2012-07-27 18:46:00
2 2011-01-22 00:00:00 Temperatura 26.5 del 21-01-2011 19:00, Mayor que la Máxima 26.2 22-01-2011 00:00 26.5 -- 26.2 2012-07-27 19:02:00
2 2011-01-24 00:00:00 Temperatura 27.3 del 23-01-2011 19:00, Mayor que la Máxima 27.0 24-01-2011 00:00 27.3 -- 27.0 2012-07-30 13:10:00
2 2011-01-25 00:00:00 Temperatura 28.6 del 24-01-2011 18:00, Mayor que la Máxima 28.4 25-01-2011 00:00 28.6 -- 28.4 2012-07-30 13:17:00
2 2011-01-26 00:00:00 Temperatura 27.3 del 25-01-2011 20:00, Mayor que la Máxima 26.6 26-01-2011 00:00 27.3 -- 26.6 2012-07-30 13:26:00
2 2011-01-27 00:00:00 Temperatura 28.6 del 26-01-2011 17:00, Mayor que la Máxima 27.4 27-01-2011 00:00 28.6 -- 27.4 2012-07-30 14:28:00
2 2011-01-28 00:00:00 Temperatura 30.3 del 27-01-2011 21:00, Mayor que la Máxima 30.0 28-01-2011 00:00 30.3 -- 30.0 2012-07-30 14:48:00
2 2011-01-29 00:00:00 Temperatura 28.9 del 28-01-2011 17:00, Mayor que la Máxima 28.0 29-01-2011 00:00 28.9 -- 28.0 2012-07-30 15:26:00
2 2011-01-31 00:00:00 Temperatura 26.8 del 30-01-2011 18:00, Mayor que la Máxima 26.2 31-01-2011 00:00 26.8 -- 26.2 2012-07-30 16:25:00
2 2011-02-01 00:00:00 Temperatura 34.6 del 31-01-2011 19:00, Mayor que la Máxima 34.0 01-02-2011 00:00 34.6 -- 34.0 2012-07-30 16:45:00
2 2011-02-02 00:00:00 Temperatura 28.7 del 01-02-2011 17:00, Mayor que la Máxima 27.8 02-02-2011 00:00 28.7 -- 27.8 2012-07-31 16:26:00
2 2011-02-03 00:00:00 Temperatura 30.9 del 02-02-2011 20:00, Mayor que la Máxima 29.8 03-02-2011 00:00 30.9 -- 29.8 2012-07-31 16:29:00
2 2011-02-04 00:00:00 Temperatura 32.5 del 03-02-2011 20:00, Mayor que la Máxima 32.0 04-02-2011 00:00 32.5 -- 32.0 2012-07-31 16:32:00
2 2011-02-05 00:00:00 Temperatura 29.4 del 04-02-2011 18:00, Mayor que la Máxima 28.4 05-02-2011 00:00 29.4 -- 28.4 2012-07-31 16:36:00
2 2011-02-06 00:00:00 Temperatura 26.8 del 05-02-2011 18:00, Mayor que la Máxima 26.2 06-02-2011 00:00 26.8 -- 26.2 2012-07-31 16:39:00
2 2011-02-07 00:00:00 Temperatura 27.1 del 06-02-2011 17:00, Mayor que la Máxima 27.0 07-02-2011 00:00 27.1 -- 27.0 2012-07-31 16:42:00
2 2011-02-08 00:00:00 Temperatura 28.1 del 07-02-2011 18:00, Mayor que la Máxima 28.0 08-02-2011 00:00 28.1 -- 28.0 2012-07-31 19:01:00
2 2011-02-09 00:00:00 Temperatura 27.6 del 08-02-2011 17:00, Mayor que la Máxima 27.0 09-02-2011 00:00 27.6 -- 27.0 2012-07-31 19:04:00
2 2011-02-10 00:00:00 Temperatura 26.3 del 09-02-2011 19:00, Mayor que la Máxima 26.2 10-02-2011 00:00 26.3 -- 26.2 2012-07-31 19:08:00
2 2011-02-11 00:00:00 Temperatura 25.0 del 10-02-2011 21:00, Mayor que la Máxima 24.4 11-02-2011 00:00 25.0 -- 24.4 2012-07-31 19:11:00
2 2011-02-13 00:00:00 Temperatura 26.6 del 12-02-2011 17:00, Mayor que la Máxima 26.4 13-02-2011 00:00 26.6 -- 26.4 2012-07-31 19:42:00
2 2011-02-14 00:00:00 Temperatura 34.2 del 13-02-2011 18:00, Mayor que la Máxima 33.0 14-02-2011 00:00 34.2 -- 33.0 2012-07-31 19:47:00
2 2011-02-15 00:00:00 Temperatura 29.8 del 14-02-2011 17:00, Mayor que la Máxima 29.4 15-02-2011 00:00 29.8 -- 29.4 2012-08-01 13:15:00
2 2011-02-17 00:00:00 Temperatura 27.0 del 16-02-2011 20:00, Mayor que la Máxima 26.4 17-02-2011 00:00 27.0 -- 26.4 2012-08-01 13:24:00
2 2011-02-18 00:00:00 Temperatura 29.2 del 17-02-2011 17:00, Mayor que la Máxima 28.6 18-02-2011 00:00 29.2 -- 28.6 2012-08-01 13:28:00
2 2011-02-19 00:00:00 Temperatura 26.9 del 18-02-2011 18:00, Mayor que la Máxima 26.8 19-02-2011 00:00 26.9 -- 26.8 2012-08-01 14:22:00
2 2011-02-20 00:00:00 Temperatura 24.0 del 19-02-2011 21:00, Mayor que la Máxima 23.8 20-02-2011 00:00 24.0 -- 23.8 2012-08-01 14:34:00
2 2011-02-21 00:00:00 Temperatura 25.1 del 20-02-2011 20:00, Mayor que la Máxima 24.8 21-02-2011 00:00 25.1 -- 24.8 2012-08-01 14:45:00
2 2011-02-22 00:00:00 Temperatura 25.7 del 21-02-2011 19:00, Mayor que la Máxima 25.4 22-02-2011 00:00 25.7 -- 25.4 2012-08-01 15:41:00
2 2011-02-23 00:00:00 Temperatura 26.7 del 22-02-2011 18:00, Mayor que la Máxima 26.0 23-02-2011 00:00 26.7 -- 26.0 2012-08-01 15:45:00
2 2011-02-24 00:00:00 Temperatura 24.9 del 23-02-2011 19:00, Mayor que la Máxima 24.8 24-02-2011 00:00 24.9 -- 24.8 2012-08-01 15:50:00
2 2011-02-25 00:00:00 Temperatura 25.0 del 24-02-2011 20:00, Mayor que la Máxima 24.0 25-02-2011 00:00 25.0 -- 24.0 2012-08-01 15:55:00
2 2011-02-27 00:00:00 Temperatura 26.9 del 26-02-2011 19:00, Mayor que la Máxima 26.4 27-02-2011 00:00 26.9 -- 26.4 2012-08-01 16:45:00
2 2011-02-28 00:00:00 Temperatura 25.7 del 27-02-2011 17:00, Mayor que la Máxima 25.0 28-02-2011 00:00 25.7 -- 25.0 2012-08-01 16:48:00
2 2011-03-01 00:00:00 Temperatura 28.7 del 28-02-2011 18:00, Mayor que la Máxima 28.6 01-03-2011 00:00 28.7 -- 28.6 2012-08-01 16:51:00
2 2011-03-02 00:00:00 Temperatura 26.8 del 01-03-2011 18:00, Mayor que la Máxima 26.6 02-03-2011 00:00 26.8 -- 26.6 2012-07-30 18:37:00
2 2011-03-03 00:00:00 Temperatura 29.1 del 02-03-2011 17:00, Mayor que la Máxima 28.0 03-03-2011 00:00 29.1 -- 28.0 2012-07-30 18:42:00
2 2011-03-04 00:00:00 Temperatura 27.6 del 03-03-2011 17:00, Mayor que la Máxima 26.8 04-03-2011 00:00 27.6 -- 26.8 2012-07-30 18:46:00
2 2011-03-05 00:00:00 Temperatura 24.4 del 04-03-2011 19:00, Mayor que la Máxima 24.2 05-03-2011 00:00 24.4 -- 24.2 2012-07-30 18:50:00
2 2011-03-07 00:00:00 Temperatura 25.6 del 06-03-2011 20:00, Mayor que la Máxima 25.0 07-03-2011 00:00 25.6 -- 25.0 2012-07-30 19:15:00
2 2011-03-08 00:00:00 Temperatura 25.8 del 07-03-2011 18:00, Mayor que la Máxima 25.6 08-03-2011 00:00 25.8 -- 25.6 2012-07-30 19:55:00
2 2011-03-09 00:00:00 Temperatura 26.3 del 08-03-2011 19:00, Mayor que la Máxima 25.6 09-03-2011 00:00 26.3 -- 25.6 2012-07-30 20:18:00
2 2011-03-10 00:00:00 Temperatura 28.8 del 09-03-2011 18:00, Mayor que la Máxima 27.2 10-03-2011 00:00 28.8 -- 27.2 2012-07-30 20:45:00
2 2011-03-12 00:00:00 Temperatura 27.1 del 11-03-2011 17:00, Mayor que la Máxima 26.4 12-03-2011 00:00 27.1 -- 26.4 2012-07-30 20:52:00
2 2011-03-13 00:00:00 Temperatura 29.4 del 12-03-2011 19:00, Mayor que la Máxima 28.0 13-03-2011 00:00 29.4 -- 28.0 2012-07-30 20:57:00
2 2011-03-14 00:00:00 Temperatura 27.5 del 13-03-2011 16:00, Mayor que la Máxima 27.2 14-03-2011 00:00 27.5 -- 27.2 2012-07-30 21:01:00
2 2011-03-15 00:00:00 Temperatura 20.4 del 14-03-2011 17:00, Mayor que la Máxima 20.2 15-03-2011 00:00 20.4 -- 20.2 2012-07-30 21:06:00
2 2011-03-16 00:00:00 Temperatura 18.6 del 15-03-2011 16:00, Mayor que la Máxima 18.4 16-03-2011 00:00 18.6 -- 18.4 2012-07-31 13:24:00
2 2011-03-17 00:00:00 Temperatura 28.4 del 16-03-2011 17:00, Mayor que la Máxima 27.6 17-03-2011 00:00 28.4 -- 27.6 2012-07-31 14:00:00
2 2011-03-18 00:00:00 Temperatura 34.3 del 17-03-2011 17:00, Mayor que la Máxima 33.2 18-03-2011 00:00 34.3 -- 33.2 2012-07-31 14:09:00
2 2011-03-19 00:00:00 Temperatura 29.8 del 18-03-2011 16:00, Mayor que la Máxima 28.4 19-03-2011 00:00 29.8 -- 28.4 2012-07-31 14:13:00
2 2011-03-20 00:00:00 Temperatura 26.1 del 19-03-2011 16:00, Mayor que la Máxima 25.6 20-03-2011 00:00 26.1 -- 25.6 2012-07-31 14:16:00
2 2011-03-21 00:00:00 Temperatura 23.9 del 20-03-2011 18:00, Mayor que la Máxima 23.8 21-03-2011 00:00 23.9 -- 23.8 2012-07-31 14:20:00
2 2011-03-22 00:00:00 Temperatura 28.4 del 21-03-2011 17:00, Mayor que la Máxima 27.2 22-03-2011 00:00 28.4 -- 27.2 2012-07-31 14:42:00
2 2011-03-23 00:00:00 Temperatura 31.6 del 22-03-2011 18:00, Mayor que la Máxima 30.6 23-03-2011 00:00 31.6 -- 30.6 2012-07-31 14:45:00
2 2011-03-24 00:00:00 Temperatura 30.6 del 23-03-2011 19:00, Mayor que la Máxima 29.0 24-03-2011 00:00 30.6 -- 29.0 2012-07-31 14:48:00
2 2011-03-25 00:00:00 Temperatura 24.7 del 24-03-2011 17:00, Mayor que la Máxima 24.0 25-03-2011 00:00 24.7 -- 24.0 2012-07-31 15:31:00
2 2011-03-26 00:00:00 Temperatura 27.4 del 25-03-2011 19:00, Mayor que la Máxima 25.2 26-03-2011 00:00 27.4 -- 25.2 2012-07-31 15:34:00
2 2011-03-27 00:00:00 Temperatura 29.5 del 26-03-2011 17:00, Mayor que la Máxima 28.6 27-03-2011 00:00 29.5 -- 28.6 2012-07-31 15:37:00
2 2011-03-28 00:00:00 Temperatura 27.9 del 27-03-2011 17:00, Mayor que la Máxima 27.0 28-03-2011 00:00 27.9 -- 27.0 2012-07-31 15:44:00
2 2011-03-29 00:00:00 Temperatura 28.5 del 28-03-2011 16:00, Mayor que la Máxima 27.0 29-03-2011 00:00 28.5 -- 27.0 2012-07-31 15:48:00
2 2011-03-30 00:00:00 Temperatura 27.7 del 29-03-2011 16:00, Mayor que la Máxima 26.8 30-03-2011 00:00 27.7 -- 26.8 2012-07-31 15:52:00
2 2011-03-31 00:00:00 Temperatura 29.6 del 30-03-2011 17:00, Mayor que la Máxima 29.4 31-03-2011 00:00 29.6 -- 29.4 2012-07-31 15:55:00
2 2011-04-01 00:00:00 Temperatura 33.8 del 31-03-2011 17:00, Mayor que la Máxima 33.2 01-04-2011 00:00 33.8 -- 33.2 2012-07-31 15:58:00
2 2011-04-02 00:00:00 Temperatura 30.9 del 01-04-2011 17:00, Mayor que la Máxima 30.2 02-04-2011 00:00 30.9 -- 30.2 2012-07-30 18:35:00
2 2011-04-04 00:00:00 Temperatura 26.6 del 03-04-2011 17:00, Mayor que la Máxima 25.8 04-04-2011 00:00 26.6 -- 25.8 2012-07-30 19:06:00
2 2011-04-05 00:00:00 Temperatura 30.8 del 04-04-2011 18:00, Mayor que la Máxima 30.0 05-04-2011 00:00 30.8 -- 30.0 2012-07-30 19:12:00
2 2011-04-06 00:00:00 Temperatura 25.0 del 05-04-2011 16:00, Mayor que la Máxima 24.6 06-04-2011 00:00 25.0 -- 24.6 2012-07-30 19:17:00
2 2011-04-07 00:00:00 Temperatura 23.7 del 06-04-2011 17:00, Mayor que la Máxima 23.0 07-04-2011 00:00 23.7 -- 23.0 2012-07-30 19:23:00
2 2011-04-08 00:00:00 Temperatura 26.3 del 07-04-2011 17:00, Mayor que la Máxima 26.0 08-04-2011 00:00 26.3 -- 26.0 2012-07-30 19:29:00
2 2011-04-09 00:00:00 Temperatura 25.0 del 08-04-2011 18:00, Mayor que la Máxima 24.6 09-04-2011 00:00 25.0 -- 24.6 2012-07-30 19:57:00
2 2011-04-10 00:00:00 Temperatura 19.1 del 09-04-2011 17:00, Mayor que la Máxima 18.6 10-04-2011 00:00 19.1 -- 18.6 2012-07-30 20:22:00
2 2011-04-11 00:00:00 Temperatura 20.4 del 10-04-2011 20:00, Mayor que la Máxima 19.8 11-04-2011 00:00 20.4 -- 19.8 2012-07-30 20:44:00
2 2011-04-13 00:00:00 Temperatura 20.6 del 12-04-2011 16:00, Mayor que la Máxima 20.4 13-04-2011 00:00 20.6 -- 20.4 2012-07-30 20:50:00
2 2011-04-14 00:00:00 Temperatura 23.7 del 13-04-2011 16:00, Mayor que la Máxima 23.0 14-04-2011 00:00 23.7 -- 23.0 2012-07-30 20:57:00
2 2011-04-15 00:00:00 Temperatura 26.4 del 14-04-2011 18:00, Mayor que la Máxima 26.0 15-04-2011 00:00 26.4 -- 26.0 2012-07-30 21:00:00
2 2011-04-16 00:00:00 Temperatura 30.6 del 15-04-2011 18:00, Mayor que la Máxima 29.6 16-04-2011 00:00 30.6 -- 29.6 2012-07-31 13:10:00
2 2011-04-17 00:00:00 Temperatura 29.2 del 16-04-2011 17:00, Mayor que la Máxima 29.0 17-04-2011 00:00 29.2 -- 29.0 2012-07-30 21:14:00
2 2011-04-18 00:00:00 Temperatura 32.6 del 17-04-2011 18:00, Mayor que la Máxima 31.4 18-04-2011 00:00 32.6 -- 31.4 2012-07-30 21:17:00
2 2011-04-21 00:00:00 Temperatura 22.6 del 20-04-2011 17:00, Mayor que la Máxima 22.0 21-04-2011 00:00 22.6 -- 22.0 2012-07-31 13:17:00
2 2011-04-22 00:00:00 Temperatura 18.7 del 21-04-2011 19:00, Mayor que la Máxima 18.4 22-04-2011 00:00 18.7 -- 18.4 2012-07-31 13:20:00
2 2011-04-23 00:00:00 Temperatura 14.0 del 22-04-2011 16:00, Mayor que la Máxima 13.8 23-04-2011 00:00 14.0 -- 13.8 2012-07-31 13:24:00
2 2011-04-24 00:00:00 Temperatura 26.8 del 23-04-2011 18:00, Mayor que la Máxima 26.2 24-04-2011 00:00 26.8 -- 26.2 2012-07-31 14:12:00
2 2011-04-25 00:00:00 Temperatura 30.4 del 24-04-2011 18:00, Mayor que la Máxima 30.0 25-04-2011 00:00 30.4 -- 30.0 2012-07-31 14:18:00
2 2011-04-26 00:00:00 Temperatura 25.3 del 25-04-2011 17:00, Mayor que la Máxima 25.2 26-04-2011 00:00 25.3 -- 25.2 2012-07-31 14:24:00
2 2011-04-27 00:00:00 Temperatura 15.9 del 26-04-2011 19:00, Mayor que la Máxima 15.8 27-04-2011 00:00 15.9 -- 15.8 2012-07-31 14:27:00
2 2011-04-28 00:00:00 Temperatura 23.8 del 27-04-2011 18:00, Mayor que la Máxima 23.2 28-04-2011 00:00 23.8 -- 23.2 2012-07-31 14:31:00
2 2011-05-01 00:00:00 Temperatura 20.9 del 30-04-2011 17:00, Mayor que la Máxima 20.6 01-05-2011 00:00 20.9 -- 20.6 2012-07-31 14:43:00
2 2011-05-02 00:00:00 Temperatura 22.8 del 01-05-2011 17:00, Mayor que la Máxima 22.4 02-05-2011 00:00 22.8 -- 22.4 2012-07-31 14:47:00
2 2011-05-03 00:00:00 Temperatura 24.5 del 02-05-2011 17:00, Mayor que la Máxima 24.0 03-05-2011 00:00 24.5 -- 24.0 2012-07-31 15:22:00
2 2011-05-08 00:00:00 Temperatura 21.6 del 07-05-2011 18:00, Mayor que la Máxima 20.8 08-05-2011 00:00 21.6 -- 20.8 2012-07-31 15:55:00
2 2011-05-09 00:00:00 Temperatura 22.9 del 08-05-2011 16:00, Mayor que la Máxima 22.6 09-05-2011 00:00 22.9 -- 22.6 2012-07-31 16:21:00
2 2011-05-10 00:00:00 Temperatura 18.1 del 09-05-2011 18:00, Mayor que la Máxima 18.0 10-05-2011 00:00 18.1 -- 18.0 2012-07-31 16:23:00
2 2011-05-12 00:00:00 Temperatura 26.8 del 11-05-2011 18:00, Mayor que la Máxima 26.6 12-05-2011 00:00 26.8 -- 26.6 2012-07-31 16:28:00
2 2011-05-13 00:00:00 Temperatura 24.4 del 12-05-2011 17:00, Mayor que la Máxima 23.6 13-05-2011 00:00 24.4 -- 23.6 2012-07-31 16:31:00
2 2011-05-14 00:00:00 Temperatura 22.6 del 13-05-2011 17:00, Mayor que la Máxima 22.2 14-05-2011 00:00 22.6 -- 22.2 2012-07-31 18:57:00
2 2011-05-17 00:00:00 Temperatura 23.7 del 16-05-2011 18:00, Mayor que la Máxima 23.4 17-05-2011 00:00 23.7 -- 23.4 2012-07-31 19:06:00
2 2011-05-19 00:00:00 Temperatura 17.6 del 18-05-2011 17:00, Mayor que la Máxima 17.2 19-05-2011 00:00 17.6 -- 17.2 2012-07-31 19:11:00
2 2011-05-20 00:00:00 Temperatura 18.7 del 19-05-2011 18:00, Mayor que la Máxima 18.0 20-05-2011 00:00 18.7 -- 18.0 2012-07-31 19:14:00
2 2011-05-21 00:00:00 Temperatura 19.5 del 20-05-2011 18:00, Mayor que la Máxima 19.2 21-05-2011 00:00 19.5 -- 19.2 2012-07-31 19:17:00
2 2011-05-22 00:00:00 Temperatura 20.2 del 21-05-2011 15:00, Mayor que la Máxima 19.4 22-05-2011 00:00 20.2 -- 19.4 2012-07-31 19:25:00
2 2011-05-27 00:00:00 Temperatura 21.9 del 26-05-2011 17:00, Mayor que la Máxima 21.2 27-05-2011 00:00 21.9 -- 21.2 2012-07-31 19:38:00
2 2011-05-28 00:00:00 Temperatura 20.2 del 27-05-2011 19:00, Mayor que la Máxima 20.0 28-05-2011 00:00 20.2 -- 20.0 2012-07-31 19:40:00
2 2011-05-29 00:00:00 Temperatura 22.0 del 28-05-2011 17:00, Mayor que la Máxima 21.4 29-05-2011 00:00 22.0 -- 21.4 2012-07-31 19:52:00
2 2011-05-30 00:00:00 Temperatura 20.0 del 29-05-2011 17:00, Mayor que la Máxima 19.6 30-05-2011 00:00 20.0 -- 19.6 2012-07-31 19:55:00
2 2011-05-31 00:00:00 Temperatura 18.3 del 30-05-2011 19:00, Mayor que la Máxima 17.4 31-05-2011 00:00 18.3 -- 17.4 2012-08-01 13:05:00
2 2011-06-01 00:00:00 Temperatura 18.5 del 31-05-2011 18:00, Mayor que la Máxima 18.4 01-06-2011 00:00 18.5 -- 18.4 2012-08-01 13:11:00
2 2011-06-21 00:00:00 Temperatura 11.0 del 20-06-2011 15:00, Mayor que la Máxima 10.6 21-06-2011 00:00 11.0 -- 10.6 2020-10-27 23:54:00
2 2011-07-31 00:00:00 Temperatura 11.0 del 30-07-2011 15:00, Mayor que la Máxima 10.8 31-07-2011 00:00 11.0 -- 10.8 2020-10-27 23:58:00
2 2011-08-16 00:00:00 Temperatura 14.5 del 15-08-2011 15:00, Mayor que la Máxima 13.1 16-08-2011 00:00 14.5 -- 13.1 2020-10-28 00:00:00
2 2011-08-17 00:00:00 Temperatura 16.9 del 16-08-2011 15:00, Mayor que la Máxima 15.3 17-08-2011 00:00 16.9 -- 15.3 2020-10-28 00:00:00
2 2011-09-22 00:00:00 Temperatura 13.1 del 21-09-2011 15:00, Mayor que la Máxima 13.0 22-09-2011 00:00 13.1 -- 13.0 2020-10-28 00:03:00
2 2011-10-01 00:00:00 Temperatura 24.7 del 30-09-2011 15:00, Mayor que la Máxima 22.7 01-10-2011 00:00 24.7 -- 22.7 2020-10-28 00:04:00
2 2011-10-07 00:00:00 Temperatura 21.5 del 06-10-2011 15:00, Mayor que la Máxima 21.3 07-10-2011 00:00 21.5 -- 21.3 2020-10-28 00:05:00
2 2011-12-02 00:00:00 Temperatura 23.3 del 01-12-2011 18:00, Mayor que la Máxima 22.4 02-12-2011 00:00 23.3 -- 22.4 2012-08-01 13:14:00
2 2011-12-03 00:00:00 Temperatura 23.5 del 02-12-2011 20:00, Mayor que la Máxima 23.0 03-12-2011 00:00 23.5 -- 23.0 2012-08-01 13:17:00
2 2011-12-04 00:00:00 Temperatura 27.1 del 03-12-2011 19:00, Mayor que la Máxima 26.4 04-12-2011 00:00 27.1 -- 26.4 2012-08-01 13:20:00
2 2011-12-05 00:00:00 Temperatura 27.3 del 04-12-2011 21:00, Mayor que la Máxima 26.8 05-12-2011 00:00 27.3 -- 26.8 2012-08-01 13:23:00
2 2011-12-06 00:00:00 Temperatura 26.3 del 05-12-2011 17:00, Mayor que la Máxima 26.0 06-12-2011 00:00 26.3 -- 26.0 2012-08-01 13:25:00
2 2011-12-07 00:00:00 Temperatura 22.6 del 06-12-2011 19:00, Mayor que la Máxima 22.0 07-12-2011 00:00 22.6 -- 22.0 2012-08-01 14:08:00
2 2011-12-08 00:00:00 Temperatura 26.2 del 07-12-2011 19:00, Mayor que la Máxima 26.0 08-12-2011 00:00 26.2 -- 26.0 2012-08-01 14:11:00
2 2011-12-09 00:00:00 Temperatura 25.9 del 08-12-2011 16:00, Mayor que la Máxima 24.8 09-12-2011 00:00 25.9 -- 24.8 2012-08-01 14:15:00
2 2011-12-10 00:00:00 Temperatura 24.7 del 09-12-2011 18:00, Mayor que la Máxima 24.2 10-12-2011 00:00 24.7 -- 24.2 2012-08-01 14:17:00
2 2011-12-12 00:00:00 Temperatura 29.8 del 11-12-2011 20:00, Mayor que la Máxima 29.4 12-12-2011 00:00 29.8 -- 29.4 2012-08-01 14:24:00
2 2011-12-13 00:00:00 Temperatura 28.9 del 12-12-2011 20:00, Mayor que la Máxima 28.2 13-12-2011 00:00 28.9 -- 28.2 2012-08-01 14:27:00
2 2011-12-14 00:00:00 Temperatura 25.7 del 13-12-2011 20:00, Mayor que la Máxima 25.2 14-12-2011 00:00 25.7 -- 25.2 2012-08-01 14:30:00
2 2011-12-15 00:00:00 Temperatura 19.8 del 14-12-2011 20:00, Mayor que la Máxima 19.4 15-12-2011 00:00 19.8 -- 19.4 2012-08-01 14:32:00
2 2011-12-20 00:00:00 Temperatura 27.9 del 19-12-2011 17:00, Mayor que la Máxima 27.4 20-12-2011 00:00 27.9 -- 27.4 2012-08-01 15:37:00
2 2011-12-21 00:00:00 Temperatura 32.4 del 20-12-2011 18:00, Mayor que la Máxima 31.6 21-12-2011 00:00 32.4 -- 31.6 2012-08-01 15:45:00
2 2011-12-22 00:00:00 Temperatura 30.1 del 21-12-2011 20:00, Mayor que la Máxima 29.6 22-12-2011 00:00 30.1 -- 29.6 2012-08-01 15:47:00
2 2011-12-23 00:00:00 Temperatura 33.3 del 22-12-2011 20:00, Mayor que la Máxima 33.2 23-12-2011 00:00 33.3 -- 33.2 2012-08-01 15:50:00
2 2011-12-24 00:00:00 Temperatura 30.2 del 23-12-2011 21:00, Mayor que la Máxima 29.6 24-12-2011 00:00 30.2 -- 29.6 2012-08-01 15:53:00
2 2011-12-25 00:00:00 Temperatura 29.4 del 24-12-2011 19:00, Mayor que la Máxima 28.6 25-12-2011 00:00 29.4 -- 28.6 2012-08-01 16:18:00
2 2011-12-26 00:00:00 Temperatura 29.0 del 25-12-2011 18:00, Mayor que la Máxima 28.6 26-12-2011 00:00 29.0 -- 28.6 2012-08-01 16:24:00
2 2011-12-27 00:00:00 Temperatura 29.4 del 26-12-2011 19:00, Mayor que la Máxima 28.8 27-12-2011 00:00 29.4 -- 28.8 2012-08-01 16:28:00
2 2011-12-29 00:00:00 Temperatura 26.9 del 28-12-2011 18:00, Mayor que la Máxima 26.4 29-12-2011 00:00 26.9 -- 26.4 2012-08-01 16:40:00
2 2011-12-31 00:00:00 Temperatura 24.5 del 30-12-2011 20:00, Mayor que la Máxima 24.4 31-12-2011 00:00 24.5 -- 24.4 2012-08-01 16:56:00
2 2012-01-01 00:00:00 Temperatura 26.3 del 31-12-2011 21:00, Mayor que la Máxima 25.8 01-01-2012 00:00 26.3 -- 25.8 2012-08-01 18:02:00
2 2012-05-26 00:00:00 Temperatura 19.7 del 25-05-2012 15:00, Mayor que la Máxima 18.0 26-05-2012 00:00 19.7 -- 18.0 2020-10-28 00:28:00
2 2012-08-23 00:00:00 Temperatura 10.9 del 22-08-2012 13:00, Mayor que la Máxima 10.3 23-08-2012 00:00 10.9 -- 10.3 2020-10-28 00:37:00
2 2012-09-28 00:00:00 Temperatura 13.1 del 27-09-2012 14:00, Mayor que la Máxima 12.8 28-09-2012 00:00 13.1 -- 12.8 2020-10-28 00:41:00
2 2012-10-05 00:00:00 Temperatura 20.9 del 04-10-2012 15:00, Mayor que la Máxima 19.6 05-10-2012 00:00 20.9 -- 19.6 2020-10-28 00:42:00
2 2012-12-04 00:00:00 Temperatura 27.3 del 03-12-2012 15:00, Mayor que la Máxima 26.9 04-12-2012 00:00 27.3 -- 26.9 2020-10-28 00:48:00
2 2013-01-02 00:00:00 Temperatura 26.7 del 01-01-2013 18:00, Mayor que la Máxima 25.8 02-01-2013 00:00 26.7 -- 25.8 2014-10-07 12:33:00
2 2013-01-02 00:00:00 Temperatura 26.7 del 01-01-2013 18:00, Mayor que la Máxima 25.8 02-01-2013 00:00 26.7 -- 25.8 2014-10-07 12:33:00
2 2013-01-03 00:00:00 Temperatura 26.0 del 02-01-2013 18:00, Mayor que la Máxima 25.0 03-01-2013 00:00 26.0 -- 25.0 2014-10-07 13:28:00
2 2013-01-04 00:00:00 Temperatura 19.6 del 03-01-2013 21:00, Mayor que la Máxima 19.4 04-01-2013 00:00 19.6 -- 19.4 2014-10-07 13:21:00
2 2013-01-05 00:00:00 Temperatura 26.6 del 04-01-2013 19:00, Mayor que la Máxima 26.4 05-01-2013 00:00 26.6 -- 26.4 2014-10-07 13:21:00
2 2013-01-06 00:00:00 Temperatura 28.2 del 05-01-2013 17:00, Mayor que la Máxima 26.8 06-01-2013 00:00 28.2 -- 26.8 2014-10-07 13:21:00
2 2013-01-07 00:00:00 Temperatura 27.4 del 06-01-2013 19:00, Mayor que la Máxima 27.0 07-01-2013 00:00 27.4 -- 27.0 2014-10-07 13:21:00
2 2013-01-08 00:00:00 Temperatura 30.9 del 07-01-2013 18:00, Mayor que la Máxima 30.2 08-01-2013 00:00 30.9 -- 30.2 2014-10-07 13:21:00
2 2013-01-09 00:00:00 Temperatura 32.0 del 08-01-2013 18:00, Mayor que la Máxima 31.4 09-01-2013 00:00 32.0 -- 31.4 2014-10-07 14:07:00
2 2013-01-10 00:00:00 Temperatura 31.0 del 09-01-2013 17:00, Mayor que la Máxima 30.8 10-01-2013 00:00 31.0 -- 30.8 2014-10-07 14:07:00
2 2013-01-11 00:00:00 Temperatura 27.8 del 10-01-2013 17:00, Mayor que la Máxima 27.6 11-01-2013 00:00 27.8 -- 27.6 2014-10-07 14:07:00
2 2013-01-12 00:00:00 Temperatura 28.1 del 11-01-2013 19:00, Mayor que la Máxima 27.2 12-01-2013 00:00 28.1 -- 27.2 2014-10-07 14:07:00
2 2013-01-13 00:00:00 Temperatura 24.6 del 12-01-2013 20:00, Mayor que la Máxima 24.2 13-01-2013 00:00 24.6 -- 24.2 2014-10-07 14:07:00
2 2013-01-15 00:00:00 Temperatura 28.3 del 14-01-2013 18:00, Mayor que la Máxima 27.6 15-01-2013 00:00 28.3 -- 27.6 2014-10-07 14:07:00
2 2013-01-16 00:00:00 Temperatura 27.0 del 15-01-2013 18:00, Mayor que la Máxima 26.4 16-01-2013 00:00 27.0 -- 26.4 2014-10-07 14:07:00
2 2013-01-17 00:00:00 Temperatura 26.0 del 16-01-2013 18:00, Mayor que la Máxima 25.4 17-01-2013 00:00 26.0 -- 25.4 2014-10-07 14:07:00
2 2013-01-18 00:00:00 Temperatura 26.6 del 17-01-2013 20:00, Mayor que la Máxima 26.2 18-01-2013 00:00 26.6 -- 26.2 2014-10-07 14:07:00
2 2013-01-20 00:00:00 Temperatura 25.3 del 19-01-2013 19:00, Mayor que la Máxima 25.0 20-01-2013 00:00 25.3 -- 25.0 2014-10-07 14:07:00
2 2013-01-21 00:00:00 Temperatura 27.0 del 20-01-2013 20:00, Mayor que la Máxima 26.6 21-01-2013 00:00 27.0 -- 26.6 2014-10-07 14:08:00
2 2013-01-22 00:00:00 Temperatura 24.7 del 21-01-2013 18:00, Mayor que la Máxima 24.2 22-01-2013 00:00 24.7 -- 24.2 2014-10-07 14:08:00
2 2013-01-25 00:00:00 Temperatura 23.3 del 24-01-2013 19:00, Mayor que la Máxima 22.8 25-01-2013 00:00 23.3 -- 22.8 2014-10-07 14:08:00
2 2013-01-26 00:00:00 Temperatura 27.0 del 25-01-2013 19:00, Mayor que la Máxima 26.4 26-01-2013 00:00 27.0 -- 26.4 2014-10-07 14:08:00
2 2013-01-27 00:00:00 Temperatura 28.3 del 26-01-2013 19:00, Mayor que la Máxima 27.2 27-01-2013 00:00 28.3 -- 27.2 2014-10-07 14:08:00
2 2013-01-28 00:00:00 Temperatura 28.1 del 27-01-2013 19:00, Mayor que la Máxima 27.0 28-01-2013 00:00 28.1 -- 27.0 2014-10-07 14:08:00
2 2013-01-29 00:00:00 Temperatura 28.2 del 28-01-2013 19:00, Mayor que la Máxima 27.2 29-01-2013 00:00 28.2 -- 27.2 2014-10-07 14:08:00
2 2013-01-31 00:00:00 Temperatura 26.7 del 30-01-2013 18:00, Mayor que la Máxima 25.6 31-01-2013 00:00 26.7 -- 25.6 2014-10-07 14:08:00
2 2013-02-01 00:00:00 Temperatura 24.5 del 31-01-2013 20:00, Mayor que la Máxima 24.0 01-02-2013 00:00 24.5 -- 24.0 2014-10-07 14:08:00
2 2013-03-02 00:00:00 Temperatura 28.4 del 01-03-2013 19:00, Mayor que la Máxima 27.2 02-03-2013 00:00 28.4 -- 27.2 2014-10-07 16:01:00
2 2013-03-03 00:00:00 Temperatura 31.5 del 02-03-2013 17:00, Mayor que la Máxima 30.6 03-03-2013 00:00 31.5 -- 30.6 2014-10-07 16:01:00
2 2013-03-04 00:00:00 Temperatura 27.0 del 03-03-2013 17:00, Mayor que la Máxima 26.4 04-03-2013 00:00 27.0 -- 26.4 2014-10-07 16:01:00
2 2013-03-05 00:00:00 Temperatura 28.6 del 04-03-2013 18:00, Mayor que la Máxima 28.0 05-03-2013 00:00 28.6 -- 28.0 2014-10-07 16:01:00
2 2013-03-06 00:00:00 Temperatura 23.0 del 05-03-2013 19:00, Mayor que la Máxima 21.8 06-03-2013 00:00 23.0 -- 21.8 2014-10-07 16:01:00
2 2013-03-07 00:00:00 Temperatura 29.8 del 06-03-2013 18:00, Mayor que la Máxima 29.4 07-03-2013 00:00 29.8 -- 29.4 2014-10-07 16:01:00
2 2013-03-08 00:00:00 Temperatura 26.2 del 07-03-2013 17:00, Mayor que la Máxima 25.6 08-03-2013 00:00 26.2 -- 25.6 2014-10-07 16:01:00
2 2013-03-09 00:00:00 Temperatura 31.2 del 08-03-2013 20:00, Mayor que la Máxima 26.5 09-03-2013 00:00 31.2 -- 26.5 2018-11-19 13:42:00
2 2013-03-10 00:00:00 Temperatura 33.3 del 09-03-2013 19:00, Mayor que la Máxima 32.4 10-03-2013 00:00 33.3 -- 32.4 2014-10-07 16:01:00
2 2013-03-11 00:00:00 Temperatura 32.3 del 10-03-2013 17:00, Mayor que la Máxima 31.6 11-03-2013 00:00 32.3 -- 31.6 2014-10-07 16:01:00
2 2013-03-12 00:00:00 Temperatura 25.7 del 11-03-2013 15:00, Mayor que la Máxima 25.0 12-03-2013 00:00 25.7 -- 25.0 2014-10-07 16:02:00
2 2013-03-13 00:00:00 Temperatura 26.1 del 12-03-2013 17:00, Mayor que la Máxima 25.4 13-03-2013 00:00 26.1 -- 25.4 2014-10-07 16:02:00
2 2013-03-14 00:00:00 Temperatura 27.0 del 13-03-2013 16:00, Mayor que la Máxima 26.0 14-03-2013 00:00 27.0 -- 26.0 2014-10-07 16:02:00
2 2013-03-15 00:00:00 Temperatura 28.4 del 14-03-2013 17:00, Mayor que la Máxima 27.6 15-03-2013 00:00 28.4 -- 27.6 2014-10-07 16:02:00
2 2013-03-17 00:00:00 Temperatura 26.4 del 16-03-2013 16:00, Mayor que la Máxima 26.0 17-03-2013 00:00 26.4 -- 26.0 2014-10-07 16:02:00
2 2013-03-18 00:00:00 Temperatura 27.3 del 17-03-2013 17:00, Mayor que la Máxima 26.4 18-03-2013 00:00 27.3 -- 26.4 2014-10-07 16:02:00
2 2013-03-20 00:00:00 Temperatura 24.2 del 19-03-2013 18:00, Mayor que la Máxima 23.6 20-03-2013 00:00 24.2 -- 23.6 2014-10-07 16:02:00
2 2013-03-23 00:00:00 Temperatura 27.3 del 22-03-2013 16:00, Mayor que la Máxima 26.0 23-03-2013 00:00 27.3 -- 26.0 2014-10-07 16:02:00
2 2013-03-25 00:00:00 Temperatura 29.6 del 24-03-2013 18:00, Mayor que la Máxima 28.8 25-03-2013 00:00 29.6 -- 28.8 2014-10-07 16:03:00
2 2013-03-26 00:00:00 Temperatura 34.0 del 25-03-2013 18:00, Mayor que la Máxima 33.0 26-03-2013 00:00 34.0 -- 33.0 2014-10-07 16:03:00
2 2013-03-27 00:00:00 Temperatura 30.7 del 26-03-2013 17:00, Mayor que la Máxima 30.2 27-03-2013 00:00 30.7 -- 30.2 2014-10-07 16:03:00
2 2013-03-28 00:00:00 Temperatura 25.2 del 27-03-2013 17:00, Mayor que la Máxima 24.6 28-03-2013 00:00 25.2 -- 24.6 2014-10-07 16:03:00
2 2013-03-29 00:00:00 Temperatura 21.6 del 28-03-2013 18:00, Mayor que la Máxima 21.4 29-03-2013 00:00 21.6 -- 21.4 2014-10-07 16:03:00
2 2013-03-30 00:00:00 Temperatura 24.6 del 29-03-2013 17:00, Mayor que la Máxima 24.4 30-03-2013 00:00 24.6 -- 24.4 2014-10-07 16:03:00
2 2013-04-01 00:00:00 Temperatura 18.7 del 31-03-2013 17:00, Mayor que la Máxima 18.4 01-04-2013 00:00 18.7 -- 18.4 2014-10-07 16:04:00
2 2013-04-03 00:00:00 Temperatura 28.3 del 02-04-2013 17:00, Mayor que la Máxima 27.8 03-04-2013 00:00 28.3 -- 27.8 2014-10-07 18:05:00
2 2013-04-04 00:00:00 Temperatura 24.2 del 03-04-2013 17:00, Mayor que la Máxima 23.4 04-04-2013 00:00 24.2 -- 23.4 2014-10-07 18:05:00
2 2013-04-05 00:00:00 Temperatura 24.3 del 04-04-2013 18:00, Mayor que la Máxima 23.4 05-04-2013 00:00 24.3 -- 23.4 2014-10-07 18:05:00
2 2013-04-07 00:00:00 Temperatura 28.7 del 06-04-2013 17:00, Mayor que la Máxima 27.8 07-04-2013 00:00 28.7 -- 27.8 2014-10-07 18:05:00
2 2013-04-09 00:00:00 Temperatura 25.8 del 08-04-2013 15:00, Mayor que la Máxima 25.2 09-04-2013 00:00 25.8 -- 25.2 2014-10-07 18:05:00
2 2013-04-10 00:00:00 Temperatura 17.4 del 09-04-2013 14:00, Mayor que la Máxima 17.2 10-04-2013 00:00 17.4 -- 17.2 2014-10-07 18:05:00
2 2013-04-11 00:00:00 Temperatura 24.6 del 10-04-2013 17:00, Mayor que la Máxima 24.0 11-04-2013 00:00 24.6 -- 24.0 2014-10-07 18:05:00
2 2013-04-12 00:00:00 Temperatura 24.2 del 11-04-2013 17:00, Mayor que la Máxima 23.6 12-04-2013 00:00 24.2 -- 23.6 2014-10-07 18:05:00
2 2013-04-13 00:00:00 Temperatura 27.7 del 12-04-2013 17:00, Mayor que la Máxima 27.0 13-04-2013 00:00 27.7 -- 27.0 2014-10-07 18:05:00
2 2013-04-14 00:00:00 Temperatura 29.5 del 13-04-2013 17:00, Mayor que la Máxima 28.8 14-04-2013 00:00 29.5 -- 28.8 2014-10-07 18:06:00
2 2013-04-16 00:00:00 Temperatura 25.0 del 15-04-2013 16:00, Mayor que la Máxima 24.8 16-04-2013 00:00 25.0 -- 24.8 2014-10-07 18:06:00
2 2013-04-17 00:00:00 Temperatura 19.5 del 16-04-2013 18:00, Mayor que la Máxima 19.4 17-04-2013 00:00 19.5 -- 19.4 2014-10-07 18:06:00
2 2013-04-21 00:00:00 Temperatura 23.8 del 20-04-2013 17:00, Mayor que la Máxima 23.2 21-04-2013 00:00 23.8 -- 23.2 2014-10-07 18:06:00
2 2013-04-22 00:00:00 Temperatura 25.6 del 21-04-2013 16:00, Mayor que la Máxima 25.4 22-04-2013 00:00 25.6 -- 25.4 2014-10-07 18:07:00
2 2013-04-23 00:00:00 Temperatura 27.4 del 22-04-2013 18:00, Mayor que la Máxima 27.2 23-04-2013 00:00 27.4 -- 27.2 2014-10-07 18:07:00
2 2013-04-24 00:00:00 Temperatura 28.5 del 23-04-2013 17:00, Mayor que la Máxima 27.6 24-04-2013 00:00 28.5 -- 27.6 2014-10-07 18:07:00
2 2013-04-25 00:00:00 Temperatura 22.4 del 24-04-2013 16:00, Mayor que la Máxima 22.2 25-04-2013 00:00 22.4 -- 22.2 2014-10-07 18:07:00
2 2013-04-27 00:00:00 Temperatura 21.3 del 26-04-2013 18:00, Mayor que la Máxima 21.2 27-04-2013 00:00 21.3 -- 21.2 2014-10-07 18:07:00
2 2013-05-01 00:00:00 Temperatura 16.7 del 30-04-2013 18:00, Mayor que la Máxima 16.0 01-05-2013 00:00 16.7 -- 16.0 2014-10-07 18:07:00
2 2013-05-03 00:00:00 Temperatura 18.9 del 02-05-2013 15:00, Mayor que la Máxima 18.8 03-05-2013 00:00 18.9 -- 18.8 2014-10-07 19:23:00
2 2013-05-04 00:00:00 Temperatura 23.0 del 03-05-2013 16:00, Mayor que la Máxima 22.8 04-05-2013 00:00 23.0 -- 22.8 2014-10-07 19:23:00
2 2013-05-05 00:00:00 Temperatura 28.5 del 04-05-2013 18:00, Mayor que la Máxima 27.8 05-05-2013 00:00 28.5 -- 27.8 2014-10-07 19:23:00
2 2013-05-06 00:00:00 Temperatura 33.0 del 05-05-2013 18:00, Mayor que la Máxima 32.6 06-05-2013 00:00 33.0 -- 32.6 2014-10-07 19:23:00
2 2013-05-07 00:00:00 Temperatura 29.9 del 06-05-2013 18:00, Mayor que la Máxima 29.4 07-05-2013 00:00 29.9 -- 29.4 2014-10-07 19:23:00
2 2013-05-08 00:00:00 Temperatura 21.3 del 07-05-2013 18:00, Mayor que la Máxima 21.2 08-05-2013 00:00 21.3 -- 21.2 2014-10-07 19:23:00
2 2013-05-09 00:00:00 Temperatura 21.2 del 08-05-2013 18:00, Mayor que la Máxima 20.8 09-05-2013 00:00 21.2 -- 20.8 2014-10-07 19:23:00
2 2013-05-10 00:00:00 Temperatura 18.5 del 09-05-2013 18:00, Mayor que la Máxima 18.4 10-05-2013 00:00 18.5 -- 18.4 2014-10-07 19:23:00
2 2013-05-11 00:00:00 Temperatura 22.1 del 10-05-2013 17:00, Mayor que la Máxima 21.9 11-05-2013 00:00 22.1 -- 21.9 2014-10-07 19:23:00
2 2013-05-13 00:00:00 Temperatura 18.6 del 12-05-2013 16:00, Mayor que la Máxima 18.0 13-05-2013 00:00 18.6 -- 18.0 2014-10-07 19:24:00
2 2013-05-16 00:00:00 Temperatura 22.8 del 15-05-2013 18:00, Mayor que la Máxima 22.4 16-05-2013 00:00 22.8 -- 22.4 2014-10-07 19:24:00
2 2013-05-19 00:00:00 Temperatura 17.9 del 18-05-2013 16:00, Mayor que la Máxima 17.8 19-05-2013 00:00 17.9 -- 17.8 2014-10-07 19:28:00
2 2013-05-20 00:00:00 Temperatura 24.1 del 19-05-2013 17:00, Mayor que la Máxima 23.6 20-05-2013 00:00 24.1 -- 23.6 2014-10-07 19:24:00
2 2013-05-23 00:00:00 Temperatura 18.9 del 22-05-2013 17:00, Mayor que la Máxima 18.2 23-05-2013 00:00 18.9 -- 18.2 2014-10-07 19:24:00
2 2013-05-25 00:00:00 Temperatura 24.8 del 24-05-2013 17:00, Mayor que la Máxima 24.6 25-05-2013 00:00 24.8 -- 24.6 2014-10-07 19:24:00
2 2013-05-26 00:00:00 Temperatura 15.5 del 25-05-2013 17:00, Mayor que la Máxima 15.4 26-05-2013 00:00 15.5 -- 15.4 2014-10-07 19:24:00
2 2013-05-27 00:00:00 Temperatura 18.5 del 26-05-2013 16:00, Mayor que la Máxima 18.2 27-05-2013 00:00 18.5 -- 18.2 2014-10-07 19:24:00
2 2013-05-29 00:00:00 Temperatura 15.5 del 28-05-2013 18:00, Mayor que la Máxima 15.4 29-05-2013 00:00 15.5 -- 15.4 2014-10-07 19:25:00
2 2013-05-31 00:00:00 Temperatura 19.8 del 30-05-2013 16:00, Mayor que la Máxima 19.4 31-05-2013 00:00 19.8 -- 19.4 2014-10-07 19:25:00
2 2013-06-01 00:00:00 Temperatura 19.3 del 31-05-2013 17:00, Mayor que la Máxima 18.2 01-06-2013 00:00 19.3 -- 18.2 2014-10-07 19:25:00
2 2013-06-02 00:00:00 Temperatura 22.9 del 01-06-2013 18:00, Mayor que la Máxima 22.4 02-06-2013 00:00 22.9 -- 22.4 2014-10-07 20:29:00
2 2013-06-06 00:00:00 Temperatura 24.8 del 05-06-2013 18:00, Mayor que la Máxima 24.6 06-06-2013 00:00 24.8 -- 24.6 2014-10-07 20:29:00
2 2013-06-07 00:00:00 Temperatura 26.4 del 06-06-2013 18:00, Mayor que la Máxima 26.2 07-06-2013 00:00 26.4 -- 26.2 2014-10-07 20:29:00
2 2013-06-08 00:00:00 Temperatura 13.9 del 07-06-2013 18:00, Mayor que la Máxima 13.6 08-06-2013 00:00 13.9 -- 13.6 2014-10-07 20:29:00
2 2013-06-09 00:00:00 Temperatura 19.6 del 08-06-2013 18:00, Mayor que la Máxima 19.0 09-06-2013 00:00 19.6 -- 19.0 2014-10-07 20:29:00
2 2013-06-10 00:00:00 Temperatura 20.0 del 09-06-2013 18:00, Mayor que la Máxima 19.8 10-06-2013 00:00 20.0 -- 19.8 2014-10-07 20:29:00
2 2013-06-11 00:00:00 Temperatura 14.9 del 10-06-2013 16:00, Mayor que la Máxima 14.8 11-06-2013 00:00 14.9 -- 14.8 2014-10-07 20:29:00
2 2013-06-12 00:00:00 Temperatura 12.4 del 11-06-2013 18:00, Mayor que la Máxima 12.2 12-06-2013 00:00 12.4 -- 12.2 2014-10-07 20:32:00
2 2013-06-13 00:00:00 Temperatura 12.9 del 12-06-2013 18:00, Mayor que la Máxima 12.8 13-06-2013 00:00 12.9 -- 12.8 2014-10-07 20:29:00
2 2013-06-14 00:00:00 Temperatura 16.3 del 13-06-2013 17:00, Mayor que la Máxima 15.8 14-06-2013 00:00 16.3 -- 15.8 2014-10-07 20:29:00
2 2013-06-15 00:00:00 Temperatura 19.3 del 14-06-2013 17:00, Mayor que la Máxima 18.8 15-06-2013 00:00 19.3 -- 18.8 2014-10-07 20:29:00
2 2013-06-19 00:00:00 Temperatura 16.3 del 18-06-2013 17:00, Mayor que la Máxima 16.0 19-06-2013 00:00 16.3 -- 16.0 2014-10-07 20:29:00
2 2013-06-20 00:00:00 Temperatura 15.4 del 19-06-2013 17:00, Mayor que la Máxima 14.8 20-06-2013 00:00 15.4 -- 14.8 2014-10-07 20:29:00
2 2013-06-21 00:00:00 Temperatura 16.2 del 20-06-2013 18:00, Mayor que la Máxima 15.8 21-06-2013 00:00 16.2 -- 15.8 2014-10-07 20:29:00
2 2013-06-23 00:00:00 Temperatura 15.4 del 22-06-2013 17:00, Mayor que la Máxima 15.2 23-06-2013 00:00 15.4 -- 15.2 2014-10-07 20:30:00
2 2013-06-24 00:00:00 Temperatura 21.5 del 23-06-2013 18:00, Mayor que la Máxima 21.0 24-06-2013 00:00 21.5 -- 21.0 2014-10-07 20:30:00
2 2013-06-29 00:00:00 Temperatura 17.6 del 28-06-2013 17:00, Mayor que la Máxima 17.2 29-06-2013 00:00 17.6 -- 17.2 2014-10-07 20:30:00
2 2013-06-30 00:00:00 Temperatura 18.3 del 29-06-2013 18:00, Mayor que la Máxima 17.8 30-06-2013 00:00 18.3 -- 17.8 2014-10-07 20:30:00
2 2013-07-01 00:00:00 Temperatura 19.9 del 30-06-2013 18:00, Mayor que la Máxima 19.8 01-07-2013 00:00 19.9 -- 19.8 2014-10-07 20:30:00
2 2013-07-02 00:00:00 Temperatura 21.8 del 01-07-2013 17:00, Mayor que la Máxima 20.8 02-07-2013 00:00 21.8 -- 20.8 2014-10-08 14:14:00
2 2013-07-05 00:00:00 Temperatura 14.7 del 04-07-2013 16:00, Mayor que la Máxima 14.0 05-07-2013 00:00 14.7 -- 14.0 2014-10-08 14:20:00
2 2013-07-07 00:00:00 Temperatura 14.3 del 06-07-2013 16:00, Mayor que la Máxima 13.8 07-07-2013 00:00 14.3 -- 13.8 2014-10-08 14:20:00
2 2013-07-08 00:00:00 Temperatura 14.3 del 07-07-2013 17:00, Mayor que la Máxima 13.6 08-07-2013 00:00 14.3 -- 13.6 2014-10-08 14:14:00
2 2013-07-09 00:00:00 Temperatura 16.5 del 08-07-2013 17:00, Mayor que la Máxima 16.2 09-07-2013 00:00 16.5 -- 16.2 2014-10-08 14:14:00
2 2013-07-10 00:00:00 Temperatura 18.2 del 09-07-2013 15:00, Mayor que la Máxima 18.0 10-07-2013 00:00 18.2 -- 18.0 2014-10-08 14:20:00
2 2013-07-11 00:00:00 Temperatura 15.9 del 10-07-2013 18:00, Mayor que la Máxima 15.6 11-07-2013 00:00 15.9 -- 15.6 2014-10-08 14:14:00
2 2013-07-12 00:00:00 Temperatura 21.8 del 11-07-2013 19:00, Mayor que la Máxima 21.2 12-07-2013 00:00 21.8 -- 21.2 2014-10-08 14:14:00
2 2013-07-13 00:00:00 Temperatura 21.2 del 12-07-2013 18:00, Mayor que la Máxima 21.0 13-07-2013 00:00 21.2 -- 21.0 2014-10-08 14:14:00
2 2013-07-15 00:00:00 Temperatura 26.0 del 14-07-2013 18:00, Mayor que la Máxima 25.4 15-07-2013 00:00 26.0 -- 25.4 2014-10-08 14:14:00
2 2013-07-19 00:00:00 Temperatura 16.9 del 18-07-2013 18:00, Mayor que la Máxima 16.6 19-07-2013 00:00 16.9 -- 16.6 2014-10-08 14:14:00
2 2013-07-20 00:00:00 Temperatura 11.4 del 19-07-2013 18:00, Mayor que la Máxima 11.0 20-07-2013 00:00 11.4 -- 11.0 2014-10-08 14:14:00
2 2013-07-23 00:00:00 Temperatura 18.9 del 22-07-2013 18:00, Mayor que la Máxima 18.6 23-07-2013 00:00 18.9 -- 18.6 2014-10-08 14:14:00
2 2013-07-25 00:00:00 Temperatura 24.7 del 24-07-2013 17:00, Mayor que la Máxima 24.4 25-07-2013 00:00 24.7 -- 24.4 2014-10-08 14:14:00
2 2013-07-26 00:00:00 Temperatura 12.1 del 25-07-2013 18:00, Mayor que la Máxima 12.0 26-07-2013 00:00 12.1 -- 12.0 2014-10-08 14:14:00
2 2013-07-28 00:00:00 Temperatura 19.6 del 27-07-2013 16:00, Mayor que la Máxima 19.4 28-07-2013 00:00 19.6 -- 19.4 2014-10-08 14:14:00
2 2013-07-29 00:00:00 Temperatura 20.2 del 28-07-2013 18:00, Mayor que la Máxima 19.6 29-07-2013 00:00 20.2 -- 19.6 2014-10-08 14:14:00
2 2013-07-31 00:00:00 Temperatura 17.6 del 30-07-2013 18:00, Mayor que la Máxima 17.1 31-07-2013 00:00 17.6 -- 17.1 2014-10-08 14:14:00
2 2013-08-01 00:00:00 Temperatura 20.3 del 31-07-2013 17:00, Mayor que la Máxima 20.0 01-08-2013 00:00 20.3 -- 20.0 2014-10-08 14:14:00
2 2013-09-03 00:00:00 Temperatura 18.5 del 02-09-2013 15:00, Mayor que la Máxima 18.2 03-09-2013 00:00 18.5 -- 18.2 2014-10-08 15:52:00
2 2013-09-04 00:00:00 Temperatura 29.6 del 03-09-2013 17:00, Mayor que la Máxima 28.2 04-09-2013 00:00 29.6 -- 28.2 2014-10-08 15:52:00
2 2013-09-05 00:00:00 Temperatura 18.5 del 04-09-2013 17:00, Mayor que la Máxima 18.4 05-09-2013 00:00 18.5 -- 18.4 2014-10-08 15:53:00
2 2013-09-06 00:00:00 Temperatura 21.7 del 05-09-2013 18:00, Mayor que la Máxima 21.6 06-09-2013 00:00 21.7 -- 21.6 2014-10-08 15:52:00
2 2013-09-07 00:00:00 Temperatura 17.8 del 06-09-2013 19:00, Mayor que la Máxima 17.4 07-09-2013 00:00 17.8 -- 17.4 2014-10-08 15:52:00
2 2013-09-10 00:00:00 Temperatura 19.1 del 09-09-2013 13:00, Mayor que la Máxima 19.0 10-09-2013 00:00 19.1 -- 19.0 2014-10-08 15:52:00
2 2013-09-11 00:00:00 Temperatura 24.9 del 10-09-2013 16:00, Mayor que la Máxima 23.4 11-09-2013 00:00 24.9 -- 23.4 2014-10-08 15:55:00
2 2013-09-12 00:00:00 Temperatura 20.3 del 11-09-2013 18:00, Mayor que la Máxima 20.0 12-09-2013 00:00 20.3 -- 20.0 2014-10-08 15:55:00
2 2013-09-14 00:00:00 Temperatura 19.3 del 13-09-2013 15:00, Mayor que la Máxima 19.2 14-09-2013 00:00 19.3 -- 19.2 2014-10-08 15:52:00
2 2013-09-15 00:00:00 Temperatura 18.3 del 14-09-2013 17:00, Mayor que la Máxima 17.8 15-09-2013 00:00 18.3 -- 17.8 2014-10-08 15:52:00
2 2013-09-16 00:00:00 Temperatura 17.6 del 15-09-2013 16:00, Mayor que la Máxima 16.8 16-09-2013 00:00 17.6 -- 16.8 2014-10-08 15:52:00
2 2013-09-17 00:00:00 Temperatura 17.6 del 16-09-2013 17:00, Mayor que la Máxima 16.6 17-09-2013 00:00 17.6 -- 16.6 2014-10-08 15:52:00
2 2013-09-18 00:00:00 Temperatura 22.1 del 17-09-2013 18:00, Mayor que la Máxima 22.0 18-09-2013 00:00 22.1 -- 22.0 2014-10-08 15:52:00
2 2013-09-19 00:00:00 Temperatura 25.5 del 18-09-2013 16:00, Mayor que la Máxima 24.8 19-09-2013 00:00 25.5 -- 24.8 2014-10-08 15:52:00
2 2013-09-20 00:00:00 Temperatura 21.1 del 19-09-2013 15:00, Mayor que la Máxima 20.0 20-09-2013 00:00 21.1 -- 20.0 2014-10-08 15:52:00
2 2013-09-21 00:00:00 Temperatura 20.2 del 20-09-2013 17:00, Mayor que la Máxima 19.4 21-09-2013 00:00 20.2 -- 19.4 2014-10-08 15:52:00
2 2013-09-22 00:00:00 Temperatura 18.3 del 21-09-2013 16:00, Mayor que la Máxima 17.8 22-09-2013 00:00 18.3 -- 17.8 2014-10-08 15:52:00
2 2013-09-23 00:00:00 Temperatura 25.6 del 22-09-2013 17:00, Mayor que la Máxima 25.0 23-09-2013 00:00 25.6 -- 25.0 2014-10-08 15:52:00
2 2013-09-24 00:00:00 Temperatura 30.3 del 23-09-2013 17:00, Mayor que la Máxima 29.2 24-09-2013 00:00 30.3 -- 29.2 2014-10-08 15:52:00
2 2013-09-25 00:00:00 Temperatura 21.4 del 24-09-2013 14:00, Mayor que la Máxima 21.2 25-09-2013 00:00 21.4 -- 21.2 2014-10-08 15:52:00
2 2013-09-26 00:00:00 Temperatura 20.6 del 25-09-2013 17:00, Mayor que la Máxima 20.0 26-09-2013 00:00 20.6 -- 20.0 2014-10-08 15:52:00
2 2013-09-27 00:00:00 Temperatura 14.8 del 26-09-2013 18:00, Mayor que la Máxima 14.6 27-09-2013 00:00 14.8 -- 14.6 2014-10-08 15:59:00
2 2013-09-28 00:00:00 Temperatura 24.2 del 27-09-2013 18:00, Mayor que la Máxima 23.2 28-09-2013 00:00 24.2 -- 23.2 2014-10-08 15:52:00
2 2013-09-29 00:00:00 Temperatura 24.5 del 28-09-2013 18:00, Mayor que la Máxima 23.6 29-09-2013 00:00 24.5 -- 23.6 2014-10-08 15:52:00
2 2013-09-30 00:00:00 Temperatura 24.2 del 29-09-2013 16:00, Mayor que la Máxima 23.2 30-09-2013 00:00 24.2 -- 23.2 2014-10-08 15:52:00
2 2013-10-01 00:00:00 Temperatura 20.4 del 30-09-2013 15:00, Mayor que la Máxima 19.4 01-10-2013 00:00 20.4 -- 19.4 2014-10-08 15:52:00
2 2013-10-02 00:00:00 Temperatura 23.0 del 01-10-2013 17:00, Mayor que la Máxima 22.4 02-10-2013 00:00 23.0 -- 22.4 2014-10-08 16:03:00
2 2013-10-03 00:00:00 Temperatura 18.1 del 02-10-2013 15:00, Mayor que la Máxima 18.0 03-10-2013 00:00 18.1 -- 18.0 2014-10-08 16:06:00
2 2013-10-04 00:00:00 Temperatura 24.7 del 03-10-2013 18:00, Mayor que la Máxima 24.0 04-10-2013 00:00 24.7 -- 24.0 2014-10-08 16:06:00
2 2013-10-05 00:00:00 Temperatura 31.4 del 04-10-2013 18:00, Mayor que la Máxima 30.4 05-10-2013 00:00 31.4 -- 30.4 2014-10-08 16:08:00
2 2013-10-07 00:00:00 Temperatura 19.1 del 06-10-2013 16:00, Mayor que la Máxima 18.0 07-10-2013 00:00 19.1 -- 18.0 2014-10-08 17:35:00
2 2013-10-08 00:00:00 Temperatura 24.9 del 07-10-2013 16:00, Mayor que la Máxima 23.8 08-10-2013 00:00 24.9 -- 23.8 2014-10-08 17:35:00
2 2013-10-09 00:00:00 Temperatura 22.9 del 08-10-2013 18:00, Mayor que la Máxima 22.4 09-10-2013 00:00 22.9 -- 22.4 2014-10-08 17:40:00
2 2013-10-10 00:00:00 Temperatura 26.5 del 09-10-2013 16:00, Mayor que la Máxima 26.0 10-10-2013 00:00 26.5 -- 26.0 2014-10-08 17:40:00
2 2013-10-11 00:00:00 Temperatura 26.9 del 10-10-2013 17:00, Mayor que la Máxima 26.4 11-10-2013 00:00 26.9 -- 26.4 2014-10-08 17:41:00
2 2013-10-12 00:00:00 Temperatura 25.0 del 11-10-2013 16:00, Mayor que la Máxima 24.6 12-10-2013 00:00 25.0 -- 24.6 2014-10-08 17:44:00
2 2013-10-13 00:00:00 Temperatura 21.9 del 12-10-2013 17:00, Mayor que la Máxima 21.2 13-10-2013 00:00 21.9 -- 21.2 2014-10-08 17:48:00
2 2013-10-14 00:00:00 Temperatura 22.9 del 13-10-2013 17:00, Mayor que la Máxima 22.2 14-10-2013 00:00 22.9 -- 22.2 2014-10-08 17:48:00
2 2013-10-15 00:00:00 Temperatura 25.7 del 14-10-2013 17:00, Mayor que la Máxima 24.8 15-10-2013 00:00 25.7 -- 24.8 2014-10-08 17:48:00
2 2013-10-16 00:00:00 Temperatura 23.2 del 15-10-2013 18:00, Mayor que la Máxima 22.4 16-10-2013 00:00 23.2 -- 22.4 2014-10-08 17:49:00
2 2013-10-17 00:00:00 Temperatura 22.5 del 16-10-2013 18:00, Mayor que la Máxima 21.8 17-10-2013 00:00 22.5 -- 21.8 2014-10-08 17:49:00
2 2013-10-18 00:00:00 Temperatura 25.7 del 17-10-2013 19:00, Mayor que la Máxima 25.2 18-10-2013 00:00 25.7 -- 25.2 2014-10-08 17:49:00
2 2013-10-19 00:00:00 Temperatura 22.0 del 18-10-2013 17:00, Mayor que la Máxima 21.2 19-10-2013 00:00 22.0 -- 21.2 2014-10-08 17:55:00
2 2013-10-20 00:00:00 Temperatura 16.0 del 19-10-2013 17:00, Mayor que la Máxima 15.2 20-10-2013 00:00 16.0 -- 15.2 2014-10-08 17:55:00
2 2013-10-21 00:00:00 Temperatura 22.1 del 20-10-2013 17:00, Mayor que la Máxima 21.4 21-10-2013 00:00 22.1 -- 21.4 2014-10-08 17:55:00
2 2013-10-22 00:00:00 Temperatura 26.2 del 21-10-2013 17:00, Mayor que la Máxima 25.6 22-10-2013 00:00 26.2 -- 25.6 2014-10-08 17:55:00
2 2013-10-23 00:00:00 Temperatura 20.2 del 22-10-2013 17:00, Mayor que la Máxima 19.6 23-10-2013 00:00 20.2 -- 19.6 2014-10-08 17:56:00
2 2013-10-25 00:00:00 Temperatura 24.7 del 24-10-2013 17:00, Mayor que la Máxima 24.6 25-10-2013 00:00 24.7 -- 24.6 2014-10-08 18:03:00
2 2013-10-26 00:00:00 Temperatura 21.1 del 25-10-2013 17:00, Mayor que la Máxima 20.2 26-10-2013 00:00 21.1 -- 20.2 2014-10-08 18:03:00
2 2013-10-27 00:00:00 Temperatura 29.9 del 26-10-2013 18:00, Mayor que la Máxima 29.6 27-10-2013 00:00 29.9 -- 29.6 2014-10-08 18:03:00
2 2013-10-28 00:00:00 Temperatura 27.4 del 27-10-2013 15:00, Mayor que la Máxima 26.0 28-10-2013 00:00 27.4 -- 26.0 2014-10-08 18:03:00
2 2013-10-29 00:00:00 Temperatura 17.4 del 28-10-2013 21:00, Mayor que la Máxima 16.4 29-10-2013 00:00 17.4 -- 16.4 2014-10-08 18:03:00
2 2013-10-30 00:00:00 Temperatura 22.9 del 29-10-2013 17:00, Mayor que la Máxima 22.4 30-10-2013 00:00 22.9 -- 22.4 2014-10-08 18:03:00
2 2013-10-31 00:00:00 Temperatura 16.4 del 30-10-2013 16:00, Mayor que la Máxima 16.2 31-10-2013 00:00 16.4 -- 16.2 2014-10-08 18:03:00
2 2013-11-01 00:00:00 Temperatura 17.9 del 31-10-2013 18:00, Mayor que la Máxima 17.8 01-11-2013 00:00 17.9 -- 17.8 2014-10-08 18:04:00
2 2013-11-02 00:00:00 Temperatura 24.0 del 01-11-2013 16:00, Mayor que la Máxima 23.0 02-11-2013 00:00 24.0 -- 23.0 2014-10-08 19:12:00
2 2013-11-03 00:00:00 Temperatura 28.8 del 02-11-2013 20:00, Mayor que la Máxima 27.8 03-11-2013 00:00 28.8 -- 27.8 2014-10-08 19:12:00
2 2013-11-04 00:00:00 Temperatura 30.8 del 03-11-2013 16:00, Mayor que la Máxima 30.4 04-11-2013 00:00 30.8 -- 30.4 2014-10-08 19:12:00
2 2013-11-05 00:00:00 Temperatura 20.8 del 04-11-2013 17:00, Mayor que la Máxima 20.4 05-11-2013 00:00 20.8 -- 20.4 2014-10-08 19:12:00
2 2013-11-06 00:00:00 Temperatura 22.1 del 05-11-2013 20:00, Mayor que la Máxima 21.2 06-11-2013 00:00 22.1 -- 21.2 2014-10-08 19:12:00
2 2013-11-07 00:00:00 Temperatura 24.2 del 06-11-2013 18:00, Mayor que la Máxima 23.8 07-11-2013 00:00 24.2 -- 23.8 2014-10-08 19:12:00
2 2013-11-08 00:00:00 Temperatura 31.3 del 07-11-2013 17:00, Mayor que la Máxima 30.2 08-11-2013 00:00 31.3 -- 30.2 2014-10-08 19:12:00
2 2013-11-09 00:00:00 Temperatura 28.3 del 08-11-2013 18:00, Mayor que la Máxima 27.4 09-11-2013 00:00 28.3 -- 27.4 2014-10-08 19:12:00
2 2013-11-10 00:00:00 Temperatura 20.7 del 09-11-2013 14:00, Mayor que la Máxima 20.4 10-11-2013 00:00 20.7 -- 20.4 2014-10-08 19:12:00
2 2013-11-11 00:00:00 Temperatura 23.7 del 10-11-2013 16:00, Mayor que la Máxima 22.8 11-11-2013 00:00 23.7 -- 22.8 2014-10-08 19:12:00
2 2013-11-12 00:00:00 Temperatura 31.5 del 11-11-2013 19:00, Mayor que la Máxima 30.0 12-11-2013 00:00 31.5 -- 30.0 2014-10-08 19:12:00
2 2013-11-13 00:00:00 Temperatura 36.8 del 12-11-2013 18:00, Mayor que la Máxima 35.4 13-11-2013 00:00 36.8 -- 35.4 2014-10-08 19:12:00
2 2013-11-14 00:00:00 Temperatura 33.8 del 13-11-2013 16:00, Mayor que la Máxima 33.0 14-11-2013 00:00 33.8 -- 33.0 2014-10-08 19:12:00
2 2013-11-15 00:00:00 Temperatura 26.0 del 14-11-2013 17:00, Mayor que la Máxima 25.2 15-11-2013 00:00 26.0 -- 25.2 2014-10-08 19:19:00
2 2013-11-16 00:00:00 Temperatura 34.5 del 15-11-2013 18:00, Mayor que la Máxima 34.2 16-11-2013 00:00 34.5 -- 34.2 2014-10-08 19:16:00
2 2013-11-17 00:00:00 Temperatura 27.3 del 16-11-2013 16:00, Mayor que la Máxima 26.6 17-11-2013 00:00 27.3 -- 26.6 2014-10-08 19:16:00
2 2013-11-18 00:00:00 Temperatura 16.4 del 17-11-2013 21:00, Mayor que la Máxima 16.0 18-11-2013 00:00 16.4 -- 16.0 2014-10-08 19:16:00
2 2013-11-19 00:00:00 Temperatura 22.1 del 18-11-2013 19:00, Mayor que la Máxima 22.0 19-11-2013 00:00 22.1 -- 22.0 2014-10-08 19:19:00
2 2013-11-20 00:00:00 Temperatura 25.1 del 19-11-2013 18:00, Mayor que la Máxima 23.2 20-11-2013 00:00 25.1 -- 23.2 2014-10-08 19:16:00
2 2013-11-21 00:00:00 Temperatura 25.7 del 20-11-2013 16:00, Mayor que la Máxima 25.6 21-11-2013 00:00 25.7 -- 25.6 2014-10-08 19:16:00
2 2013-11-22 00:00:00 Temperatura 33.9 del 21-11-2013 17:00, Mayor que la Máxima 32.6 22-11-2013 00:00 33.9 -- 32.6 2014-10-08 19:16:00
2 2013-11-23 00:00:00 Temperatura 25.9 del 22-11-2013 17:00, Mayor que la Máxima 25.0 23-11-2013 00:00 25.9 -- 25.0 2014-10-08 19:16:00
2 2013-11-25 00:00:00 Temperatura 25.1 del 24-11-2013 17:00, Mayor que la Máxima 24.4 25-11-2013 00:00 25.1 -- 24.4 2014-10-08 19:16:00
2 2013-11-26 00:00:00 Temperatura 22.8 del 25-11-2013 15:00, Mayor que la Máxima 22.2 26-11-2013 00:00 22.8 -- 22.2 2014-10-08 19:17:00
2 2013-11-27 00:00:00 Temperatura 23.1 del 26-11-2013 19:00, Mayor que la Máxima 21.9 27-11-2013 00:00 23.1 -- 21.9 2014-10-08 19:17:00
2 2013-11-28 00:00:00 Temperatura 27.2 del 27-11-2013 18:00, Mayor que la Máxima 24.4 28-11-2013 00:00 27.2 -- 24.4 2014-10-08 19:17:00
2 2013-11-29 00:00:00 Temperatura 26.1 del 28-11-2013 16:00, Mayor que la Máxima 25.0 29-11-2013 00:00 26.1 -- 25.0 2014-10-08 19:17:00
2 2013-11-30 00:00:00 Temperatura 26.3 del 29-11-2013 20:00, Mayor que la Máxima 25.6 30-11-2013 00:00 26.3 -- 25.6 2014-10-08 19:17:00
2 2013-12-01 00:00:00 Temperatura 25.0 del 30-11-2013 17:00, Mayor que la Máxima 24.4 01-12-2013 00:00 25.0 -- 24.4 2014-10-08 19:17:00
2 2013-12-02 00:00:00 Temperatura 27.3 del 01-12-2013 18:00, Mayor que la Máxima 26.2 02-12-2013 00:00 27.3 -- 26.2 2014-10-08 20:00:00
2 2013-12-03 00:00:00 Temperatura 31.6 del 02-12-2013 20:00, Mayor que la Máxima 31.0 03-12-2013 00:00 31.6 -- 31.0 2014-10-08 19:56:00
2 2013-12-04 00:00:00 Temperatura 34.9 del 03-12-2013 16:00, Mayor que la Máxima 33.4 04-12-2013 00:00 34.9 -- 33.4 2014-10-08 19:56:00
2 2013-12-05 00:00:00 Temperatura 25.1 del 04-12-2013 19:00, Mayor que la Máxima 23.8 05-12-2013 00:00 25.1 -- 23.8 2014-10-08 19:56:00
2 2013-12-06 00:00:00 Temperatura 27.0 del 05-12-2013 19:00, Mayor que la Máxima 26.2 06-12-2013 00:00 27.0 -- 26.2 2014-10-08 19:56:00
2 2013-12-07 00:00:00 Temperatura 26.9 del 06-12-2013 16:00, Mayor que la Máxima 25.5 07-12-2013 00:00 26.9 -- 25.5 2014-10-08 19:56:00
2 2013-12-08 00:00:00 Temperatura 23.6 del 07-12-2013 20:00, Mayor que la Máxima 22.4 08-12-2013 00:00 23.6 -- 22.4 2014-10-08 19:56:00
2 2013-12-09 00:00:00 Temperatura 23.6 del 08-12-2013 18:00, Mayor que la Máxima 21.8 09-12-2013 00:00 23.6 -- 21.8 2014-10-08 19:56:00
2 2013-12-10 00:00:00 Temperatura 29.7 del 09-12-2013 18:00, Mayor que la Máxima 28.8 10-12-2013 00:00 29.7 -- 28.8 2014-10-08 19:57:00
2 2013-12-11 00:00:00 Temperatura 27.2 del 10-12-2013 16:00, Mayor que la Máxima 26.8 11-12-2013 00:00 27.2 -- 26.8 2014-10-08 19:57:00
2 2013-12-12 00:00:00 Temperatura 26.0 del 11-12-2013 16:00, Mayor que la Máxima 25.2 12-12-2013 00:00 26.0 -- 25.2 2014-10-08 19:57:00
2 2013-12-13 00:00:00 Temperatura 23.6 del 12-12-2013 17:00, Mayor que la Máxima 23.4 13-12-2013 00:00 23.6 -- 23.4 2014-10-08 19:57:00
2 2013-12-14 00:00:00 Temperatura 23.5 del 13-12-2013 19:00, Mayor que la Máxima 23.2 14-12-2013 00:00 23.5 -- 23.2 2014-10-08 19:57:00
2 2013-12-15 00:00:00 Temperatura 23.8 del 14-12-2013 18:00, Mayor que la Máxima 23.6 15-12-2013 00:00 23.8 -- 23.6 2014-10-08 19:57:00
2 2013-12-16 00:00:00 Temperatura 24.5 del 15-12-2013 19:00, Mayor que la Máxima 24.2 16-12-2013 00:00 24.5 -- 24.2 2014-10-08 19:57:00
2 2013-12-17 00:00:00 Temperatura 27.5 del 16-12-2013 17:00, Mayor que la Máxima 26.0 17-12-2013 00:00 27.5 -- 26.0 2014-10-08 19:58:00
2 2013-12-18 00:00:00 Temperatura 26.0 del 17-12-2013 19:00, Mayor que la Máxima 25.2 18-12-2013 00:00 26.0 -- 25.2 2014-10-08 19:58:00
2 2013-12-19 00:00:00 Temperatura 24.7 del 18-12-2013 19:00, Mayor que la Máxima 23.0 19-12-2013 00:00 24.7 -- 23.0 2014-10-08 19:58:00
2 2013-12-20 00:00:00 Temperatura 24.9 del 19-12-2013 18:00, Mayor que la Máxima 24.0 20-12-2013 00:00 24.9 -- 24.0 2014-10-08 19:58:00
2 2013-12-22 00:00:00 Temperatura 24.5 del 21-12-2013 19:00, Mayor que la Máxima 23.6 22-12-2013 00:00 24.5 -- 23.6 2014-10-08 19:58:00
2 2013-12-23 00:00:00 Temperatura 24.7 del 22-12-2013 20:00, Mayor que la Máxima 23.6 23-12-2013 00:00 24.7 -- 23.6 2014-10-08 19:58:00
2 2013-12-24 00:00:00 Temperatura 25.4 del 23-12-2013 18:00, Mayor que la Máxima 25.0 24-12-2013 00:00 25.4 -- 25.0 2014-10-08 19:58:00
2 2013-12-27 00:00:00 Temperatura 28.6 del 26-12-2013 16:00, Mayor que la Máxima 27.8 27-12-2013 00:00 28.6 -- 27.8 2014-10-08 19:59:00
2 2013-12-28 00:00:00 Temperatura 33.0 del 27-12-2013 21:00, Mayor que la Máxima 31.8 28-12-2013 00:00 33.0 -- 31.8 2014-10-08 19:59:00
2 2013-12-29 00:00:00 Temperatura 30.4 del 28-12-2013 16:00, Mayor que la Máxima 29.8 29-12-2013 00:00 30.4 -- 29.8 2014-10-08 19:59:00
2 2013-12-30 00:00:00 Temperatura 33.6 del 29-12-2013 20:00, Mayor que la Máxima 33.0 30-12-2013 00:00 33.6 -- 33.0 2014-10-08 19:59:00
2 2013-12-31 00:00:00 Temperatura 33.2 del 30-12-2013 18:00, Mayor que la Máxima 33.0 31-12-2013 00:00 33.2 -- 33.0 2014-10-08 19:59:00
2 2014-01-01 00:00:00 Temperatura 30.4 del 31-12-2013 18:00, Mayor que la Máxima 29.9 01-01-2014 00:00 30.4 -- 29.9 2014-10-08 19:59:00
2 2014-03-16 00:00:00 Temperatura 27.2 del 15-03-2014 17:00, Mayor que la Máxima 9.4 16-03-2014 00:00 27.2 -- 9.4 2020-10-28 01:34:00
2 2014-03-18 00:00:00 Temperatura 27.9 del 17-03-2014 15:00, Mayor que la Máxima 27.6 18-03-2014 00:00 27.9 -- 27.6 2020-10-28 01:34:00
2 2014-03-23 00:00:00 Temperatura 27.1 del 22-03-2014 15:00, Mayor que la Máxima 26.7 23-03-2014 00:00 27.1 -- 26.7 2020-10-28 01:34:00
2 2014-03-30 00:00:00 Temperatura 22.4 del 29-03-2014 17:00, Mayor que la Máxima 14.0 30-03-2014 00:00 22.4 -- 14.0 2020-10-28 01:35:00
2 2014-04-16 00:00:00 Temperatura 23.1 del 15-04-2014 17:00, Mayor que la Máxima 20.6 16-04-2014 00:00 23.1 -- 20.6 2020-10-28 01:37:00
2 2014-04-17 00:00:00 Temperatura 23.1 del 16-04-2014 18:00, Mayor que la Máxima 9.2 17-04-2014 00:00 23.1 -- 9.2 2020-10-28 01:37:00
2 2014-04-25 00:00:00 Temperatura 20.0 del 24-04-2014 19:00, Mayor que la Máxima 11.0 25-04-2014 00:00 20.0 -- 11.0 2020-10-28 01:37:00
2 2014-05-09 00:00:00 Temperatura 23.5 del 08-05-2014 16:00, Mayor que la Máxima 22.8 09-05-2014 00:00 23.5 -- 22.8 2020-10-28 01:39:00
2 2014-05-12 00:00:00 Temperatura 16.6 del 11-05-2014 17:00, Mayor que la Máxima 16.4 12-05-2014 00:00 16.6 -- 16.4 2020-10-28 01:39:00
2 2014-05-22 00:00:00 Temperatura 19.7 del 21-05-2014 15:00, Mayor que la Máxima 16.0 22-05-2014 00:00 19.7 -- 16.0 2020-10-28 01:40:00
2 2014-05-30 00:00:00 Temperatura 18.6 del 29-05-2014 15:00, Mayor que la Máxima 17.3 30-05-2014 00:00 18.6 -- 17.3 2020-10-28 01:41:00
2 2014-06-04 00:00:00 Temperatura 18.3 del 03-06-2014 15:00, Mayor que la Máxima 16.6 04-06-2014 00:00 18.3 -- 16.6 2020-10-28 01:41:00
2 2014-06-08 00:00:00 Temperatura 12.5 del 07-06-2014 14:00, Mayor que la Máxima 10.9 08-06-2014 00:00 12.5 -- 10.9 2020-10-28 01:42:00
2 2014-07-15 00:00:00 Temperatura 11.6 del 14-07-2014 19:00, Mayor que la Máxima 10.4 15-07-2014 00:00 11.6 -- 10.4 2020-10-28 01:45:00
2 2014-08-19 00:00:00 Temperatura 23.8 del 18-08-2014 15:00, Mayor que la Máxima 19.2 19-08-2014 00:00 23.8 -- 19.2 2020-10-28 01:49:00
2 2014-08-30 00:00:00 Temperatura 18.7 del 29-08-2014 15:00, Mayor que la Máxima 18.1 30-08-2014 00:00 18.7 -- 18.1 2020-10-28 01:50:00
2 2014-09-05 00:00:00 Temperatura 16.8 del 04-09-2014 15:00, Mayor que la Máxima 15.9 05-09-2014 00:00 16.8 -- 15.9 2020-10-28 01:51:00
2 2014-10-06 00:00:00 Temperatura 27.4 del 05-10-2014 20:00, Mayor que la Máxima 21.9 06-10-2014 00:00 27.4 -- 21.9 2020-10-28 01:54:00
2 2014-12-01 00:00:00 Temperatura 26.9 del 30-11-2014 18:00, Mayor que la Máxima 24.9 01-12-2014 00:00 26.9 -- 24.9 2020-10-28 02:00:00
2 2014-12-14 00:00:00 Temperatura 24.4 del 13-12-2014 15:00, Mayor que la Máxima 24.0 14-12-2014 00:00 24.4 -- 24.0 2020-10-28 02:01:00
2 2014-12-25 00:00:00 Temperatura 27.6 del 24-12-2014 15:00, Mayor que la Máxima 26.7 25-12-2014 00:00 27.6 -- 26.7 2020-10-28 02:02:00
2 2015-04-06 00:00:00 Temperatura 28.4 del 05-04-2015 17:00, Mayor que la Máxima 14.7 06-04-2015 00:00 28.4 -- 14.7 2020-10-28 02:12:00
2 2015-04-10 00:00:00 Temperatura 33.2 del 09-04-2015 18:00, Mayor que la Máxima 12.2 10-04-2015 00:00 33.2 -- 12.2 2020-10-28 02:13:00
2 2015-04-16 00:00:00 Temperatura 23.1 del 15-04-2015 17:00, Mayor que la Máxima 12.9 16-04-2015 00:00 23.1 -- 12.9 2020-10-28 02:13:00
2 2015-04-18 00:00:00 Temperatura 28.8 del 17-04-2015 17:00, Mayor que la Máxima 8.8 18-04-2015 00:00 28.8 -- 8.8 2020-10-28 02:13:00
2 2015-04-24 00:00:00 Temperatura 27.1 del 23-04-2015 17:00, Mayor que la Máxima 8.1 24-04-2015 00:00 27.1 -- 8.1 2020-10-28 02:14:00
2 2015-04-30 00:00:00 Temperatura 29.0 del 29-04-2015 17:00, Mayor que la Máxima 8.4 30-04-2015 00:00 29.0 -- 8.4 2020-10-28 02:14:00
2 2015-05-04 00:00:00 Temperatura 26.5 del 03-05-2015 18:00, Mayor que la Máxima 6.6 04-05-2015 00:00 26.5 -- 6.6 2020-10-28 02:15:00
2 2015-05-16 00:00:00 Temperatura 22.9 del 15-05-2015 17:00, Mayor que la Máxima 6.4 16-05-2015 00:00 22.9 -- 6.4 2020-10-28 02:16:00
2 2015-05-24 00:00:00 Temperatura 21.7 del 23-05-2015 17:00, Mayor que la Máxima 4.6 24-05-2015 00:00 21.7 -- 4.6 2020-10-28 02:16:00
2 2015-05-26 00:00:00 Temperatura 18.3 del 25-05-2015 17:00, Mayor que la Máxima 4.7 26-05-2015 00:00 18.3 -- 4.7 2020-10-28 02:16:00
2 2015-06-10 00:00:00 Temperatura 21.2 del 09-06-2015 16:00, Mayor que la Máxima 20.5 10-06-2015 00:00 21.2 -- 20.5 2020-10-28 02:17:00
2 2015-06-11 00:00:00 Temperatura 22.0 del 10-06-2015 18:00, Mayor que la Máxima 20.5 11-06-2015 00:00 22.0 -- 20.5 2020-10-28 02:17:00
2 2015-06-13 00:00:00 Temperatura 18.5 del 12-06-2015 17:00, Mayor que la Máxima 16.4 13-06-2015 00:00 18.5 -- 16.4 2020-10-28 02:17:00
2 2015-06-28 00:00:00 Temperatura 21.1 del 27-06-2015 16:00, Mayor que la Máxima 2.7 28-06-2015 00:00 21.1 -- 2.7 2020-10-28 02:18:00
2 2015-06-30 00:00:00 Temperatura 19.2 del 29-06-2015 18:00, Mayor que la Máxima 6.2 30-06-2015 00:00 19.2 -- 6.2 2020-10-28 02:18:00
2 2015-07-05 00:00:00 Temperatura 19.8 del 04-07-2015 17:00, Mayor que la Máxima 5.7 05-07-2015 00:00 19.8 -- 5.7 2020-10-28 02:18:00
2 2015-07-06 00:00:00 Temperatura 11.4 del 05-07-2015 15:00, Mayor que la Máxima 8.9 06-07-2015 00:00 11.4 -- 8.9 2020-10-28 02:18:00
2 2015-07-14 00:00:00 Temperatura 15.6 del 13-07-2015 18:00, Mayor que la Máxima 14.8 14-07-2015 00:00 15.6 -- 14.8 2020-10-28 02:19:00
2 2015-07-27 00:00:00 Temperatura 13.6 del 26-07-2015 18:00, Mayor que la Máxima 13.0 27-07-2015 00:00 13.6 -- 13.0 2020-10-28 02:20:00
2 2015-07-28 00:00:00 Temperatura 18.0 del 27-07-2015 14:00, Mayor que la Máxima 17.2 28-07-2015 00:00 18.0 -- 17.2 2020-10-28 02:20:00
2 2015-08-10 00:00:00 Temperatura 13.6 del 09-08-2015 14:00, Mayor que la Máxima 13.1 10-08-2015 00:00 13.6 -- 13.1 2020-10-28 02:21:00
2 2015-08-22 00:00:00 Temperatura 17.4 del 21-08-2015 14:00, Mayor que la Máxima 17.1 22-08-2015 00:00 17.4 -- 17.1 2020-10-28 02:22:00
2 2015-10-20 00:00:00 Temperatura 16.8 del 19-10-2015 14:00, Mayor que la Máxima 14.6 20-10-2015 00:00 16.8 -- 14.6 2020-10-28 02:27:00
2 2015-11-26 00:00:00 Temperatura 27.8 del 25-11-2015 19:00, Mayor que la Máxima 26.3 26-11-2015 00:00 27.8 -- 26.3 2020-10-28 02:31:00
2 2015-12-27 00:00:00 Temperatura 29.7 del 26-12-2015 16:00, Mayor que la Máxima 13.4 27-12-2015 00:00 29.7 -- 13.4 2020-10-28 02:34:00
2 2016-01-07 00:00:00 Temperatura 28.3 del 06-01-2016 16:00, Mayor que la Máxima 28.2 07-01-2016 00:00 28.3 -- 28.2 2020-10-28 02:35:00
2 2016-01-10 00:00:00 Temperatura 31.3 del 09-01-2016 16:00, Mayor que la Máxima 31.2 10-01-2016 00:00 31.3 -- 31.2 2020-10-28 02:35:00
2 2016-01-14 00:00:00 Temperatura 30.4 del 13-01-2016 16:00, Mayor que la Máxima 30.3 14-01-2016 00:00 30.4 -- 30.3 2020-10-28 02:36:00
2 2016-01-26 00:00:00 Temperatura 28.3 del 25-01-2016 20:00, Mayor que la Máxima 28.2 26-01-2016 00:00 28.3 -- 28.2 2020-10-28 02:37:00
2 2016-01-27 00:00:00 Temperatura 29.9 del 26-01-2016 17:00, Mayor que la Máxima 29.8 27-01-2016 00:00 29.9 -- 29.8 2020-10-28 02:37:00
2 2016-02-03 00:00:00 Temperatura 25.9 del 02-02-2016 18:00, Mayor que la Máxima 25.8 03-02-2016 00:00 25.9 -- 25.8 2020-10-28 02:38:00
2 2016-02-08 00:00:00 Temperatura 27.8 del 07-02-2016 18:00, Mayor que la Máxima 27.7 08-02-2016 00:00 27.8 -- 27.7 2020-10-28 02:38:00
2 2016-02-20 00:00:00 Temperatura 35.6 del 19-02-2016 19:00, Mayor que la Máxima 35.5 20-02-2016 00:00 35.6 -- 35.5 2020-10-28 02:39:00
2 2016-02-23 00:00:00 Temperatura 28.8 del 22-02-2016 19:00, Mayor que la Máxima 28.7 23-02-2016 00:00 28.8 -- 28.7 2020-10-28 02:40:00
2 2016-03-05 00:00:00 Temperatura 27.9 del 04-03-2016 17:00, Mayor que la Máxima 27.8 05-03-2016 00:00 27.9 -- 27.8 2020-10-28 02:41:00
2 2016-03-10 00:00:00 Temperatura 31.8 del 09-03-2016 19:00, Mayor que la Máxima 31.7 10-03-2016 00:00 31.8 -- 31.7 2020-10-28 02:41:00
2 2016-03-15 00:00:00 Temperatura 27.3 del 14-03-2016 18:00, Mayor que la Máxima 27.2 15-03-2016 00:00 27.3 -- 27.2 2020-10-28 02:42:00
2 2016-04-06 00:00:00 Temperatura 20.3 del 05-04-2016 16:00, Mayor que la Máxima 20.2 06-04-2016 00:00 20.3 -- 20.2 2020-10-28 02:44:00
2 2016-04-13 00:00:00 Temperatura 18.4 del 12-04-2016 16:00, Mayor que la Máxima 18.3 13-04-2016 00:00 18.4 -- 18.3 2020-10-28 02:45:00
2 2016-04-17 00:00:00 Temperatura 24.3 del 16-04-2016 16:00, Mayor que la Máxima 24.2 17-04-2016 00:00 24.3 -- 24.2 2020-10-28 02:45:00
2 2016-04-20 00:00:00 Temperatura 25.9 del 19-04-2016 20:00, Mayor que la Máxima 25.8 20-04-2016 00:00 25.9 -- 25.8 2020-10-28 02:45:00
2 2016-04-24 00:00:00 Temperatura 19.8 del 23-04-2016 15:00, Mayor que la Máxima 19.7 24-04-2016 00:00 19.8 -- 19.7 2020-10-28 02:46:00
2 2016-04-30 00:00:00 Temperatura 29.4 del 29-04-2016 19:00, Mayor que la Máxima 29.3 30-04-2016 00:00 29.4 -- 29.3 2020-10-28 02:46:00
2 2016-05-03 00:00:00 Temperatura 23.9 del 02-05-2016 16:00, Mayor que la Máxima 23.8 03-05-2016 00:00 23.9 -- 23.8 2020-10-28 02:47:00
2 2016-05-07 00:00:00 Temperatura 23.3 del 06-05-2016 19:00, Mayor que la Máxima 23.2 07-05-2016 00:00 23.3 -- 23.2 2020-10-28 02:47:00
2 2016-05-30 00:00:00 Temperatura 18.3 del 29-05-2016 16:00, Mayor que la Máxima 18.2 30-05-2016 00:00 18.3 -- 18.2 2020-10-28 02:49:00
2 2016-06-02 00:00:00 Temperatura 19.4 del 01-06-2016 17:00, Mayor que la Máxima 19.3 02-06-2016 00:00 19.4 -- 19.3 2020-10-28 02:50:00
2 2016-06-09 00:00:00 Temperatura 24.3 del 08-06-2016 18:00, Mayor que la Máxima 24.2 09-06-2016 00:00 24.3 -- 24.2 2020-10-28 02:50:00
2 2016-06-21 00:00:00 Temperatura 17.3 del 20-06-2016 18:00, Mayor que la Máxima 17.2 21-06-2016 00:00 17.3 -- 17.2 2020-10-28 02:52:00
2 2016-07-02 00:00:00 Temperatura 14.9 del 01-07-2016 17:00, Mayor que la Máxima 14.8 02-07-2016 00:00 14.9 -- 14.8 2020-10-28 02:53:00
2 2016-07-08 00:00:00 Temperatura 20.8 del 07-07-2016 19:00, Mayor que la Máxima 20.7 08-07-2016 00:00 20.8 -- 20.7 2020-10-28 02:54:00
2 2016-07-29 00:00:00 Temperatura 20.4 del 28-07-2016 18:00, Mayor que la Máxima 20.3 29-07-2016 00:00 20.4 -- 20.3 2020-10-28 02:56:00
2 2016-07-30 00:00:00 Temperatura 22.3 del 29-07-2016 18:00, Mayor que la Máxima 22.2 30-07-2016 00:00 22.3 -- 22.2 2020-10-28 02:56:00
2 2016-08-30 00:00:00 Temperatura 24.4 del 29-08-2016 18:00, Mayor que la Máxima 24.3 30-08-2016 00:00 24.4 -- 24.3 2020-10-28 02:59:00
2 2016-09-04 00:00:00 Temperatura 19.9 del 03-09-2016 17:00, Mayor que la Máxima 19.8 04-09-2016 00:00 19.9 -- 19.8 2020-10-28 03:00:00
2 2016-09-05 00:00:00 Temperatura 20.3 del 04-09-2016 17:00, Mayor que la Máxima 20.2 05-09-2016 00:00 20.3 -- 20.2 2020-10-28 03:00:00
2 2016-09-12 00:00:00 Temperatura 16.9 del 11-09-2016 19:00, Mayor que la Máxima 16.8 12-09-2016 00:00 16.9 -- 16.8 2020-10-28 03:00:00
2 2016-09-16 00:00:00 Temperatura 21.9 del 15-09-2016 17:00, Mayor que la Máxima 21.8 16-09-2016 00:00 21.9 -- 21.8 2020-10-28 03:01:00
2 2016-09-22 00:00:00 Temperatura 20.8 del 21-09-2016 18:00, Mayor que la Máxima 20.7 22-09-2016 00:00 20.8 -- 20.7 2020-10-28 03:01:00
2 2016-09-29 00:00:00 Temperatura 14.2 del 28-09-2016 17:00, Mayor que la Máxima 14.1 29-09-2016 00:00 14.2 -- 14.1 2020-10-28 03:02:00
2 2016-10-03 00:00:00 Temperatura 24.8 del 02-10-2016 16:00, Mayor que la Máxima 24.7 03-10-2016 00:00 24.8 -- 24.7 2020-10-28 03:03:00
2 2016-10-10 00:00:00 Temperatura 28.3 del 09-10-2016 17:00, Mayor que la Máxima 28.2 10-10-2016 00:00 28.3 -- 28.2 2020-10-28 03:03:00
2 2016-10-12 00:00:00 Temperatura 28.3 del 11-10-2016 18:00, Mayor que la Máxima 28.2 12-10-2016 00:00 28.3 -- 28.2 2020-10-28 03:03:00
2 2016-10-14 00:00:00 Temperatura 27.3 del 13-10-2016 16:00, Mayor que la Máxima 27.2 14-10-2016 00:00 27.3 -- 27.2 2020-10-28 03:04:00
2 2016-10-23 00:00:00 Temperatura 18.3 del 22-10-2016 13:00, Mayor que la Máxima 18.1 23-10-2016 00:00 18.3 -- 18.1 2020-10-28 03:05:00
2 2016-10-29 00:00:00 Temperatura 19.3 del 28-10-2016 20:00, Mayor que la Máxima 19.2 29-10-2016 00:00 19.3 -- 19.2 2020-10-28 03:05:00
2 2016-11-05 00:00:00 Temperatura 31.0 del 04-11-2016 14:00, Mayor que la Máxima 26.7 05-11-2016 00:00 31.0 -- 26.7 2020-10-28 03:06:00
2 2016-11-13 00:00:00 Temperatura 24.2 del 12-11-2016 15:00, Mayor que la Máxima 23.7 13-11-2016 00:00 24.2 -- 23.7 2020-10-28 03:07:00
2 2016-11-14 00:00:00 Temperatura 24.8 del 13-11-2016 16:00, Mayor que la Máxima 24.7 14-11-2016 00:00 24.8 -- 24.7 2020-10-28 03:07:00
2 2016-11-15 00:00:00 Temperatura 28.7 del 14-11-2016 19:00, Mayor que la Máxima 27.0 15-11-2016 00:00 28.7 -- 27.0 2020-10-28 03:07:00
2 2016-11-30 00:00:00 Temperatura 27.7 del 29-11-2016 15:00, Mayor que la Máxima 26.0 30-11-2016 00:00 27.7 -- 26.0 2020-10-28 03:08:00
2 2016-12-06 00:00:00 Temperatura 30.9 del 05-12-2016 18:00, Mayor que la Máxima 30.8 06-12-2016 00:00 30.9 -- 30.8 2020-10-28 03:09:00
2 2016-12-08 00:00:00 Temperatura 24.8 del 07-12-2016 17:00, Mayor que la Máxima 24.7 08-12-2016 00:00 24.8 -- 24.7 2020-10-28 03:09:00
2 2016-12-15 00:00:00 Temperatura 30.6 del 14-12-2016 15:00, Mayor que la Máxima 29.8 15-12-2016 00:00 30.6 -- 29.8 2020-10-28 03:10:00
2 2016-12-17 00:00:00 Temperatura 28.3 del 16-12-2016 19:00, Mayor que la Máxima 28.2 17-12-2016 00:00 28.3 -- 28.2 2020-10-28 03:10:00
2 2016-12-20 00:00:00 Temperatura 28.8 del 19-12-2016 16:00, Mayor que la Máxima 28.7 20-12-2016 00:00 28.8 -- 28.7 2020-10-28 03:10:00
2 2016-12-25 00:00:00 Temperatura 28.4 del 24-12-2016 16:00, Mayor que la Máxima 28.3 25-12-2016 00:00 28.4 -- 28.3 2020-10-28 03:11:00
2 2017-01-08 00:00:00 Temperatura 29.9 del 07-01-2017 17:00, Mayor que la Máxima 29.8 08-01-2017 00:00 29.9 -- 29.8 2020-10-28 03:12:00
2 2017-01-11 00:00:00 Temperatura 29.7 del 10-01-2017 15:00, Mayor que la Máxima 28.2 11-01-2017 00:00 29.7 -- 28.2 2020-10-28 03:13:00
2 2017-01-17 00:00:00 Temperatura 29.3 del 16-01-2017 19:00, Mayor que la Máxima 29.2 17-01-2017 00:00 29.3 -- 29.2 2020-10-28 03:13:00
2 2017-01-23 00:00:00 Temperatura 30.4 del 22-01-2017 16:00, Mayor que la Máxima 30.3 23-01-2017 00:00 30.4 -- 30.3 2020-10-28 03:14:00
2 2017-01-27 00:00:00 Temperatura 30.8 del 26-01-2017 17:00, Mayor que la Máxima 30.7 27-01-2017 00:00 30.8 -- 30.7 2020-10-28 03:14:00
2 2017-01-31 00:00:00 Temperatura 30.8 del 30-01-2017 17:00, Mayor que la Máxima 30.7 31-01-2017 00:00 30.8 -- 30.7 2020-10-28 03:14:00
2 2017-02-02 00:00:00 Temperatura 29.2 del 01-02-2017 17:00, Mayor que la Máxima 13.3 02-02-2017 00:00 29.2 -- 13.3 2020-10-28 03:15:00
2 2017-02-06 00:00:00 Temperatura 35.2 del 05-02-2017 17:00, Mayor que la Máxima 14.7 06-02-2017 00:00 35.2 -- 14.7 2020-10-28 03:15:00
2 2017-02-07 00:00:00 Temperatura 28.6 del 06-02-2017 15:00, Mayor que la Máxima 27.8 07-02-2017 00:00 28.6 -- 27.8 2020-10-28 03:15:00
2 2017-02-26 00:00:00 Temperatura 28.7 del 25-02-2017 15:00, Mayor que la Máxima 27.6 26-02-2017 00:00 28.7 -- 27.6 2020-10-28 03:17:00
2 2017-03-06 00:00:00 Temperatura 31.3 del 05-03-2017 16:00, Mayor que la Máxima 12.2 06-03-2017 00:00 31.3 -- 12.2 2020-10-28 03:18:00
2 2017-03-09 00:00:00 Temperatura 29.0 del 08-03-2017 18:00, Mayor que la Máxima 10.8 09-03-2017 00:00 29.0 -- 10.8 2020-10-28 03:18:00
2 2017-04-04 00:00:00 Temperatura 28.5 del 03-04-2017 17:00, Mayor que la Máxima 28.2 04-04-2017 00:00 28.5 -- 28.2 2020-10-28 03:20:00
2 2017-04-16 00:00:00 Temperatura 22.6 del 15-04-2017 15:00, Mayor que la Máxima 22.0 16-04-2017 00:00 22.6 -- 22.0 2020-10-28 03:22:00
2 2017-05-01 00:00:00 Temperatura 24.6 del 30-04-2017 17:00, Mayor que la Máxima 23.9 01-05-2017 00:00 24.6 -- 23.9 2020-10-28 03:23:00
2 2017-05-08 00:00:00 Temperatura 16.6 del 07-05-2017 15:00, Mayor que la Máxima 16.4 08-05-2017 00:00 16.6 -- 16.4 2020-10-28 03:24:00
2 2017-05-12 00:00:00 Temperatura 15.8 del 11-05-2017 14:00, Mayor que la Máxima 13.9 12-05-2017 00:00 15.8 -- 13.9 2020-10-28 03:24:00
2 2017-08-29 00:00:00 Temperatura 17.0 del 28-08-2017 15:00, Mayor que la Máxima 14.9 29-08-2017 00:00 17.0 -- 14.9 2020-10-28 03:37:00
2 2017-09-13 00:00:00 Temperatura 17.9 del 12-09-2017 15:00, Mayor que la Máxima 16.8 13-09-2017 00:00 17.9 -- 16.8 2020-10-28 03:39:00
2 2017-09-24 00:00:00 Temperatura 23.5 del 23-09-2017 15:00, Mayor que la Máxima 22.7 24-09-2017 00:00 23.5 -- 22.7 2020-10-28 03:40:00
2 2017-11-15 00:00:00 Temperatura 19.8 del 14-11-2017 14:00, Mayor que la Máxima 19.5 15-11-2017 00:00 19.8 -- 19.5 2020-10-28 03:47:00
2 2017-12-11 00:00:00 Temperatura 26.4 del 10-12-2017 14:00, Mayor que la Máxima 25.7 11-12-2017 00:00 26.4 -- 25.7 2020-10-28 03:50:00
2 2017-12-16 00:00:00 Temperatura 31.9 del 15-12-2017 14:00, Mayor que la Máxima 30.9 16-12-2017 00:00 31.9 -- 30.9 2020-10-28 03:51:00
2 2017-12-26 00:00:00 Temperatura 28.8 del 25-12-2017 15:00, Mayor que la Máxima 28.5 26-12-2017 00:00 28.8 -- 28.5 2020-10-28 03:52:00
2 2018-07-05 00:00:00 Temperatura 16.7 del 04-07-2018 15:00, Mayor que la Máxima 16.4 05-07-2018 00:00 16.7 -- 16.4 2020-10-28 04:15:00
2 2018-09-27 00:00:00 Temperatura 21.4 del 26-09-2018 16:00, Mayor que la Máxima 19.8 27-09-2018 00:00 21.4 -- 19.8 2020-10-28 04:26:00
2 2018-11-13 00:00:00 Temperatura 20.9 del 12-11-2018 15:00, Mayor que la Máxima 20.8 13-11-2018 00:00 20.9 -- 20.8 2020-10-28 04:32:00
2 2018-12-24 00:00:00 Temperatura 27.6 del 23-12-2018 18:00, Mayor que la Máxima 12.0 24-12-2018 00:00 27.6 -- 12.0 2020-10-28 04:37:00
2 2018-12-26 00:00:00 Temperatura 27.0 del 25-12-2018 19:00, Mayor que la Máxima 15.5 26-12-2018 00:00 27.0 -- 15.5 2020-10-28 04:37:00
2 2019-01-07 00:00:00 Temperatura 24.4 del 06-01-2019 18:00, Mayor que la Máxima 14.8 07-01-2019 00:00 24.4 -- 14.8 2020-10-28 04:38:00
2 2019-01-19 00:00:00 Temperatura 29.3 del 18-01-2019 16:00, Mayor que la Máxima 28.3 19-01-2019 00:00 29.3 -- 28.3 2020-10-28 04:40:00
2 2019-03-23 00:00:00 Temperatura 30.9 del 22-03-2019 17:00, Mayor que la Máxima 30.3 23-03-2019 00:00 30.9 -- 30.3 2020-10-28 04:47:00
2 2019-04-18 00:00:00 Temperatura 25.9 del 17-04-2019 18:00, Mayor que la Máxima 10.1 18-04-2019 00:00 25.9 -- 10.1 2020-10-28 04:50:00
2 2019-05-15 00:00:00 Temperatura 22.9 del 14-05-2019 19:00, Mayor que la Máxima 20.0 15-05-2019 00:00 22.9 -- 20.0 2020-10-28 04:53:00
2 2019-07-22 00:00:00 Temperatura 10.3 del 21-07-2019 15:00, Mayor que la Máxima 9.7 22-07-2019 00:00 10.3 -- 9.7 2020-10-28 05:00:00
2 2019-07-26 00:00:00 Temperatura 16.4 del 25-07-2019 20:00, Mayor que la Máxima 3.3 26-07-2019 00:00 16.4 -- 3.3 2020-10-28 05:00:00
2 2019-08-20 00:00:00 Temperatura 15.3 del 19-08-2019 20:00, Mayor que la Máxima 15.1 20-08-2019 00:00 15.3 -- 15.1 2020-10-28 05:03:00
2 2019-09-10 00:00:00 Temperatura 16.5 del 09-09-2019 15:00, Mayor que la Máxima 16.1 10-09-2019 00:00 16.5 -- 16.1 2020-10-28 05:05:00
2 2019-09-22 00:00:00 Temperatura 29.7 del 21-09-2019 18:00, Mayor que la Máxima 8.0 22-09-2019 00:00 29.7 -- 8.0 2020-10-28 05:06:00
2 2019-09-29 00:00:00 Temperatura 26.8 del 28-09-2019 17:00, Mayor que la Máxima 8.5 29-09-2019 00:00 26.8 -- 8.5 2020-10-28 05:07:00
2 2019-10-01 00:00:00 Temperatura 17.3 del 30-09-2019 15:00, Mayor que la Máxima 10.8 01-10-2019 00:00 17.3 -- 10.8 2020-10-28 05:07:00
2 2019-10-15 00:00:00 Temperatura 17.3 del 14-10-2019 15:00, Mayor que la Máxima 16.4 15-10-2019 00:00 17.3 -- 16.4 2020-10-28 05:09:00
2 2019-10-17 00:00:00 Temperatura 17.8 del 16-10-2019 16:00, Mayor que la Máxima 17.3 17-10-2019 00:00 17.8 -- 17.3 2020-10-28 05:09:00
2 2019-11-29 00:00:00 Temperatura 30.5 del 28-11-2019 17:00, Mayor que la Máxima 12.9 29-11-2019 00:00 30.5 -- 12.9 2020-10-28 05:14:00
2 2019-12-06 00:00:00 Temperatura 29.7 del 05-12-2019 16:00, Mayor que la Máxima 29.4 06-12-2019 00:00 29.7 -- 29.4 2020-10-28 05:16:00
2 2019-12-14 00:00:00 Temperatura 26.8 del 13-12-2019 16:00, Mayor que la Máxima 26.4 14-12-2019 00:00 26.8 -- 26.4 2020-10-28 05:17:00
2 2019-12-24 00:00:00 Temperatura 33.7 del 23-12-2019 16:00, Mayor que la Máxima 30.7 24-12-2019 00:00 33.7 -- 30.7 2020-10-28 05:18:00
2 2000-06-27 12:00:00 Temperatura 8.4 del 27-06-2000 12:00, Menor que la Mínima 8.5 27-06-2000 12:00 8.4 -- 8.5 2023-12-28 23:57:00
2 2001-06-09 12:00:00 Temperatura 2.8 del 09-06-2001 12:00, Menor que la Mínima 2.9 09-06-2001 12:00 2.8 -- 2.9 2023-12-28 23:58:00
2 2001-06-15 12:00:00 Temperatura 9.8 del 15-06-2001 12:00, Menor que la Mínima 10.0 15-06-2001 12:00 9.8 -- 10.0 2023-12-28 23:58:00
2 2001-06-23 12:00:00 Temperatura 3.4 del 23-06-2001 12:00, Menor que la Mínima 3.7 23-06-2001 12:00 3.4 -- 3.7 2023-12-28 23:58:00
2 2001-06-28 12:00:00 Temperatura 9.2 del 28-06-2001 12:00, Menor que la Mínima 9.4 28-06-2001 12:00 9.2 -- 9.4 2023-12-28 23:58:00
2 2001-07-14 12:00:00 Temperatura 9.4 del 14-07-2001 12:00, Menor que la Mínima 9.5 14-07-2001 12:00 9.4 -- 9.5 2023-12-28 23:58:00
2 2001-07-18 12:00:00 Temperatura 9.9 del 18-07-2001 12:00, Menor que la Mínima 10.1 18-07-2001 12:00 9.9 -- 10.1 2023-12-28 23:58:00
2 2001-08-02 12:00:00 Temperatura 9.3 del 02-08-2001 12:00, Menor que la Mínima 9.5 02-08-2001 12:00 9.3 -- 9.5 2023-12-28 23:58:00
2 2001-08-03 12:00:00 Temperatura 9.4 del 03-08-2001 12:00, Menor que la Mínima 9.5 03-08-2001 12:00 9.4 -- 9.5 2023-12-28 23:58:00
2 2001-08-10 12:00:00 Temperatura 6.5 del 10-08-2001 12:00, Menor que la Mínima 6.6 10-08-2001 12:00 6.5 -- 6.6 2023-12-28 23:58:00
2 2001-08-22 12:00:00 Temperatura 7.2 del 22-08-2001 12:00, Menor que la Mínima 7.3 22-08-2001 12:00 7.2 -- 7.3 2023-12-28 23:58:00
2 2001-09-23 12:00:00 Temperatura 11.8 del 23-09-2001 12:00, Menor que la Mínima 11.9 23-09-2001 12:00 11.8 -- 11.9 2023-12-28 23:58:00
2 2002-02-26 12:00:00 Temperatura 15.6 del 26-02-2002 12:00, Menor que la Mínima 15.7 26-02-2002 12:00 15.6 -- 15.7 2023-12-28 23:59:00
2 2002-05-17 12:00:00 Temperatura 8.1 del 17-05-2002 12:00, Menor que la Mínima 8.2 17-05-2002 12:00 8.1 -- 8.2 2023-12-28 23:59:00
2 2002-05-24 12:00:00 Temperatura 8.8 del 24-05-2002 12:00, Menor que la Mínima 9.1 24-05-2002 12:00 8.8 -- 9.1 2023-12-28 23:59:00
2 2002-05-26 12:00:00 Temperatura 12.2 del 26-05-2002 12:00, Menor que la Mínima 12.4 26-05-2002 12:00 12.2 -- 12.4 2023-12-28 23:59:00
2 2002-05-27 12:00:00 Temperatura 10.4 del 27-05-2002 12:00, Menor que la Mínima 10.6 27-05-2002 12:00 10.4 -- 10.6 2023-12-28 23:59:00
2 2002-06-05 12:00:00 Temperatura 8.0 del 05-06-2002 12:00, Menor que la Mínima 8.2 05-06-2002 12:00 8.0 -- 8.2 2023-12-28 23:59:00
2 2002-07-03 12:00:00 Temperatura -0.6 del 03-07-2002 12:00, Menor que la Mínima -0.5 03-07-2002 12:00 -0.6 -- -0.5 2023-12-28 23:59:00
2 2002-07-11 12:00:00 Temperatura 4.0 del 11-07-2002 12:00, Menor que la Mínima 4.3 11-07-2002 12:00 4.0 -- 4.3 2023-12-28 23:59:00
2 2002-07-18 12:00:00 Temperatura 8.7 del 18-07-2002 12:00, Menor que la Mínima 9.0 18-07-2002 12:00 8.7 -- 9.0 2023-12-28 23:59:00
2 2002-07-20 12:00:00 Temperatura 10.4 del 20-07-2002 12:00, Menor que la Mínima 10.5 20-07-2002 12:00 10.4 -- 10.5 2023-12-28 23:59:00
2 2002-08-03 12:00:00 Temperatura 9.6 del 03-08-2002 12:00, Menor que la Mínima 9.7 03-08-2002 12:00 9.6 -- 9.7 2023-12-29 00:00:00
2 2002-08-17 12:00:00 Temperatura 11.0 del 17-08-2002 12:00, Menor que la Mínima 11.2 17-08-2002 12:00 11.0 -- 11.2 2023-12-29 00:00:00
2 2002-08-26 12:00:00 Temperatura 11.6 del 26-08-2002 12:00, Menor que la Mínima 11.7 26-08-2002 12:00 11.6 -- 11.7 2023-12-29 00:00:00
2 2003-04-11 12:00:00 Temperatura 10.6 del 11-04-2003 12:00, Menor que la Mínima 10.7 11-04-2003 12:00 10.6 -- 10.7 2023-12-29 00:01:00
2 2003-05-22 12:00:00 Temperatura 11.5 del 22-05-2003 12:00, Menor que la Mínima 11.6 22-05-2003 12:00 11.5 -- 11.6 2023-12-29 00:01:00
2 2003-06-03 12:00:00 Temperatura 3.4 del 03-06-2003 12:00, Menor que la Mínima 3.5 03-06-2003 12:00 3.4 -- 3.5 2023-12-29 00:01:00
2 2003-07-03 12:00:00 Temperatura 8.9 del 03-07-2003 12:00, Menor que la Mínima 9.0 03-07-2003 12:00 8.9 -- 9.0 2023-12-29 00:01:00
2 2003-07-08 12:00:00 Temperatura 8.2 del 08-07-2003 12:00, Menor que la Mínima 8.4 08-07-2003 12:00 8.2 -- 8.4 2023-12-29 00:01:00
2 2003-08-09 12:00:00 Temperatura 3.5 del 09-08-2003 12:00, Menor que la Mínima 11.3 09-08-2003 12:00 3.5 -- 11.3 2023-12-29 00:01:00
2 2004-09-17 12:00:00 Temperatura 11.4 del 17-09-2004 12:00, Menor que la Mínima 11.5 17-09-2004 12:00 11.4 -- 11.5 2023-12-29 00:03:00
2 2005-09-22 12:00:00 Temperatura 8.3 del 22-09-2005 12:00, Menor que la Mínima 10.0 22-09-2005 12:00 8.3 -- 10.0 2023-12-29 00:04:00
2 2009-01-31 12:00:00 Temperatura 10.9 del 31-01-2009 10:00, Menor que la Mínima 11.0 31-01-2009 12:00 10.9 -- 11.0 2023-12-31 00:58:00
2 2009-02-01 12:00:00 Temperatura 11.1 del 01-02-2009 09:00, Menor que la Mínima 11.4 01-02-2009 12:00 11.1 -- 11.4 2023-12-31 00:58:00
2 2009-02-03 12:00:00 Temperatura 8.2 del 03-02-2009 10:00, Menor que la Mínima 8.4 03-02-2009 12:00 8.2 -- 8.4 2023-12-31 00:58:00
2 2009-02-06 12:00:00 Temperatura 9.7 del 06-02-2009 10:00, Menor que la Mínima 10.0 06-02-2009 12:00 9.7 -- 10.0 2023-12-31 00:58:00
2 2009-02-07 12:00:00 Temperatura 7.5 del 07-02-2009 10:00, Menor que la Mínima 7.6 07-02-2009 12:00 7.5 -- 7.6 2023-12-31 00:58:00
2 2009-02-08 12:00:00 Temperatura 8.9 del 08-02-2009 09:00, Menor que la Mínima 9.0 08-02-2009 12:00 8.9 -- 9.0 2023-12-31 00:58:00
2 2009-02-09 12:00:00 Temperatura 9.1 del 09-02-2009 09:00, Menor que la Mínima 9.2 09-02-2009 12:00 9.1 -- 9.2 2023-12-31 00:58:00
2 2009-02-18 12:00:00 Temperatura 13.0 del 18-02-2009 07:00, Menor que la Mínima 13.2 18-02-2009 12:00 13.0 -- 13.2 2023-12-31 00:58:00
2 2009-02-22 12:00:00 Temperatura 7.0 del 22-02-2009 10:00, Menor que la Mínima 7.2 22-02-2009 12:00 7.0 -- 7.2 2023-12-31 00:58:00
2 2009-02-28 12:00:00 Temperatura 13.4 del 28-02-2009 03:00, Menor que la Mínima 13.9 28-02-2009 12:00 13.4 -- 13.9 2023-12-31 00:58:00
2 2009-03-03 12:00:00 Temperatura 15.3 del 03-03-2009 01:00, Menor que la Mínima 15.4 03-03-2009 12:00 15.3 -- 15.4 2023-12-31 00:58:00
2 2009-03-08 12:00:00 Temperatura 8.4 del 08-03-2009 10:00, Menor que la Mínima 8.5 08-03-2009 12:00 8.4 -- 8.5 2023-12-31 00:58:00
2 2009-03-09 12:00:00 Temperatura 11.2 del 09-03-2009 05:00, Menor que la Mínima 11.4 09-03-2009 12:00 11.2 -- 11.4 2023-12-31 00:58:00
2 2009-03-10 12:00:00 Temperatura 15.3 del 10-03-2009 11:00, Menor que la Mínima 15.4 10-03-2009 12:00 15.3 -- 15.4 2023-12-31 00:58:00
2 2009-03-12 12:00:00 Temperatura 11.2 del 12-03-2009 07:00, Menor que la Mínima 11.3 12-03-2009 12:00 11.2 -- 11.3 2023-12-31 00:58:00
2 2009-03-15 12:00:00 Temperatura 9.4 del 15-03-2009 10:00, Menor que la Mínima 9.8 15-03-2009 12:00 9.4 -- 9.8 2023-12-31 00:58:00
2 2009-03-16 12:00:00 Temperatura 7.6 del 16-03-2009 09:00, Menor que la Mínima 7.8 16-03-2009 12:00 7.6 -- 7.8 2023-12-31 00:58:00
2 2009-03-17 12:00:00 Temperatura 8.8 del 17-03-2009 09:00, Menor que la Mínima 9.0 17-03-2009 12:00 8.8 -- 9.0 2023-12-31 00:58:00
2 2009-03-18 12:00:00 Temperatura 7.9 del 18-03-2009 10:00, Menor que la Mínima 8.2 18-03-2009 12:00 7.9 -- 8.2 2023-12-31 00:58:00
2 2009-03-20 12:00:00 Temperatura 8.8 del 20-03-2009 05:00, Menor que la Mínima 9.0 20-03-2009 12:00 8.8 -- 9.0 2023-12-31 00:58:00
2 2009-03-21 12:00:00 Temperatura 9.5 del 21-03-2009 03:00, Menor que la Mínima 9.6 21-03-2009 12:00 9.5 -- 9.6 2023-12-31 00:58:00
2 2009-03-24 12:00:00 Temperatura 12.3 del 24-03-2009 10:00, Menor que la Mínima 12.4 24-03-2009 12:00 12.3 -- 12.4 2023-12-31 00:58:00
2 2009-03-26 12:00:00 Temperatura 10.1 del 26-03-2009 10:00, Menor que la Mínima 10.2 26-03-2009 12:00 10.1 -- 10.2 2023-12-31 00:58:00
2 2009-03-29 12:00:00 Temperatura 10.5 del 29-03-2009 10:00, Menor que la Mínima 10.6 29-03-2009 12:00 10.5 -- 10.6 2023-12-31 00:58:00
2 2009-03-30 12:00:00 Temperatura 9.8 del 30-03-2009 08:00, Menor que la Mínima 10.0 30-03-2009 12:00 9.8 -- 10.0 2023-12-31 00:58:00
2 2009-03-31 12:00:00 Temperatura 10.0 del 31-03-2009 10:00, Menor que la Mínima 10.2 31-03-2009 12:00 10.0 -- 10.2 2023-12-31 00:58:00
2 2009-04-05 12:00:00 Temperatura 7.5 del 05-04-2009 10:00, Menor que la Mínima 7.7 05-04-2009 12:00 7.5 -- 7.7 2023-12-31 00:58:00
2 2009-04-07 12:00:00 Temperatura 10.3 del 07-04-2009 07:00, Menor que la Mínima 10.4 07-04-2009 12:00 10.3 -- 10.4 2023-12-31 00:58:00
2 2009-04-08 12:00:00 Temperatura 12.9 del 08-04-2009 09:00, Menor que la Mínima 13.0 08-04-2009 12:00 12.9 -- 13.0 2023-12-31 00:58:00
2 2009-04-10 12:00:00 Temperatura 10.8 del 10-04-2009 01:00, Menor que la Mínima 12.4 10-04-2009 12:00 10.8 -- 12.4 2023-12-31 00:58:00
2 2009-04-11 12:00:00 Temperatura 6.8 del 11-04-2009 10:00, Menor que la Mínima 7.0 11-04-2009 12:00 6.8 -- 7.0 2023-12-31 00:58:00
2 2009-04-13 12:00:00 Temperatura 6.8 del 13-04-2009 10:00, Menor que la Mínima 7.2 13-04-2009 12:00 6.8 -- 7.2 2023-12-31 00:58:00
2 2009-04-17 12:00:00 Temperatura 10.7 del 17-04-2009 10:00, Menor que la Mínima 10.8 17-04-2009 12:00 10.7 -- 10.8 2023-12-31 00:58:00
2 2009-04-19 12:00:00 Temperatura 6.3 del 19-04-2009 10:00, Menor que la Mínima 6.4 19-04-2009 12:00 6.3 -- 6.4 2023-12-31 00:58:00
2 2009-04-21 12:00:00 Temperatura 7.5 del 21-04-2009 10:00, Menor que la Mínima 7.6 21-04-2009 12:00 7.5 -- 7.6 2023-12-31 00:58:00
2 2009-04-22 12:00:00 Temperatura 7.3 del 22-04-2009 10:00, Menor que la Mínima 7.5 22-04-2009 12:00 7.3 -- 7.5 2023-12-31 00:58:00
2 2009-04-24 12:00:00 Temperatura 5.3 del 24-04-2009 09:00, Menor que la Mínima 5.6 24-04-2009 12:00 5.3 -- 5.6 2023-12-31 00:58:00
2 2009-04-30 12:00:00 Temperatura 9.9 del 30-04-2009 11:00, Menor que la Mínima 10.0 30-04-2009 12:00 9.9 -- 10.0 2023-12-31 00:58:00
2 2010-01-03 12:00:00 Temperatura 14.1 del 03-01-2010 02:00, Menor que la Mínima 14.6 03-01-2010 12:00 14.1 -- 14.6 2020-10-27 22:59:00
2 2010-02-25 12:00:00 Temperatura 12.9 del 25-02-2010 01:00, Menor que la Mínima 15.0 25-02-2010 12:00 12.9 -- 15.0 2020-10-27 23:04:00
2 2010-03-11 12:00:00 Temperatura 11.8 del 11-03-2010 02:00, Menor que la Mínima 14.0 11-03-2010 12:00 11.8 -- 14.0 2020-10-27 23:06:00
2 2010-03-16 12:00:00 Temperatura 12.7 del 16-03-2010 02:00, Menor que la Mínima 14.3 16-03-2010 12:00 12.7 -- 14.3 2020-10-27 23:07:00
2 2010-03-31 12:00:00 Temperatura 11.2 del 31-03-2010 02:00, Menor que la Mínima 12.7 31-03-2010 12:00 11.2 -- 12.7 2020-10-27 23:08:00
2 2010-04-05 12:00:00 Temperatura 9.6 del 05-04-2010 01:00, Menor que la Mínima 10.4 05-04-2010 12:00 9.6 -- 10.4 2020-10-27 23:09:00
2 2010-04-09 12:00:00 Temperatura 9.2 del 09-04-2010 02:00, Menor que la Mínima 12.3 09-04-2010 12:00 9.2 -- 12.3 2020-10-27 23:09:00
2 2010-05-12 12:00:00 Temperatura 7.2 del 12-05-2010 01:00, Menor que la Mínima 7.7 12-05-2010 12:00 7.2 -- 7.7 2020-10-27 23:13:00
2 2010-06-26 12:00:00 Temperatura 4.0 del 26-06-2010 03:00, Menor que la Mínima 5.3 26-06-2010 12:00 4.0 -- 5.3 2020-10-27 23:17:00
2 2010-07-11 12:00:00 Temperatura 6.2 del 11-07-2010 02:00, Menor que la Mínima 8.8 11-07-2010 12:00 6.2 -- 8.8 2020-10-27 23:19:00
2 2010-08-10 12:00:00 Temperatura 3.9 del 10-08-2010 02:00, Menor que la Mínima 7.1 10-08-2010 12:00 3.9 -- 7.1 2020-10-27 23:22:00
2 2010-08-28 12:00:00 Temperatura 7.8 del 28-08-2010 01:00, Menor que la Mínima 10.4 28-08-2010 12:00 7.8 -- 10.4 2020-10-27 23:24:00
2 2010-08-30 12:00:00 Temperatura 6.5 del 30-08-2010 04:00, Menor que la Mínima 7.7 30-08-2010 12:00 6.5 -- 7.7 2020-10-27 23:24:00
2 2010-09-06 12:00:00 Temperatura 6.2 del 06-09-2010 04:00, Menor que la Mínima 7.4 06-09-2010 12:00 6.2 -- 7.4 2020-10-27 23:25:00
2 2010-09-09 12:00:00 Temperatura 6.9 del 09-09-2010 03:00, Menor que la Mínima 8.0 09-09-2010 12:00 6.9 -- 8.0 2020-10-27 23:25:00
2 2010-09-24 12:00:00 Temperatura 7.8 del 24-09-2010 04:00, Menor que la Mínima 8.8 24-09-2010 12:00 7.8 -- 8.8 2020-10-27 23:26:00
2 2010-09-27 12:00:00 Temperatura 8.7 del 27-09-2010 01:00, Menor que la Mínima 8.8 27-09-2010 12:00 8.7 -- 8.8 2020-10-27 23:27:00
2 2010-10-10 12:00:00 Temperatura 9.7 del 10-10-2010 01:00, Menor que la Mínima 9.9 10-10-2010 12:00 9.7 -- 9.9 2020-10-27 23:28:00
2 2010-11-11 12:00:00 Temperatura 10.1 del 11-11-2010 03:00, Menor que la Mínima 11.3 11-11-2010 12:00 10.1 -- 11.3 2020-10-27 23:32:00
2 2010-11-13 12:00:00 Temperatura 9.4 del 13-11-2010 03:00, Menor que la Mínima 10.1 13-11-2010 12:00 9.4 -- 10.1 2020-10-27 23:32:00
2 2010-11-17 12:00:00 Temperatura 10.2 del 17-11-2010 03:00, Menor que la Mínima 10.8 17-11-2010 12:00 10.2 -- 10.8 2020-10-27 23:32:00
2 2010-11-18 12:00:00 Temperatura 10.7 del 18-11-2010 02:00, Menor que la Mínima 11.9 18-11-2010 12:00 10.7 -- 11.9 2020-10-27 23:32:00
2 2010-11-29 12:00:00 Temperatura 9.7 del 29-11-2010 03:00, Menor que la Mínima 10.2 29-11-2010 12:00 9.7 -- 10.2 2020-10-27 23:33:00
2 2010-12-06 12:00:00 Temperatura 11.4 del 06-12-2010 02:00, Menor que la Mínima 13.4 06-12-2010 12:00 11.4 -- 13.4 2020-10-27 23:34:00
2 2010-12-15 12:00:00 Temperatura 10.9 del 15-12-2010 03:00, Menor que la Mínima 11.3 15-12-2010 12:00 10.9 -- 11.3 2020-10-27 23:35:00
2 2010-12-17 12:00:00 Temperatura 9.9 del 17-12-2010 03:00, Menor que la Mínima 11.4 17-12-2010 12:00 9.9 -- 11.4 2020-10-27 23:35:00
2 2010-12-22 12:00:00 Temperatura 12.8 del 22-12-2010 02:00, Menor que la Mínima 13.2 22-12-2010 12:00 12.8 -- 13.2 2020-10-27 23:36:00
2 2011-01-03 12:00:00 Temperatura 9.6 del 03-01-2011 10:00, Menor que la Mínima 9.8 03-01-2011 12:00 9.6 -- 9.8 2012-07-25 19:05:00
2 2011-01-07 12:00:00 Temperatura 16.5 del 07-01-2011 10:00, Menor que la Mínima 16.6 07-01-2011 12:00 16.5 -- 16.6 2012-07-25 20:13:00
2 2011-01-09 12:00:00 Temperatura 10.2 del 09-01-2011 09:00, Menor que la Mínima 10.4 09-01-2011 12:00 10.2 -- 10.4 2012-07-25 21:07:00
2 2011-01-11 12:00:00 Temperatura 9.1 del 11-01-2011 08:00, Menor que la Mínima 9.2 11-01-2011 12:00 9.1 -- 9.2 2012-07-26 14:19:00
2 2011-01-12 12:00:00 Temperatura 9.2 del 12-01-2011 09:00, Menor que la Mínima 9.4 12-01-2011 12:00 9.2 -- 9.4 2012-07-26 14:25:00
2 2011-01-13 12:00:00 Temperatura 9.5 del 13-01-2011 09:00, Menor que la Mínima 9.8 13-01-2011 12:00 9.5 -- 9.8 2012-07-26 14:30:00
2 2011-01-15 12:00:00 Temperatura 9.3 del 15-01-2011 10:00, Menor que la Mínima 9.4 15-01-2011 12:00 9.3 -- 9.4 2012-07-27 15:25:00
2 2011-01-16 12:00:00 Temperatura 7.2 del 16-01-2011 09:00, Menor que la Mínima 7.3 16-01-2011 12:00 7.2 -- 7.3 2012-07-27 16:29:00
2 2011-01-17 12:00:00 Temperatura 8.5 del 17-01-2011 09:00, Menor que la Mínima 8.7 17-01-2011 12:00 8.5 -- 8.7 2012-07-27 16:36:00
2 2011-01-18 12:00:00 Temperatura 7.7 del 18-01-2011 10:00, Menor que la Mínima 7.9 18-01-2011 12:00 7.7 -- 7.9 2012-07-27 18:32:00
2 2011-01-19 12:00:00 Temperatura 8.6 del 19-01-2011 08:00, Menor que la Mínima 8.8 19-01-2011 12:00 8.6 -- 8.8 2012-07-27 18:40:00
2 2011-01-21 12:00:00 Temperatura 8.9 del 21-01-2011 10:00, Menor que la Mínima 9.0 21-01-2011 12:00 8.9 -- 9.0 2012-07-27 19:00:00
2 2011-01-22 12:00:00 Temperatura 9.3 del 22-01-2011 09:00, Menor que la Mínima 9.4 22-01-2011 12:00 9.3 -- 9.4 2012-07-27 19:16:00
2 2011-01-23 12:00:00 Temperatura 11.4 del 23-01-2011 08:00, Menor que la Mínima 11.6 23-01-2011 12:00 11.4 -- 11.6 2012-07-30 13:08:00
2 2011-01-24 12:00:00 Temperatura 16.0 del 24-01-2011 02:00, Menor que la Mínima 16.6 24-01-2011 12:00 16.0 -- 16.6 2012-07-30 13:15:00
2 2011-01-28 12:00:00 Temperatura 10.2 del 28-01-2011 10:00, Menor que la Mínima 10.4 28-01-2011 12:00 10.2 -- 10.4 2012-07-30 15:25:00
2 2011-01-30 12:00:00 Temperatura 9.6 del 30-01-2011 09:00, Menor que la Mínima 9.8 30-01-2011 12:00 9.6 -- 9.8 2012-07-30 16:23:00
2 2011-01-31 12:00:00 Temperatura 8.7 del 31-01-2011 10:00, Menor que la Mínima 9.0 31-01-2011 12:00 8.7 -- 9.0 2012-07-30 16:28:00
2 2011-02-01 12:00:00 Temperatura 9.9 del 01-02-2011 10:00, Menor que la Mínima 10.0 01-02-2011 12:00 9.9 -- 10.0 2012-07-31 16:25:00
2 2011-02-02 12:00:00 Temperatura 7.5 del 02-02-2011 10:00, Menor que la Mínima 7.6 02-02-2011 12:00 7.5 -- 7.6 2012-07-31 16:28:00
2 2011-02-06 12:00:00 Temperatura 13.2 del 06-02-2011 04:00, Menor que la Mínima 13.4 06-02-2011 12:00 13.2 -- 13.4 2012-07-31 16:41:00
2 2011-02-07 12:00:00 Temperatura 13.3 del 07-02-2011 03:00, Menor que la Mínima 16.0 07-02-2011 12:00 13.3 -- 16.0 2012-07-31 16:44:00
2 2011-02-09 12:00:00 Temperatura 10.4 del 09-02-2011 10:00, Menor que la Mínima 10.6 09-02-2011 12:00 10.4 -- 10.6 2012-07-31 19:06:00
2 2011-02-10 12:00:00 Temperatura 15.6 del 10-02-2011 04:00, Menor que la Mínima 16.2 10-02-2011 12:00 15.6 -- 16.2 2012-07-31 19:09:00
2 2011-02-11 12:00:00 Temperatura 16.5 del 11-02-2011 08:00, Menor que la Mínima 16.6 11-02-2011 12:00 16.5 -- 16.6 2012-07-31 19:13:00
2 2011-02-14 12:00:00 Temperatura 11.4 del 14-02-2011 10:00, Menor que la Mínima 11.6 14-02-2011 12:00 11.4 -- 11.6 2012-08-01 13:15:00
2 2011-02-15 12:00:00 Temperatura 12.9 del 15-02-2011 06:00, Menor que la Mínima 13.2 15-02-2011 12:00 12.9 -- 13.2 2012-08-01 13:17:00
2 2011-02-16 12:00:00 Temperatura 15.2 del 16-02-2011 01:00, Menor que la Mínima 15.6 16-02-2011 12:00 15.2 -- 15.6 2012-08-01 13:21:00
2 2011-02-18 12:00:00 Temperatura 11.0 del 18-02-2011 09:00, Menor que la Mínima 11.1 18-02-2011 12:00 11.0 -- 11.1 2012-08-01 14:22:00
2 2011-02-19 12:00:00 Temperatura 16.9 del 19-02-2011 10:00, Menor que la Mínima 17.0 19-02-2011 12:00 16.9 -- 17.0 2012-08-01 14:34:00
2 2011-02-20 12:00:00 Temperatura 15.2 del 20-02-2011 01:00, Menor que la Mínima 16.2 20-02-2011 12:00 15.2 -- 16.2 2012-08-01 14:45:00
2 2011-02-25 12:00:00 Temperatura 8.3 del 25-02-2011 10:00, Menor que la Mínima 8.4 25-02-2011 12:00 8.3 -- 8.4 2012-08-01 16:42:00
2 2011-02-26 12:00:00 Temperatura 9.8 del 26-02-2011 10:00, Menor que la Mínima 10.0 26-02-2011 12:00 9.8 -- 10.0 2012-08-01 16:45:00
2 2011-02-28 12:00:00 Temperatura 14.5 del 28-02-2011 01:00, Menor que la Mínima 15.4 28-02-2011 12:00 14.5 -- 15.4 2012-08-01 16:51:00
2 2011-03-03 12:00:00 Temperatura 11.3 del 03-03-2011 10:00, Menor que la Mínima 11.6 03-03-2011 12:00 11.3 -- 11.6 2012-07-30 18:44:00
2 2011-03-05 12:00:00 Temperatura 12.5 del 05-03-2011 05:00, Menor que la Mínima 12.6 05-03-2011 12:00 12.5 -- 12.6 2012-07-30 18:52:00
2 2011-03-08 12:00:00 Temperatura 12.9 del 08-03-2011 03:00, Menor que la Mínima 13.2 08-03-2011 12:00 12.9 -- 13.2 2012-07-30 20:06:00
2 2011-03-12 12:00:00 Temperatura 11.4 del 12-03-2011 09:00, Menor que la Mínima 11.8 12-03-2011 12:00 11.4 -- 11.8 2012-07-30 20:54:00
2 2011-03-13 12:00:00 Temperatura 7.8 del 13-03-2011 09:00, Menor que la Mínima 8.0 13-03-2011 12:00 7.8 -- 8.0 2012-07-30 20:59:00
2 2011-03-15 12:00:00 Temperatura 12.5 del 15-03-2011 09:00, Menor que la Mínima 12.6 15-03-2011 12:00 12.5 -- 12.6 2012-07-31 13:14:00
2 2011-03-16 12:00:00 Temperatura 6.4 del 16-03-2011 10:00, Menor que la Mínima 6.6 16-03-2011 12:00 6.4 -- 6.6 2012-07-31 13:56:00
2 2011-03-18 12:00:00 Temperatura 7.7 del 18-03-2011 09:00, Menor que la Mínima 8.0 18-03-2011 12:00 7.7 -- 8.0 2012-07-31 14:10:00
2 2011-03-19 12:00:00 Temperatura 7.0 del 19-03-2011 09:00, Menor que la Mínima 7.2 19-03-2011 12:00 7.0 -- 7.2 2012-07-31 14:14:00
2 2011-03-20 12:00:00 Temperatura 6.9 del 20-03-2011 09:00, Menor que la Mínima 7.0 20-03-2011 12:00 6.9 -- 7.0 2012-07-31 14:18:00
2 2011-03-21 12:00:00 Temperatura 11.8 del 21-03-2011 01:00, Menor que la Mínima 12.0 21-03-2011 12:00 11.8 -- 12.0 2012-07-31 14:40:00
2 2011-03-22 12:00:00 Temperatura 7.8 del 22-03-2011 09:00, Menor que la Mínima 8.0 22-03-2011 12:00 7.8 -- 8.0 2012-07-31 14:43:00
2 2011-03-25 12:00:00 Temperatura 6.7 del 25-03-2011 06:00, Menor que la Mínima 7.0 25-03-2011 12:00 6.7 -- 7.0 2012-07-31 15:33:00
2 2011-03-26 12:00:00 Temperatura 5.4 del 26-03-2011 10:00, Menor que la Mínima 5.6 26-03-2011 12:00 5.4 -- 5.6 2012-07-31 15:36:00
2 2011-03-27 12:00:00 Temperatura 4.6 del 27-03-2011 08:00, Menor que la Mínima 5.4 27-03-2011 12:00 4.6 -- 5.4 2012-07-31 15:39:00
2 2011-03-28 12:00:00 Temperatura 5.0 del 28-03-2011 10:00, Menor que la Mínima 6.0 28-03-2011 12:00 5.0 -- 6.0 2012-07-31 15:46:00
2 2011-04-01 12:00:00 Temperatura 7.6 del 01-04-2011 10:00, Menor que la Mínima 8.4 01-04-2011 12:00 7.6 -- 8.4 2012-07-30 18:29:00
2 2011-04-02 12:00:00 Temperatura 5.3 del 02-04-2011 10:00, Menor que la Mínima 5.4 02-04-2011 12:00 5.3 -- 5.4 2012-07-30 18:39:00
2 2011-04-03 12:00:00 Temperatura 4.8 del 03-04-2011 10:00, Menor que la Mínima 5.0 03-04-2011 12:00 4.8 -- 5.0 2012-07-30 18:59:00
2 2011-04-05 12:00:00 Temperatura 5.9 del 05-04-2011 10:00, Menor que la Mínima 6.0 05-04-2011 12:00 5.9 -- 6.0 2012-07-30 19:15:00
2 2011-04-14 12:00:00 Temperatura 9.1 del 14-04-2011 08:00, Menor que la Mínima 9.2 14-04-2011 12:00 9.1 -- 9.2 2012-07-30 20:59:00
2 2011-04-17 12:00:00 Temperatura 2.9 del 17-04-2011 09:00, Menor que la Mínima 3.0 17-04-2011 12:00 2.9 -- 3.0 2012-07-30 21:15:00
2 2011-04-18 12:00:00 Temperatura 2.2 del 18-04-2011 10:00, Menor que la Mínima 3.4 18-04-2011 12:00 2.2 -- 3.4 2012-07-31 13:02:00
2 2011-04-21 12:00:00 Temperatura 3.8 del 21-04-2011 09:00, Menor que la Mínima 4.0 21-04-2011 12:00 3.8 -- 4.0 2012-07-31 13:18:00
2 2011-04-22 12:00:00 Temperatura 8.4 del 22-04-2011 01:00, Menor que la Mínima 8.8 22-04-2011 12:00 8.4 -- 8.8 2012-07-31 13:22:00
2 2011-04-24 12:00:00 Temperatura 5.1 del 24-04-2011 10:00, Menor que la Mínima 5.2 24-04-2011 12:00 5.1 -- 5.2 2012-07-31 14:15:00
2 2011-04-26 12:00:00 Temperatura 6.8 del 26-04-2011 05:00, Menor que la Mínima 7.0 26-04-2011 12:00 6.8 -- 7.0 2012-07-31 14:25:00
2 2011-04-27 12:00:00 Temperatura 11.5 del 27-04-2011 03:00, Menor que la Mínima 12.8 27-04-2011 12:00 11.5 -- 12.8 2012-07-31 14:29:00
2 2011-05-06 12:00:00 Temperatura 9.9 del 06-05-2011 04:00, Menor que la Mínima 10.0 06-05-2011 12:00 9.9 -- 10.0 2012-07-31 15:34:00
2 2011-05-08 12:00:00 Temperatura 2.0 del 08-05-2011 10:00, Menor que la Mínima 2.2 08-05-2011 12:00 2.0 -- 2.2 2012-07-31 16:19:00
2 2011-05-09 12:00:00 Temperatura 0.2 del 09-05-2011 10:00, Menor que la Mínima 0.5 09-05-2011 12:00 0.2 -- 0.5 2012-07-31 16:22:00
2 2011-05-12 12:00:00 Temperatura 5.5 del 12-05-2011 07:00, Menor que la Mínima 5.6 12-05-2011 12:00 5.5 -- 5.6 2012-07-31 16:29:00
2 2011-05-13 12:00:00 Temperatura 8.1 del 13-05-2011 01:00, Menor que la Mínima 8.2 13-05-2011 12:00 8.1 -- 8.2 2012-07-31 18:54:00
2 2011-05-15 12:00:00 Temperatura 8.2 del 15-05-2011 10:00, Menor que la Mínima 8.4 15-05-2011 12:00 8.2 -- 8.4 2012-07-31 19:01:00
2 2011-05-16 12:00:00 Temperatura 6.5 del 16-05-2011 09:00, Menor que la Mínima 6.8 16-05-2011 12:00 6.5 -- 6.8 2012-07-31 19:04:00
2 2011-05-21 12:00:00 Temperatura 4.0 del 21-05-2011 06:00, Menor que la Mínima 4.2 21-05-2011 12:00 4.0 -- 4.2 2012-07-31 19:23:00
2 2011-05-22 12:00:00 Temperatura 6.7 del 22-05-2011 10:00, Menor que la Mínima 6.8 22-05-2011 12:00 6.7 -- 6.8 2012-07-31 19:26:00
2 2011-05-23 12:00:00 Temperatura 2.9 del 23-05-2011 09:00, Menor que la Mínima 3.0 23-05-2011 12:00 2.9 -- 3.0 2012-07-31 19:29:00
2 2011-05-24 12:00:00 Temperatura 9.2 del 24-05-2011 11:00, Menor que la Mínima 9.4 24-05-2011 12:00 9.2 -- 9.4 2012-07-31 19:31:00
2 2011-05-31 12:00:00 Temperatura -2.0 del 31-05-2011 10:00, Menor que la Mínima -1.8 31-05-2011 12:00 -2.0 -- -1.8 2012-08-01 13:08:00
2 2011-06-01 12:00:00 Temperatura 3.2 del 01-06-2011 01:00, Menor que la Mínima 4.7 01-06-2011 12:00 3.2 -- 4.7 2020-10-27 23:52:00
2 2011-06-15 12:00:00 Temperatura 6.8 del 15-06-2011 02:00, Menor que la Mínima 7.6 15-06-2011 12:00 6.8 -- 7.6 2020-10-27 23:53:00
2 2011-06-19 12:00:00 Temperatura 9.0 del 19-06-2011 02:00, Menor que la Mínima 9.1 19-06-2011 12:00 9.0 -- 9.1 2020-10-27 23:54:00
2 2011-06-27 12:00:00 Temperatura 2.7 del 27-06-2011 02:00, Menor que la Mínima 4.7 27-06-2011 12:00 2.7 -- 4.7 2020-10-27 23:55:00
2 2011-06-28 12:00:00 Temperatura 9.1 del 28-06-2011 03:00, Menor que la Mínima 9.3 28-06-2011 12:00 9.1 -- 9.3 2020-10-27 23:55:00
2 2011-08-02 12:00:00 Temperatura 5.5 del 02-08-2011 01:00, Menor que la Mínima 6.2 02-08-2011 12:00 5.5 -- 6.2 2020-10-27 23:59:00
2 2011-08-08 12:00:00 Temperatura 8.8 del 08-08-2011 02:00, Menor que la Mínima 8.9 08-08-2011 12:00 8.8 -- 8.9 2020-10-27 23:59:00
2 2011-08-22 12:00:00 Temperatura 3.1 del 22-08-2011 02:00, Menor que la Mínima 5.5 22-08-2011 12:00 3.1 -- 5.5 2020-10-28 00:00:00
2 2011-09-20 12:00:00 Temperatura 7.4 del 20-09-2011 02:00, Menor que la Mínima 8.5 20-09-2011 12:00 7.4 -- 8.5 2020-10-28 00:03:00
2 2011-10-10 12:00:00 Temperatura 6.1 del 10-10-2011 03:00, Menor que la Mínima 7.4 10-10-2011 12:00 6.1 -- 7.4 2020-10-28 00:05:00
2 2011-10-24 12:00:00 Temperatura 10.1 del 24-10-2011 02:00, Menor que la Mínima 11.5 24-10-2011 12:00 10.1 -- 11.5 2020-10-28 00:07:00
2 2011-10-31 12:00:00 Temperatura 9.2 del 31-10-2011 03:00, Menor que la Mínima 10.3 31-10-2011 12:00 9.2 -- 10.3 2020-10-28 00:07:00
2 2011-11-12 12:00:00 Temperatura 10.2 del 12-11-2011 03:00, Menor que la Mínima 11.8 12-11-2011 12:00 10.2 -- 11.8 2020-10-28 00:09:00
2 2011-12-02 12:00:00 Temperatura 13.4 del 02-12-2011 12:00, Menor que la Mínima 13.8 02-12-2011 12:00 13.4 -- 13.8 2012-08-01 13:15:00
2 2011-12-03 12:00:00 Temperatura 6.8 del 03-12-2011 07:00, Menor que la Mínima 7.0 03-12-2011 12:00 6.8 -- 7.0 2012-08-01 13:18:00
2 2011-12-05 12:00:00 Temperatura 7.8 del 05-12-2011 10:00, Menor que la Mínima 8.0 05-12-2011 12:00 7.8 -- 8.0 2012-08-01 13:24:00
2 2011-12-07 12:00:00 Temperatura 14.9 del 07-12-2011 02:00, Menor que la Mínima 15.0 07-12-2011 12:00 14.9 -- 15.0 2012-08-01 14:09:00
2 2011-12-09 12:00:00 Temperatura 14.4 del 09-12-2011 03:00, Menor que la Mínima 14.5 09-12-2011 12:00 14.4 -- 14.5 2012-08-01 14:16:00
2 2011-12-10 12:00:00 Temperatura 13.4 del 10-12-2011 03:00, Menor que la Mínima 13.6 10-12-2011 12:00 13.4 -- 13.6 2012-08-01 14:19:00
2 2011-12-11 12:00:00 Temperatura 9.2 del 11-12-2011 10:00, Menor que la Mínima 9.3 11-12-2011 12:00 9.2 -- 9.3 2012-08-01 14:23:00
2 2011-12-12 12:00:00 Temperatura 8.4 del 12-12-2011 10:00, Menor que la Mínima 8.6 12-12-2011 12:00 8.4 -- 8.6 2012-08-01 14:26:00
2 2011-12-13 12:00:00 Temperatura 7.9 del 13-12-2011 10:00, Menor que la Mínima 8.0 13-12-2011 12:00 7.9 -- 8.0 2012-08-01 14:28:00
2 2011-12-16 12:00:00 Temperatura 15.3 del 16-12-2011 08:00, Menor que la Mínima 15.4 16-12-2011 12:00 15.3 -- 15.4 2012-08-01 14:36:00
2 2011-12-18 12:00:00 Temperatura 14.6 del 18-12-2011 04:00, Menor que la Mínima 14.8 18-12-2011 12:00 14.6 -- 14.8 2012-08-01 15:26:00
2 2011-12-22 12:00:00 Temperatura 7.6 del 22-12-2011 10:00, Menor que la Mínima 7.8 22-12-2011 12:00 7.6 -- 7.8 2012-08-01 15:48:00
2 2011-12-24 12:00:00 Temperatura 6.8 del 24-12-2011 10:00, Menor que la Mínima 7.0 24-12-2011 12:00 6.8 -- 7.0 2012-08-01 15:54:00
2 2011-12-25 12:00:00 Temperatura 7.6 del 25-12-2011 10:00, Menor que la Mínima 7.8 25-12-2011 12:00 7.6 -- 7.8 2012-08-01 16:20:00
2 2011-12-28 12:00:00 Temperatura 14.2 del 28-12-2011 03:00, Menor que la Mínima 14.4 28-12-2011 12:00 14.2 -- 14.4 2012-08-01 16:38:00
2 2011-12-29 12:00:00 Temperatura 15.7 del 29-12-2011 02:00, Menor que la Mínima 15.8 29-12-2011 12:00 15.7 -- 15.8 2012-08-01 16:49:00
2 2011-12-30 12:00:00 Temperatura 12.3 del 30-12-2011 06:00, Menor que la Mínima 12.4 30-12-2011 12:00 12.3 -- 12.4 2012-08-01 16:54:00
2 2011-12-31 12:00:00 Temperatura 10.0 del 31-12-2011 09:00, Menor que la Mínima 10.2 31-12-2011 12:00 10.0 -- 10.2 2012-08-01 16:57:00
2 2012-01-19 12:00:00 Temperatura 15.8 del 19-01-2012 03:00, Menor que la Mínima 16.4 19-01-2012 12:00 15.8 -- 16.4 2020-10-28 00:16:00
2 2012-01-21 12:00:00 Temperatura 15.3 del 21-01-2012 02:00, Menor que la Mínima 16.7 21-01-2012 12:00 15.3 -- 16.7 2020-10-28 00:16:00
2 2012-02-24 12:00:00 Temperatura 14.3 del 24-02-2012 02:00, Menor que la Mínima 16.3 24-02-2012 12:00 14.3 -- 16.3 2020-10-28 00:19:00
2 2012-03-24 12:00:00 Temperatura 11.7 del 24-03-2012 02:00, Menor que la Mínima 13.6 24-03-2012 12:00 11.7 -- 13.6 2020-10-28 00:22:00
2 2012-03-31 12:00:00 Temperatura 11.0 del 31-03-2012 03:00, Menor que la Mínima 12.4 31-03-2012 12:00 11.0 -- 12.4 2020-10-28 00:23:00
2 2012-04-01 12:00:00 Temperatura 10.4 del 01-04-2012 02:00, Menor que la Mínima 11.0 01-04-2012 12:00 10.4 -- 11.0 2020-10-28 00:23:00
2 2012-05-08 12:00:00 Temperatura 10.4 del 08-05-2012 02:00, Menor que la Mínima 11.2 08-05-2012 12:00 10.4 -- 11.2 2020-10-28 00:27:00
2 2012-05-27 12:00:00 Temperatura 13.6 del 27-05-2012 01:00, Menor que la Mínima 14.9 27-05-2012 12:00 13.6 -- 14.9 2020-10-28 00:29:00
2 2012-05-31 12:00:00 Temperatura 9.8 del 31-05-2012 02:00, Menor que la Mínima 10.2 31-05-2012 12:00 9.8 -- 10.2 2020-10-28 00:29:00
2 2012-06-12 12:00:00 Temperatura 10.9 del 12-06-2012 01:00, Menor que la Mínima 11.8 12-06-2012 12:00 10.9 -- 11.8 2020-10-28 00:30:00
2 2012-06-13 12:00:00 Temperatura 12.2 del 13-06-2012 02:00, Menor que la Mínima 12.5 13-06-2012 12:00 12.2 -- 12.5 2020-10-28 00:30:00
2 2012-08-02 12:00:00 Temperatura 7.8 del 02-08-2012 02:00, Menor que la Mínima 8.1 02-08-2012 12:00 7.8 -- 8.1 2020-10-28 00:36:00
2 2012-08-03 12:00:00 Temperatura 5.1 del 03-08-2012 02:00, Menor que la Mínima 6.6 03-08-2012 12:00 5.1 -- 6.6 2020-10-28 00:36:00
2 2012-08-13 12:00:00 Temperatura 3.5 del 13-08-2012 02:00, Menor que la Mínima 3.7 13-08-2012 12:00 3.5 -- 3.7 2020-10-28 00:37:00
2 2012-08-14 12:00:00 Temperatura 6.1 del 14-08-2012 03:00, Menor que la Mínima 6.9 14-08-2012 12:00 6.1 -- 6.9 2020-10-28 00:37:00
2 2012-10-05 12:00:00 Temperatura 9.6 del 05-10-2012 03:00, Menor que la Mínima 9.7 05-10-2012 12:00 9.6 -- 9.7 2020-10-28 00:42:00
2 2012-10-11 12:00:00 Temperatura 11.1 del 11-10-2012 01:00, Menor que la Mínima 11.4 11-10-2012 12:00 11.1 -- 11.4 2020-10-28 00:42:00
2 2012-12-31 12:00:00 Temperatura 13.7 del 31-12-2012 02:00, Menor que la Mínima 15.0 31-12-2012 12:00 13.7 -- 15.0 2020-10-28 00:50:00
2 2013-01-03 12:00:00 Temperatura 12.2 del 03-01-2013 02:00, Menor que la Mínima 12.3 03-01-2013 12:00 12.2 -- 12.3 2014-10-07 13:21:00
2 2013-01-04 12:00:00 Temperatura 14.1 del 04-01-2013 09:00, Menor que la Mínima 14.4 04-01-2013 12:00 14.1 -- 14.4 2014-10-07 13:21:00
2 2013-01-07 12:00:00 Temperatura 9.7 del 07-01-2013 09:00, Menor que la Mínima 9.8 07-01-2013 12:00 9.7 -- 9.8 2014-10-07 13:21:00
2 2013-01-11 12:00:00 Temperatura 15.9 del 11-01-2013 02:00, Menor que la Mínima 16.0 11-01-2013 12:00 15.9 -- 16.0 2014-10-07 14:07:00
2 2013-01-12 12:00:00 Temperatura 14.1 del 12-01-2013 02:00, Menor que la Mínima 14.6 12-01-2013 12:00 14.1 -- 14.6 2014-10-07 14:07:00
2 2013-01-14 12:00:00 Temperatura 16.1 del 14-01-2013 02:00, Menor que la Mínima 16.2 14-01-2013 12:00 16.1 -- 16.2 2014-10-07 14:07:00
2 2013-01-18 12:00:00 Temperatura 15.5 del 18-01-2013 03:00, Menor que la Mínima 15.6 18-01-2013 12:00 15.5 -- 15.6 2014-10-07 14:07:00
2 2013-01-19 12:00:00 Temperatura 14.0 del 19-01-2013 04:00, Menor que la Mínima 14.2 19-01-2013 12:00 14.0 -- 14.2 2014-10-07 14:07:00
2 2013-01-20 12:00:00 Temperatura 14.2 del 20-01-2013 03:00, Menor que la Mínima 14.4 20-01-2013 12:00 14.2 -- 14.4 2014-10-07 14:07:00
2 2013-01-22 12:00:00 Temperatura 16.2 del 22-01-2013 03:00, Menor que la Mínima 16.4 22-01-2013 12:00 16.2 -- 16.4 2014-10-07 14:08:00
2 2013-01-27 12:00:00 Temperatura 12.0 del 27-01-2013 06:00, Menor que la Mínima 12.2 27-01-2013 12:00 12.0 -- 12.2 2014-10-07 14:08:00
2 2013-01-28 12:00:00 Temperatura 15.5 del 28-01-2013 10:00, Menor que la Mínima 15.6 28-01-2013 12:00 15.5 -- 15.6 2014-10-07 14:08:00
2 2013-01-30 12:00:00 Temperatura 11.0 del 30-01-2013 08:00, Menor que la Mínima 11.2 30-01-2013 12:00 11.0 -- 11.2 2014-10-07 14:08:00
2 2013-01-31 12:00:00 Temperatura 11.0 del 31-01-2013 08:00, Menor que la Mínima 11.2 31-01-2013 12:00 11.0 -- 11.2 2014-10-07 14:08:00
2 2013-03-03 12:00:00 Temperatura 6.7 del 03-03-2013 09:00, Menor que la Mínima 6.8 03-03-2013 12:00 6.7 -- 6.8 2014-10-07 16:01:00
2 2013-03-04 12:00:00 Temperatura 10.0 del 04-03-2013 05:00, Menor que la Mínima 10.2 04-03-2013 12:00 10.0 -- 10.2 2014-10-07 16:01:00
2 2013-03-05 12:00:00 Temperatura 9.9 del 05-03-2013 05:00, Menor que la Mínima 10.0 05-03-2013 12:00 9.9 -- 10.0 2014-10-07 16:01:00
2 2013-03-08 12:00:00 Temperatura 12.6 del 08-03-2013 10:00, Menor que la Mínima 12.7 08-03-2013 12:00 12.6 -- 12.7 2014-10-07 16:01:00
2 2013-03-09 12:00:00 Temperatura 7.4 del 09-03-2013 10:00, Menor que la Mínima 7.8 09-03-2013 12:00 7.4 -- 7.8 2014-10-07 16:01:00
2 2013-03-11 12:00:00 Temperatura 6.8 del 11-03-2013 09:00, Menor que la Mínima 7.2 11-03-2013 12:00 6.8 -- 7.2 2014-10-07 16:01:00
2 2013-03-13 12:00:00 Temperatura 7.4 del 13-03-2013 09:00, Menor que la Mínima 7.5 13-03-2013 12:00 7.4 -- 7.5 2014-10-07 16:02:00
2 2013-03-15 12:00:00 Temperatura 4.6 del 15-03-2013 08:00, Menor que la Mínima 4.8 15-03-2013 12:00 4.6 -- 4.8 2014-10-07 16:02:00
2 2013-03-17 12:00:00 Temperatura 8.5 del 17-03-2013 07:00, Menor que la Mínima 9.0 17-03-2013 12:00 8.5 -- 9.0 2014-10-07 16:02:00
2 2013-03-18 12:00:00 Temperatura 7.1 del 18-03-2013 08:00, Menor que la Mínima 7.2 18-03-2013 12:00 7.1 -- 7.2 2014-10-07 16:02:00
2 2013-03-20 12:00:00 Temperatura 8.0 del 20-03-2013 06:00, Menor que la Mínima 8.2 20-03-2013 12:00 8.0 -- 8.2 2014-10-07 16:02:00
2 2013-03-21 12:00:00 Temperatura 6.4 del 21-03-2013 08:00, Menor que la Mínima 6.5 21-03-2013 12:00 6.4 -- 6.5 2014-10-07 16:02:00
2 2013-03-22 12:00:00 Temperatura 7.0 del 22-03-2013 09:00, Menor que la Mínima 7.2 22-03-2013 12:00 7.0 -- 7.2 2014-10-07 16:02:00
2 2013-03-26 12:00:00 Temperatura 7.0 del 26-03-2013 09:00, Menor que la Mínima 7.4 26-03-2013 12:00 7.0 -- 7.4 2014-10-07 16:03:00
2 2013-03-28 12:00:00 Temperatura 10.6 del 28-03-2013 01:00, Menor que la Mínima 10.8 28-03-2013 12:00 10.6 -- 10.8 2014-10-07 16:03:00
2 2013-03-30 12:00:00 Temperatura 9.1 del 30-03-2013 02:00, Menor que la Mínima 10.0 30-03-2013 12:00 9.1 -- 10.0 2014-10-07 16:03:00
2 2013-03-31 12:00:00 Temperatura 12.9 del 31-03-2013 05:00, Menor que la Mínima 13.0 31-03-2013 12:00 12.9 -- 13.0 2014-10-07 16:04:00
2 2013-04-01 12:00:00 Temperatura 12.6 del 01-04-2013 05:00, Menor que la Mínima 12.8 01-04-2013 12:00 12.6 -- 12.8 2014-10-07 18:04:00
2 2013-04-02 12:00:00 Temperatura 5.7 del 02-04-2013 09:00, Menor que la Mínima 5.8 02-04-2013 12:00 5.7 -- 5.8 2014-10-07 18:04:00
2 2013-04-03 12:00:00 Temperatura 6.5 del 03-04-2013 07:00, Menor que la Mínima 6.8 03-04-2013 12:00 6.5 -- 6.8 2014-10-07 18:05:00
2 2013-04-04 12:00:00 Temperatura 14.1 del 04-04-2013 10:00, Menor que la Mínima 14.2 04-04-2013 12:00 14.1 -- 14.2 2014-10-07 18:05:00
2 2013-04-08 12:00:00 Temperatura 5.5 del 08-04-2013 09:00, Menor que la Mínima 6.0 08-04-2013 12:00 5.5 -- 6.0 2014-10-07 18:05:00
2 2013-04-12 12:00:00 Temperatura 4.6 del 12-04-2013 10:00, Menor que la Mínima 5.0 12-04-2013 12:00 4.6 -- 5.0 2014-10-07 18:05:00
2 2013-04-14 12:00:00 Temperatura 5.1 del 14-04-2013 10:00, Menor que la Mínima 5.4 14-04-2013 12:00 5.1 -- 5.4 2014-10-07 18:06:00
2 2013-04-18 12:00:00 Temperatura 9.9 del 18-04-2013 11:00, Menor que la Mínima 10.0 18-04-2013 12:00 9.9 -- 10.0 2014-10-07 18:06:00
2 2013-04-22 12:00:00 Temperatura 5.5 del 22-04-2013 09:00, Menor que la Mínima 5.6 22-04-2013 12:00 5.5 -- 5.6 2014-10-07 18:09:00
2 2013-04-28 12:00:00 Temperatura 5.8 del 28-04-2013 10:00, Menor que la Mínima 6.0 28-04-2013 12:00 5.8 -- 6.0 2014-10-07 18:07:00
2 2013-05-02 12:00:00 Temperatura 8.3 del 02-05-2013 05:00, Menor que la Mínima 8.6 02-05-2013 12:00 8.3 -- 8.6 2014-10-07 19:23:00
2 2013-05-03 12:00:00 Temperatura 13.5 del 03-05-2013 10:00, Menor que la Mínima 13.6 03-05-2013 12:00 13.5 -- 13.6 2014-10-07 19:23:00
2 2013-05-05 12:00:00 Temperatura 5.1 del 05-05-2013 10:00, Menor que la Mínima 5.2 05-05-2013 12:00 5.1 -- 5.2 2014-10-07 19:23:00
2 2013-05-07 12:00:00 Temperatura 3.3 del 07-05-2013 10:00, Menor que la Mínima 3.4 07-05-2013 12:00 3.3 -- 3.4 2014-10-07 19:23:00
2 2013-05-10 12:00:00 Temperatura 10.8 del 10-05-2013 11:00, Menor que la Mínima 11.0 10-05-2013 12:00 10.8 -- 11.0 2014-10-07 19:23:00
2 2013-05-12 12:00:00 Temperatura 5.6 del 12-05-2013 08:00, Menor que la Mínima 6.0 12-05-2013 12:00 5.6 -- 6.0 2014-10-07 19:23:00
2 2013-05-13 12:00:00 Temperatura 8.4 del 13-05-2013 08:00, Menor que la Mínima 8.8 13-05-2013 12:00 8.4 -- 8.8 2014-10-07 19:24:00
2 2013-05-15 12:00:00 Temperatura 0.6 del 15-05-2013 10:00, Menor que la Mínima 5.8 15-05-2013 12:00 0.6 -- 5.8 2014-10-07 19:29:00
2 2013-05-17 12:00:00 Temperatura 3.3 del 17-05-2013 02:00, Menor que la Mínima 3.5 17-05-2013 12:00 3.3 -- 3.5 2014-10-07 19:24:00
2 2013-05-18 12:00:00 Temperatura 9.9 del 18-05-2013 01:00, Menor que la Mínima 10.0 18-05-2013 12:00 9.9 -- 10.0 2014-10-07 19:24:00
2 2013-05-20 12:00:00 Temperatura 5.0 del 20-05-2013 10:00, Menor que la Mínima 6.0 20-05-2013 12:00 5.0 -- 6.0 2014-10-07 19:24:00
2 2013-05-22 12:00:00 Temperatura 6.3 del 22-05-2013 03:00, Menor que la Mínima 6.4 22-05-2013 12:00 6.3 -- 6.4 2014-10-07 19:24:00
2 2013-05-30 12:00:00 Temperatura 4.3 del 30-05-2013 07:00, Menor que la Mínima 4.4 30-05-2013 12:00 4.3 -- 4.4 2014-10-07 19:25:00
2 2013-05-31 12:00:00 Temperatura 8.1 del 31-05-2013 02:00, Menor que la Mínima 8.4 31-05-2013 12:00 8.1 -- 8.4 2014-10-07 19:25:00
2 2013-06-10 12:00:00 Temperatura 1.3 del 10-06-2013 10:00, Menor que la Mínima 1.4 10-06-2013 12:00 1.3 -- 1.4 2014-10-07 20:29:00
2 2013-06-15 12:00:00 Temperatura 10.1 del 15-06-2013 09:00, Menor que la Mínima 10.2 15-06-2013 12:00 10.1 -- 10.2 2014-10-07 20:29:00
2 2013-06-17 12:00:00 Temperatura 3.9 del 17-06-2013 09:00, Menor que la Mínima 4.0 17-06-2013 12:00 3.9 -- 4.0 2014-10-07 20:29:00
2 2013-06-18 12:00:00 Temperatura 0.5 del 18-06-2013 11:00, Menor que la Mínima 4.8 18-06-2013 12:00 0.5 -- 4.8 2014-10-07 20:32:00
2 2013-06-20 12:00:00 Temperatura -1.6 del 20-06-2013 11:00, Menor que la Mínima -1.5 20-06-2013 12:00 -1.6 -- -1.5 2014-10-07 20:29:00
2 2013-06-23 12:00:00 Temperatura 4.8 del 23-06-2013 06:00, Menor que la Mínima 5.0 23-06-2013 12:00 4.8 -- 5.0 2014-10-07 20:30:00
2 2013-07-01 12:00:00 Temperatura 0.6 del 01-07-2013 08:00, Menor que la Mínima 3.0 01-07-2013 12:00 0.6 -- 3.0 2014-10-08 14:14:00
2 2013-07-03 12:00:00 Temperatura 5.0 del 03-07-2013 05:00, Menor que la Mínima 5.4 03-07-2013 12:00 5.0 -- 5.4 2014-10-08 14:14:00
2 2013-07-07 12:00:00 Temperatura 2.5 del 07-07-2013 09:00, Menor que la Mínima 2.6 07-07-2013 12:00 2.5 -- 2.6 2014-10-08 14:14:00
2 2013-07-11 12:00:00 Temperatura 5.3 del 11-07-2013 10:00, Menor que la Mínima 5.4 11-07-2013 12:00 5.3 -- 5.4 2014-10-08 14:14:00
2 2013-07-12 12:00:00 Temperatura 2.0 del 12-07-2013 11:00, Menor que la Mínima 2.5 12-07-2013 12:00 2.0 -- 2.5 2014-10-08 14:14:00
2 2013-07-14 12:00:00 Temperatura 2.9 del 14-07-2013 10:00, Menor que la Mínima 3.0 14-07-2013 12:00 2.9 -- 3.0 2014-10-08 14:14:00
2 2013-07-17 12:00:00 Temperatura 2.8 del 17-07-2013 07:00, Menor que la Mínima 3.0 17-07-2013 12:00 2.8 -- 3.0 2014-10-08 14:14:00
2 2013-07-18 12:00:00 Temperatura 4.5 del 18-07-2013 02:00, Menor que la Mínima 4.6 18-07-2013 12:00 4.5 -- 4.6 2014-10-08 14:14:00
2 2013-07-20 12:00:00 Temperatura 0.7 del 20-07-2013 10:00, Menor que la Mínima 0.8 20-07-2013 12:00 0.7 -- 0.8 2014-10-08 14:23:00
2 2013-07-24 12:00:00 Temperatura -0.7 del 24-07-2013 10:00, Menor que la Mínima -0.4 24-07-2013 12:00 -0.7 -- -0.4 2014-10-08 14:14:00
2 2013-07-31 12:00:00 Temperatura 0.3 del 31-07-2013 09:00, Menor que la Mínima 2.0 31-07-2013 12:00 0.3 -- 2.0 2014-10-08 14:14:00
2 2013-09-01 12:00:00 Temperatura 6.3 del 01-09-2013 05:00, Menor que la Mínima 6.5 01-09-2013 12:00 6.3 -- 6.5 2014-10-08 15:52:00
2 2013-09-02 12:00:00 Temperatura 6.4 del 02-09-2013 06:00, Menor que la Mínima 6.6 02-09-2013 12:00 6.4 -- 6.6 2014-10-08 15:52:00
2 2013-09-05 12:00:00 Temperatura 8.1 del 05-09-2013 10:00, Menor que la Mínima 8.2 05-09-2013 12:00 8.1 -- 8.2 2014-10-08 15:52:00
2 2013-09-09 12:00:00 Temperatura 10.3 del 09-09-2013 10:00, Menor que la Mínima 10.6 09-09-2013 12:00 10.3 -- 10.6 2014-10-08 15:52:00
2 2013-09-16 12:00:00 Temperatura 3.0 del 16-09-2013 09:00, Menor que la Mínima 3.4 16-09-2013 12:00 3.0 -- 3.4 2014-10-08 15:52:00
2 2013-09-18 12:00:00 Temperatura -1.1 del 18-09-2013 08:00, Menor que la Mínima -1.0 18-09-2013 12:00 -1.1 -- -1.0 2014-10-08 15:52:00
2 2013-09-20 12:00:00 Temperatura 6.8 del 20-09-2013 08:00, Menor que la Mínima 7.0 20-09-2013 12:00 6.8 -- 7.0 2014-10-08 15:52:00
2 2013-09-21 12:00:00 Temperatura 3.1 del 21-09-2013 09:00, Menor que la Mínima 3.2 21-09-2013 12:00 3.1 -- 3.2 2014-10-08 15:52:00
2 2013-09-24 12:00:00 Temperatura 0.6 del 24-09-2013 09:00, Menor que la Mínima 0.7 24-09-2013 12:00 0.6 -- 0.7 2014-10-08 15:52:00
2 2013-09-28 12:00:00 Temperatura -2.5 del 28-09-2013 08:00, Menor que la Mínima -2.4 28-09-2013 12:00 -2.5 -- -2.4 2014-10-08 15:52:00
2 2013-09-29 12:00:00 Temperatura -0.6 del 29-09-2013 07:00, Menor que la Mínima -0.4 29-09-2013 12:00 -0.6 -- -0.4 2014-10-08 15:52:00
2 2013-10-04 12:00:00 Temperatura 2.0 del 04-10-2013 09:00, Menor que la Mínima 2.2 04-10-2013 12:00 2.0 -- 2.2 2014-10-08 16:06:00
2 2013-10-05 12:00:00 Temperatura 4.4 del 05-10-2013 08:00, Menor que la Mínima 4.6 05-10-2013 12:00 4.4 -- 4.6 2014-10-08 16:08:00
2 2013-10-06 12:00:00 Temperatura 5.1 del 06-10-2013 06:00, Menor que la Mínima 6.2 06-10-2013 12:00 5.1 -- 6.2 2014-10-08 16:09:00
2 2013-10-07 12:00:00 Temperatura 9.8 del 07-10-2013 07:00, Menor que la Mínima 10.0 07-10-2013 12:00 9.8 -- 10.0 2014-10-08 17:35:00
2 2013-10-08 12:00:00 Temperatura 6.3 del 08-10-2013 02:00, Menor que la Mínima 6.4 08-10-2013 12:00 6.3 -- 6.4 2014-10-08 17:39:00
2 2013-10-20 12:00:00 Temperatura 4.1 del 20-10-2013 10:00, Menor que la Mínima 4.2 20-10-2013 12:00 4.1 -- 4.2 2014-10-08 17:55:00
2 2013-10-21 12:00:00 Temperatura 8.0 del 21-10-2013 03:00, Menor que la Mínima 8.3 21-10-2013 12:00 8.0 -- 8.3 2014-10-08 17:55:00
2 2013-10-25 12:00:00 Temperatura 8.7 del 25-10-2013 04:00, Menor que la Mínima 8.8 25-10-2013 12:00 8.7 -- 8.8 2014-10-08 18:03:00
2 2013-10-27 12:00:00 Temperatura 6.1 del 27-10-2013 08:00, Menor que la Mínima 6.4 27-10-2013 12:00 6.1 -- 6.4 2014-10-08 18:03:00
2 2013-10-31 12:00:00 Temperatura 10.6 del 31-10-2013 05:00, Menor que la Mínima 10.7 31-10-2013 12:00 10.6 -- 10.7 2014-10-08 18:03:00
2 2013-11-04 12:00:00 Temperatura 6.3 del 04-11-2013 08:00, Menor que la Mínima 7.9 04-11-2013 12:00 6.3 -- 7.9 2014-10-08 19:12:00
2 2013-11-07 12:00:00 Temperatura 4.5 del 07-11-2013 09:00, Menor que la Mínima 4.6 07-11-2013 12:00 4.5 -- 4.6 2014-10-08 19:12:00
2 2013-11-08 12:00:00 Temperatura 5.2 del 08-11-2013 09:00, Menor que la Mínima 5.4 08-11-2013 12:00 5.2 -- 5.4 2014-10-08 19:12:00
2 2013-11-09 12:00:00 Temperatura 3.8 del 09-11-2013 08:00, Menor que la Mínima 4.6 09-11-2013 12:00 3.8 -- 4.6 2014-10-08 19:12:00
2 2013-11-12 12:00:00 Temperatura 6.3 del 12-11-2013 09:00, Menor que la Mínima 6.4 12-11-2013 12:00 6.3 -- 6.4 2014-10-08 19:12:00
2 2013-11-16 12:00:00 Temperatura 6.6 del 16-11-2013 09:00, Menor que la Mínima 6.8 16-11-2013 12:00 6.6 -- 6.8 2014-10-08 19:16:00
2 2013-11-18 12:00:00 Temperatura 13.3 del 18-11-2013 09:00, Menor que la Mínima 13.4 18-11-2013 12:00 13.3 -- 13.4 2014-10-08 19:16:00
2 2013-11-22 12:00:00 Temperatura 9.1 del 22-11-2013 08:00, Menor que la Mínima 9.4 22-11-2013 12:00 9.1 -- 9.4 2014-10-08 19:16:00
2 2013-11-24 12:00:00 Temperatura 12.9 del 24-11-2013 01:00, Menor que la Mínima 13.0 24-11-2013 12:00 12.9 -- 13.0 2014-10-08 19:16:00
2 2013-11-27 12:00:00 Temperatura 3.7 del 27-11-2013 09:00, Menor que la Mínima 3.8 27-11-2013 12:00 3.7 -- 3.8 2014-10-08 19:17:00
2 2013-11-29 12:00:00 Temperatura 5.5 del 29-11-2013 09:00, Menor que la Mínima 5.6 29-11-2013 12:00 5.5 -- 5.6 2014-10-08 19:17:00
2 2013-11-30 12:00:00 Temperatura 6.3 del 30-11-2013 09:00, Menor que la Mínima 6.4 30-11-2013 12:00 6.3 -- 6.4 2014-10-08 19:17:00
2 2013-12-01 12:00:00 Temperatura 12.3 del 01-12-2013 01:00, Menor que la Mínima 12.5 01-12-2013 12:00 12.3 -- 12.5 2014-10-08 19:53:00
2 2013-12-03 12:00:00 Temperatura 8.1 del 03-12-2013 09:00, Menor que la Mínima 8.5 03-12-2013 12:00 8.1 -- 8.5 2014-10-08 19:56:00
2 2013-12-04 12:00:00 Temperatura 6.7 del 04-12-2013 09:00, Menor que la Mínima 6.8 04-12-2013 12:00 6.7 -- 6.8 2014-10-08 19:56:00
2 2013-12-07 12:00:00 Temperatura 6.8 del 07-12-2013 09:00, Menor que la Mínima 6.9 07-12-2013 12:00 6.8 -- 6.9 2014-10-08 19:56:00
2 2013-12-10 12:00:00 Temperatura 8.3 del 10-12-2013 09:00, Menor que la Mínima 8.6 10-12-2013 12:00 8.3 -- 8.6 2014-10-08 19:57:00
2 2013-12-12 12:00:00 Temperatura 10.8 del 12-12-2013 04:00, Menor que la Mínima 11.0 12-12-2013 12:00 10.8 -- 11.0 2014-10-08 19:57:00
2 2013-12-13 12:00:00 Temperatura 13.7 del 13-12-2013 01:00, Menor que la Mínima 14.0 13-12-2013 12:00 13.7 -- 14.0 2014-10-08 19:57:00
2 2013-12-14 12:00:00 Temperatura 13.4 del 14-12-2013 01:00, Menor que la Mínima 13.7 14-12-2013 12:00 13.4 -- 13.7 2014-10-08 19:57:00
2 2013-12-15 12:00:00 Temperatura 11.4 del 15-12-2013 03:00, Menor que la Mínima 11.9 15-12-2013 12:00 11.4 -- 11.9 2014-10-08 19:57:00
2 2013-12-17 12:00:00 Temperatura 12.9 del 17-12-2013 03:00, Menor que la Mínima 13.9 17-12-2013 12:00 12.9 -- 13.9 2014-10-08 19:58:00
2 2013-12-18 12:00:00 Temperatura 14.7 del 18-12-2013 08:00, Menor que la Mínima 14.8 18-12-2013 12:00 14.7 -- 14.8 2014-10-08 19:58:00
2 2013-12-20 12:00:00 Temperatura 15.5 del 20-12-2013 10:00, Menor que la Mínima 15.6 20-12-2013 12:00 15.5 -- 15.6 2014-10-08 19:58:00
2 2013-12-22 12:00:00 Temperatura 12.6 del 22-12-2013 02:00, Menor que la Mínima 13.0 22-12-2013 12:00 12.6 -- 13.0 2014-10-08 19:58:00
2 2013-12-23 12:00:00 Temperatura 9.9 del 23-12-2013 09:00, Menor que la Mínima 10.2 23-12-2013 12:00 9.9 -- 10.2 2014-10-08 19:58:00
2 2013-12-29 12:00:00 Temperatura 8.8 del 29-12-2013 09:00, Menor que la Mínima 9.0 29-12-2013 12:00 8.8 -- 9.0 2014-10-08 19:59:00
2 2014-02-18 12:00:00 Temperatura 14.9 del 18-02-2014 01:00, Menor que la Mínima 15.4 18-02-2014 12:00 14.9 -- 15.4 2020-10-28 01:31:00
2 2014-03-03 12:00:00 Temperatura 11.4 del 03-03-2014 03:00, Menor que la Mínima 13.0 03-03-2014 12:00 11.4 -- 13.0 2020-10-28 01:32:00
2 2014-04-23 12:00:00 Temperatura 8.0 del 23-04-2014 01:00, Menor que la Mínima 8.1 23-04-2014 12:00 8.0 -- 8.1 2020-10-28 01:37:00
2 2014-04-25 12:00:00 Temperatura 8.0 del 25-04-2014 01:00, Menor que la Mínima 9.8 25-04-2014 12:00 8.0 -- 9.8 2020-10-28 01:37:00
2 2014-06-08 12:00:00 Temperatura 2.5 del 08-06-2014 02:00, Menor que la Mínima 3.3 08-06-2014 12:00 2.5 -- 3.3 2020-10-28 01:42:00
2 2014-07-14 12:00:00 Temperatura 4.7 del 14-07-2014 10:00, Menor que la Mínima 9.7 14-07-2014 12:00 4.7 -- 9.7 2020-10-28 01:45:00
2 2014-07-30 12:00:00 Temperatura 10.3 del 30-07-2014 03:00, Menor que la Mínima 10.5 30-07-2014 12:00 10.3 -- 10.5 2020-10-28 01:47:00
2 2014-08-03 12:00:00 Temperatura 9.3 del 03-08-2014 02:00, Menor que la Mínima 10.7 03-08-2014 12:00 9.3 -- 10.7 2020-10-28 01:47:00
2 2014-08-06 12:00:00 Temperatura 4.3 del 06-08-2014 01:00, Menor que la Mínima 6.1 06-08-2014 12:00 4.3 -- 6.1 2020-10-28 01:48:00
2 2014-08-23 12:00:00 Temperatura 9.7 del 23-08-2014 03:00, Menor que la Mínima 9.8 23-08-2014 12:00 9.7 -- 9.8 2020-10-28 01:49:00
2 2014-09-09 12:00:00 Temperatura 9.8 del 09-09-2014 02:00, Menor que la Mínima 10.9 09-09-2014 12:00 9.8 -- 10.9 2020-10-28 01:51:00
2 2014-09-24 12:00:00 Temperatura 6.3 del 24-09-2014 02:00, Menor que la Mínima 6.9 24-09-2014 12:00 6.3 -- 6.9 2020-10-28 01:53:00
2 2014-09-29 12:00:00 Temperatura 9.4 del 29-09-2014 03:00, Menor que la Mínima 10.8 29-09-2014 12:00 9.4 -- 10.8 2020-10-28 01:53:00
2 2014-10-15 12:00:00 Temperatura 11.3 del 15-10-2014 02:00, Menor que la Mínima 12.0 15-10-2014 12:00 11.3 -- 12.0 2020-10-28 01:55:00
2 2014-11-12 12:00:00 Temperatura 7.0 del 12-11-2014 09:00, Menor que la Mínima 7.3 12-11-2014 12:00 7.0 -- 7.3 2020-10-28 01:58:00
2 2014-11-13 12:00:00 Temperatura 5.7 del 13-11-2014 09:00, Menor que la Mínima 7.6 13-11-2014 12:00 5.7 -- 7.6 2020-10-28 01:58:00
2 2014-11-16 12:00:00 Temperatura 10.6 del 16-11-2014 02:00, Menor que la Mínima 11.8 16-11-2014 12:00 10.6 -- 11.8 2020-10-28 01:58:00
2 2014-12-02 12:00:00 Temperatura 7.0 del 02-12-2014 08:00, Menor que la Mínima 7.3 02-12-2014 12:00 7.0 -- 7.3 2020-10-28 02:00:00
2 2014-12-05 12:00:00 Temperatura 13.6 del 05-12-2014 01:00, Menor que la Mínima 13.9 05-12-2014 12:00 13.6 -- 13.9 2020-10-28 02:00:00
2 2015-01-12 12:00:00 Temperatura 12.9 del 12-01-2015 03:00, Menor que la Mínima 13.2 12-01-2015 12:00 12.9 -- 13.2 2020-10-28 02:04:00
2 2015-01-15 12:00:00 Temperatura 13.2 del 15-01-2015 03:00, Menor que la Mínima 14.7 15-01-2015 12:00 13.2 -- 14.7 2020-10-28 02:04:00
2 2015-01-17 12:00:00 Temperatura 12.7 del 17-01-2015 03:00, Menor que la Mínima 14.3 17-01-2015 12:00 12.7 -- 14.3 2020-10-28 02:05:00
2 2015-01-18 12:00:00 Temperatura 15.6 del 18-01-2015 01:00, Menor que la Mínima 15.9 18-01-2015 12:00 15.6 -- 15.9 2020-10-28 02:05:00
2 2015-01-22 12:00:00 Temperatura 15.5 del 22-01-2015 02:00, Menor que la Mínima 15.9 22-01-2015 12:00 15.5 -- 15.9 2020-10-28 02:05:00
2 2015-03-19 12:00:00 Temperatura 13.3 del 19-03-2015 02:00, Menor que la Mínima 14.2 19-03-2015 12:00 13.3 -- 14.2 2020-10-28 02:11:00
2 2015-04-09 12:00:00 Temperatura 7.8 del 09-04-2015 10:00, Menor que la Mínima 8.1 09-04-2015 12:00 7.8 -- 8.1 2020-10-28 02:13:00
2 2015-05-07 12:00:00 Temperatura 8.1 del 07-05-2015 03:00, Menor que la Mínima 8.9 07-05-2015 12:00 8.1 -- 8.9 2020-10-28 02:15:00
2 2015-06-13 12:00:00 Temperatura -1.0 del 13-06-2015 09:00, Menor que la Mínima 0.1 13-06-2015 12:00 -1.0 -- 0.1 2020-10-28 02:17:00
2 2015-06-17 12:00:00 Temperatura -1.5 del 17-06-2015 09:00, Menor que la Mínima -0.5 17-06-2015 12:00 -1.5 -- -0.5 2020-10-28 02:17:00
2 2015-06-18 12:00:00 Temperatura -1.6 del 18-06-2015 09:00, Menor que la Mínima -1.1 18-06-2015 12:00 -1.6 -- -1.1 2020-10-28 02:17:00
2 2015-06-19 12:00:00 Temperatura 0.6 del 19-06-2015 05:00, Menor que la Mínima 4.4 19-06-2015 12:00 0.6 -- 4.4 2020-10-28 02:17:00
2 2015-06-23 12:00:00 Temperatura 2.2 del 23-06-2015 03:00, Menor que la Mínima 3.6 23-06-2015 12:00 2.2 -- 3.6 2020-10-28 02:18:00
2 2015-07-09 12:00:00 Temperatura 7.5 del 09-07-2015 03:00, Menor que la Mínima 7.8 09-07-2015 12:00 7.5 -- 7.8 2020-10-28 02:19:00
2 2015-07-15 12:00:00 Temperatura 2.9 del 15-07-2015 04:00, Menor que la Mínima 4.3 15-07-2015 12:00 2.9 -- 4.3 2020-10-28 02:19:00
2 2015-08-14 12:00:00 Temperatura 7.9 del 14-08-2015 03:00, Menor que la Mínima 9.0 14-08-2015 12:00 7.9 -- 9.0 2020-10-28 02:21:00
2 2015-08-25 12:00:00 Temperatura 8.6 del 25-08-2015 01:00, Menor que la Mínima 10.5 25-08-2015 12:00 8.6 -- 10.5 2020-10-28 02:22:00
2 2015-11-25 12:00:00 Temperatura 7.0 del 25-11-2015 09:00, Menor que la Mínima 10.9 25-11-2015 12:00 7.0 -- 10.9 2020-10-28 02:31:00
2 2015-11-30 12:00:00 Temperatura 11.1 del 30-11-2015 03:00, Menor que la Mínima 13.1 30-11-2015 12:00 11.1 -- 13.1 2020-10-28 02:31:00
2 2015-12-03 12:00:00 Temperatura 7.7 del 03-12-2015 03:00, Menor que la Mínima 8.3 03-12-2015 12:00 7.7 -- 8.3 2020-10-28 02:32:00
2 2015-12-06 12:00:00 Temperatura 14.4 del 06-12-2015 01:00, Menor que la Mínima 14.7 06-12-2015 12:00 14.4 -- 14.7 2020-10-28 02:32:00
2 2015-12-11 12:00:00 Temperatura 11.6 del 11-12-2015 03:00, Menor que la Mínima 12.0 11-12-2015 12:00 11.6 -- 12.0 2020-10-28 02:32:00
2 2015-12-12 12:00:00 Temperatura 12.7 del 12-12-2015 03:00, Menor que la Mínima 13.9 12-12-2015 12:00 12.7 -- 13.9 2020-10-28 02:33:00
2 2015-12-13 12:00:00 Temperatura 12.0 del 13-12-2015 01:00, Menor que la Mínima 13.1 13-12-2015 12:00 12.0 -- 13.1 2020-10-28 02:33:00
2 2016-01-01 12:00:00 Temperatura 12.7 del 01-01-2016 03:00, Menor que la Mínima 12.9 01-01-2016 12:00 12.7 -- 12.9 2020-10-28 02:34:00
2 2016-01-01 12:00:00 Temperatura 12.7 del 01-01-2016 03:00, Menor que la Mínima 12.9 01-01-2016 12:00 12.7 -- 12.9 2020-10-28 02:34:00
2 2016-01-02 12:00:00 Temperatura 16.4 del 02-01-2016 03:00, Menor que la Mínima 16.5 02-01-2016 12:00 16.4 -- 16.5 2020-10-28 02:34:00
2 2016-01-12 12:00:00 Temperatura 14.3 del 12-01-2016 02:00, Menor que la Mínima 15.9 12-01-2016 12:00 14.3 -- 15.9 2020-10-28 02:35:00
2 2016-01-14 12:00:00 Temperatura 15.8 del 14-01-2016 02:00, Menor que la Mínima 17.3 14-01-2016 12:00 15.8 -- 17.3 2020-10-28 02:36:00
2 2016-02-02 12:00:00 Temperatura 16.3 del 02-02-2016 02:00, Menor que la Mínima 17.8 02-02-2016 12:00 16.3 -- 17.8 2020-10-28 02:38:00
2 2016-02-08 12:00:00 Temperatura 13.4 del 08-02-2016 03:00, Menor que la Mínima 15.5 08-02-2016 12:00 13.4 -- 15.5 2020-10-28 02:38:00
2 2016-02-16 12:00:00 Temperatura 14.5 del 16-02-2016 02:00, Menor que la Mínima 14.9 16-02-2016 12:00 14.5 -- 14.9 2020-10-28 02:39:00
2 2016-03-03 12:00:00 Temperatura 11.8 del 03-03-2016 03:00, Menor que la Mínima 12.0 03-03-2016 12:00 11.8 -- 12.0 2020-10-28 02:41:00
2 2016-03-04 12:00:00 Temperatura 11.9 del 04-03-2016 02:00, Menor que la Mínima 13.8 04-03-2016 12:00 11.9 -- 13.8 2020-10-28 02:41:00
2 2016-03-07 12:00:00 Temperatura 14.7 del 07-03-2016 01:00, Menor que la Mínima 15.5 07-03-2016 12:00 14.7 -- 15.5 2020-10-28 02:41:00
2 2016-03-08 12:00:00 Temperatura 13.0 del 08-03-2016 03:00, Menor que la Mínima 13.3 08-03-2016 12:00 13.0 -- 13.3 2020-10-28 02:41:00
2 2016-03-23 12:00:00 Temperatura 13.2 del 23-03-2016 01:00, Menor que la Mínima 14.1 23-03-2016 12:00 13.2 -- 14.1 2020-10-28 02:43:00
2 2016-05-04 12:00:00 Temperatura 12.7 del 04-05-2016 03:00, Menor que la Mínima 12.9 04-05-2016 12:00 12.7 -- 12.9 2020-10-28 02:47:00
2 2016-05-05 12:00:00 Temperatura 13.5 del 05-05-2016 01:00, Menor que la Mínima 13.8 05-05-2016 12:00 13.5 -- 13.8 2020-10-28 02:47:00
2 2016-05-14 12:00:00 Temperatura 11.2 del 14-05-2016 01:00, Menor que la Mínima 11.7 14-05-2016 12:00 11.2 -- 11.7 2020-10-28 02:48:00
2 2016-05-16 12:00:00 Temperatura 10.1 del 16-05-2016 02:00, Menor que la Mínima 10.2 16-05-2016 12:00 10.1 -- 10.2 2020-10-28 02:48:00
2 2016-06-12 12:00:00 Temperatura 4.8 del 12-06-2016 01:00, Menor que la Mínima 5.6 12-06-2016 12:00 4.8 -- 5.6 2020-10-28 02:51:00
2 2016-06-19 12:00:00 Temperatura 5.3 del 19-06-2016 01:00, Menor que la Mínima 7.1 19-06-2016 12:00 5.3 -- 7.1 2020-10-28 02:51:00
2 2016-06-24 12:00:00 Temperatura 4.6 del 24-06-2016 03:00, Menor que la Mínima 5.4 24-06-2016 12:00 4.6 -- 5.4 2020-10-28 02:52:00
2 2016-06-25 12:00:00 Temperatura 5.1 del 25-06-2016 01:00, Menor que la Mínima 5.4 25-06-2016 12:00 5.1 -- 5.4 2020-10-28 02:52:00
2 2016-07-08 12:00:00 Temperatura 4.1 del 08-07-2016 02:00, Menor que la Mínima 7.4 08-07-2016 12:00 4.1 -- 7.4 2020-10-28 02:54:00
2 2016-07-11 12:00:00 Temperatura 9.2 del 11-07-2016 01:00, Menor que la Mínima 10.5 11-07-2016 12:00 9.2 -- 10.5 2020-10-28 02:54:00
2 2016-07-23 12:00:00 Temperatura 8.0 del 23-07-2016 01:00, Menor que la Mínima 8.2 23-07-2016 12:00 8.0 -- 8.2 2020-10-28 02:55:00
2 2016-07-24 12:00:00 Temperatura 10.4 del 24-07-2016 01:00, Menor que la Mínima 11.1 24-07-2016 12:00 10.4 -- 11.1 2020-10-28 02:55:00
2 2016-08-27 12:00:00 Temperatura 8.3 del 27-08-2016 02:00, Menor que la Mínima 10.1 27-08-2016 12:00 8.3 -- 10.1 2020-10-28 02:59:00
2 2016-09-22 12:00:00 Temperatura 7.3 del 22-09-2016 02:00, Menor que la Mínima 9.4 22-09-2016 12:00 7.3 -- 9.4 2020-10-28 03:01:00
2 2016-10-03 12:00:00 Temperatura 9.7 del 03-10-2016 02:00, Menor que la Mínima 10.6 03-10-2016 12:00 9.7 -- 10.6 2020-10-28 03:03:00
2 2016-10-15 12:00:00 Temperatura 10.3 del 15-10-2016 01:00, Menor que la Mínima 11.5 15-10-2016 12:00 10.3 -- 11.5 2020-10-28 03:04:00
2 2016-10-22 12:00:00 Temperatura 10.4 del 22-10-2016 01:00, Menor que la Mínima 11.8 22-10-2016 12:00 10.4 -- 11.8 2020-10-28 03:04:00
2 2016-10-31 12:00:00 Temperatura 10.2 del 31-10-2016 03:00, Menor que la Mínima 12.0 31-10-2016 12:00 10.2 -- 12.0 2020-10-28 03:05:00
2 2016-11-01 12:00:00 Temperatura 6.9 del 01-11-2016 02:00, Menor que la Mínima 7.8 01-11-2016 12:00 6.9 -- 7.8 2020-10-28 03:06:00
2 2016-11-02 12:00:00 Temperatura 6.8 del 02-11-2016 03:00, Menor que la Mínima 7.3 02-11-2016 12:00 6.8 -- 7.3 2020-10-28 03:06:00
2 2016-11-20 12:00:00 Temperatura 10.9 del 20-11-2016 02:00, Menor que la Mínima 12.9 20-11-2016 12:00 10.9 -- 12.9 2020-10-28 03:07:00
2 2016-11-25 12:00:00 Temperatura 13.5 del 25-11-2016 01:00, Menor que la Mínima 14.7 25-11-2016 12:00 13.5 -- 14.7 2020-10-28 03:08:00
2 2016-11-30 12:00:00 Temperatura 14.2 del 30-11-2016 01:00, Menor que la Mínima 15.6 30-11-2016 12:00 14.2 -- 15.6 2020-10-28 03:08:00
2 2016-12-01 12:00:00 Temperatura 12.8 del 01-12-2016 01:00, Menor que la Mínima 14.5 01-12-2016 12:00 12.8 -- 14.5 2020-10-28 03:08:00
2 2016-12-16 12:00:00 Temperatura 12.5 del 16-12-2016 03:00, Menor que la Mínima 14.1 16-12-2016 12:00 12.5 -- 14.1 2020-10-28 03:10:00
2 2016-12-29 12:00:00 Temperatura 13.3 del 29-12-2016 02:00, Menor que la Mínima 15.1 29-12-2016 12:00 13.3 -- 15.1 2020-10-28 03:11:00
2 2017-03-04 12:00:00 Temperatura 8.0 del 04-03-2017 10:00, Menor que la Mínima 8.3 04-03-2017 12:00 8.0 -- 8.3 2020-10-28 03:18:00
2 2017-03-14 12:00:00 Temperatura 12.5 del 14-03-2017 02:00, Menor que la Mínima 13.9 14-03-2017 12:00 12.5 -- 13.9 2020-10-28 03:18:00
2 2017-03-17 12:00:00 Temperatura 11.6 del 17-03-2017 01:00, Menor que la Mínima 13.0 17-03-2017 12:00 11.6 -- 13.0 2020-10-28 03:19:00
2 2017-03-22 12:00:00 Temperatura 12.5 del 22-03-2017 01:00, Menor que la Mínima 14.0 22-03-2017 12:00 12.5 -- 14.0 2020-10-28 03:19:00
2 2017-03-31 12:00:00 Temperatura 6.3 del 31-03-2017 10:00, Menor que la Mínima 6.7 31-03-2017 12:00 6.3 -- 6.7 2020-10-28 03:20:00
2 2017-04-18 12:00:00 Temperatura 13.4 del 18-04-2017 01:00, Menor que la Mínima 14.1 18-04-2017 12:00 13.4 -- 14.1 2020-10-28 03:22:00
2 2017-05-16 12:00:00 Temperatura 10.6 del 16-05-2017 01:00, Menor que la Mínima 11.5 16-05-2017 12:00 10.6 -- 11.5 2020-10-28 03:25:00
2 2017-06-08 12:00:00 Temperatura 7.7 del 08-06-2017 03:00, Menor que la Mínima 8.0 08-06-2017 12:00 7.7 -- 8.0 2020-10-28 03:27:00
2 2017-06-14 12:00:00 Temperatura 10.6 del 14-06-2017 01:00, Menor que la Mínima 10.9 14-06-2017 12:00 10.6 -- 10.9 2020-10-28 03:28:00
2 2017-06-16 12:00:00 Temperatura 6.7 del 16-06-2017 03:00, Menor que la Mínima 9.4 16-06-2017 12:00 6.7 -- 9.4 2020-10-28 03:28:00
2 2017-07-03 12:00:00 Temperatura 10.3 del 03-07-2017 01:00, Menor que la Mínima 10.8 03-07-2017 12:00 10.3 -- 10.8 2020-10-28 03:30:00
2 2017-07-12 12:00:00 Temperatura 6.4 del 12-07-2017 01:00, Menor que la Mínima 9.1 12-07-2017 12:00 6.4 -- 9.1 2020-10-28 03:31:00
2 2017-08-13 12:00:00 Temperatura 4.9 del 13-08-2017 01:00, Menor que la Mínima 5.0 13-08-2017 12:00 4.9 -- 5.0 2020-10-28 03:35:00
2 2017-08-27 12:00:00 Temperatura 8.9 del 27-08-2017 01:00, Menor que la Mínima 9.4 27-08-2017 12:00 8.9 -- 9.4 2020-10-28 03:37:00
2 2017-10-15 12:00:00 Temperatura 10.1 del 15-10-2017 01:00, Menor que la Mínima 10.5 15-10-2017 12:00 10.1 -- 10.5 2020-10-28 03:43:00
2 2017-10-16 12:00:00 Temperatura 6.6 del 16-10-2017 03:00, Menor que la Mínima 8.7 16-10-2017 12:00 6.6 -- 8.7 2020-10-28 03:43:00
2 2017-10-18 12:00:00 Temperatura 9.6 del 18-10-2017 03:00, Menor que la Mínima 9.8 18-10-2017 12:00 9.6 -- 9.8 2020-10-28 03:44:00
2 2017-10-28 12:00:00 Temperatura 9.1 del 28-10-2017 03:00, Menor que la Mínima 9.5 28-10-2017 12:00 9.1 -- 9.5 2020-10-28 03:45:00
2 2017-10-29 12:00:00 Temperatura 6.9 del 29-10-2017 03:00, Menor que la Mínima 7.0 29-10-2017 12:00 6.9 -- 7.0 2020-10-28 03:45:00
2 2017-11-13 12:00:00 Temperatura 10.4 del 13-11-2017 03:00, Menor que la Mínima 10.7 13-11-2017 12:00 10.4 -- 10.7 2020-10-28 03:47:00
2 2017-12-02 12:00:00 Temperatura 0.0 del 02-12-2017 05:00, Menor que la Mínima 13.1 02-12-2017 12:00 0.0 -- 13.1 2020-10-28 03:49:00
2 2017-12-03 12:00:00 Temperatura 0.0 del 03-12-2017 01:00, Menor que la Mínima 13.3 03-12-2017 12:00 0.0 -- 13.3 2020-10-28 03:49:00
2 2017-12-12 12:00:00 Temperatura 13.9 del 12-12-2017 01:00, Menor que la Mínima 14.0 12-12-2017 12:00 13.9 -- 14.0 2020-10-28 03:50:00
2 2017-12-26 12:00:00 Temperatura 12.1 del 26-12-2017 02:00, Menor que la Mínima 13.3 26-12-2017 12:00 12.1 -- 13.3 2020-10-28 03:52:00
2 2018-01-11 12:00:00 Temperatura 15.3 del 11-01-2018 02:00, Menor que la Mínima 15.9 11-01-2018 12:00 15.3 -- 15.9 2020-10-28 03:54:00
2 2018-01-12 12:00:00 Temperatura 13.7 del 12-01-2018 02:00, Menor que la Mínima 15.1 12-01-2018 12:00 13.7 -- 15.1 2020-10-28 03:54:00
2 2018-01-13 12:00:00 Temperatura 14.9 del 13-01-2018 01:00, Menor que la Mínima 15.6 13-01-2018 12:00 14.9 -- 15.6 2020-10-28 03:54:00
2 2018-01-14 12:00:00 Temperatura 15.2 del 14-01-2018 02:00, Menor que la Mínima 15.6 14-01-2018 12:00 15.2 -- 15.6 2020-10-28 03:54:00
2 2018-01-20 12:00:00 Temperatura 16.2 del 20-01-2018 01:00, Menor que la Mínima 16.5 20-01-2018 12:00 16.2 -- 16.5 2020-10-28 03:55:00
2 2018-01-23 12:00:00 Temperatura 16.5 del 23-01-2018 01:00, Menor que la Mínima 17.0 23-01-2018 12:00 16.5 -- 17.0 2020-10-28 03:55:00
2 2018-01-25 12:00:00 Temperatura 14.4 del 25-01-2018 01:00, Menor que la Mínima 15.3 25-01-2018 12:00 14.4 -- 15.3 2020-10-28 03:55:00
2 2018-02-03 12:00:00 Temperatura 14.6 del 03-02-2018 02:00, Menor que la Mínima 16.0 03-02-2018 12:00 14.6 -- 16.0 2020-10-28 03:57:00
2 2018-02-16 12:00:00 Temperatura 13.6 del 16-02-2018 01:00, Menor que la Mínima 14.7 16-02-2018 12:00 13.6 -- 14.7 2020-10-28 03:58:00
2 2018-02-17 12:00:00 Temperatura 14.5 del 17-02-2018 01:00, Menor que la Mínima 14.6 17-02-2018 12:00 14.5 -- 14.6 2020-10-28 03:58:00
2 2018-02-19 12:00:00 Temperatura 16.0 del 19-02-2018 03:00, Menor que la Mínima 16.9 19-02-2018 12:00 16.0 -- 16.9 2020-10-28 03:58:00
2 2018-02-24 12:00:00 Temperatura 14.1 del 24-02-2018 02:00, Menor que la Mínima 15.5 24-02-2018 12:00 14.1 -- 15.5 2020-10-28 03:59:00
2 2018-03-07 12:00:00 Temperatura 12.1 del 07-03-2018 02:00, Menor que la Mínima 14.1 07-03-2018 12:00 12.1 -- 14.1 2020-10-28 04:00:00
2 2018-04-16 12:00:00 Temperatura 8.7 del 16-04-2018 02:00, Menor que la Mínima 10.7 16-04-2018 12:00 8.7 -- 10.7 2020-10-28 04:05:00
2 2018-04-30 12:00:00 Temperatura 7.5 del 30-04-2018 02:00, Menor que la Mínima 8.8 30-04-2018 12:00 7.5 -- 8.8 2020-10-28 04:06:00
2 2018-05-09 12:00:00 Temperatura 8.7 del 09-05-2018 01:00, Menor que la Mínima 10.0 09-05-2018 12:00 8.7 -- 10.0 2020-10-28 04:08:00
2 2018-05-29 12:00:00 Temperatura 10.8 del 29-05-2018 01:00, Menor que la Mínima 11.4 29-05-2018 12:00 10.8 -- 11.4 2020-10-28 04:10:00
2 2018-06-10 12:00:00 Temperatura 8.2 del 10-06-2018 03:00, Menor que la Mínima 8.4 10-06-2018 12:00 8.2 -- 8.4 2020-10-28 04:11:00
2 2018-06-24 12:00:00 Temperatura 5.7 del 24-06-2018 01:00, Menor que la Mínima 6.5 24-06-2018 12:00 5.7 -- 6.5 2020-10-28 04:13:00
2 2018-07-15 12:00:00 Temperatura 8.5 del 15-07-2018 01:00, Menor que la Mínima 9.1 15-07-2018 12:00 8.5 -- 9.1 2020-10-28 04:16:00
2 2018-08-02 12:00:00 Temperatura 5.3 del 02-08-2018 01:00, Menor que la Mínima 6.8 02-08-2018 12:00 5.3 -- 6.8 2020-10-28 04:18:00
2 2018-08-13 12:00:00 Temperatura 0.0 del 13-08-2018 03:00, Menor que la Mínima 8.7 13-08-2018 12:00 0.0 -- 8.7 2020-10-28 04:20:00
2 2018-08-17 12:00:00 Temperatura 6.8 del 17-08-2018 01:00, Menor que la Mínima 7.5 17-08-2018 12:00 6.8 -- 7.5 2020-10-28 04:21:00
2 2018-08-21 12:00:00 Temperatura 3.4 del 21-08-2018 03:00, Menor que la Mínima 3.5 21-08-2018 12:00 3.4 -- 3.5 2020-10-28 04:21:00
2 2018-08-25 12:00:00 Temperatura 0.0 del 25-08-2018 03:00, Menor que la Mínima 1.0 25-08-2018 12:00 0.0 -- 1.0 2020-10-28 04:22:00
2 2018-08-26 12:00:00 Temperatura 0.0 del 26-08-2018 03:00, Menor que la Mínima 2.9 26-08-2018 12:00 0.0 -- 2.9 2020-10-28 04:22:00
2 2018-08-27 12:00:00 Temperatura 0.0 del 27-08-2018 03:00, Menor que la Mínima 10.2 27-08-2018 12:00 0.0 -- 10.2 2020-10-28 04:22:00
2 2018-11-12 12:00:00 Temperatura 12.6 del 12-11-2018 02:00, Menor que la Mínima 13.8 12-11-2018 12:00 12.6 -- 13.8 2020-10-28 04:32:00
2 2018-12-02 12:00:00 Temperatura 13.7 del 02-12-2018 02:00, Menor que la Mínima 14.0 02-12-2018 12:00 13.7 -- 14.0 2020-10-28 04:35:00
2 2018-12-03 12:00:00 Temperatura 13.4 del 03-12-2018 03:00, Menor que la Mínima 13.7 03-12-2018 12:00 13.4 -- 13.7 2020-10-28 04:35:00
2 2018-12-13 12:00:00 Temperatura 9.5 del 13-12-2018 07:00, Menor que la Mínima 12.1 13-12-2018 12:00 9.5 -- 12.1 2020-10-28 04:36:00
2 2018-12-26 12:00:00 Temperatura 13.6 del 26-12-2018 02:00, Menor que la Mínima 15.1 26-12-2018 12:00 13.6 -- 15.1 2020-10-28 04:37:00
2 2019-02-13 12:00:00 Temperatura 13.4 del 13-02-2019 02:00, Menor que la Mínima 15.0 13-02-2019 12:00 13.4 -- 15.0 2020-10-28 04:42:00
2 2019-02-21 12:00:00 Temperatura 14.4 del 21-02-2019 03:00, Menor que la Mínima 15.5 21-02-2019 12:00 14.4 -- 15.5 2020-10-28 04:43:00
2 2019-03-14 12:00:00 Temperatura 12.1 del 14-03-2019 02:00, Menor que la Mínima 13.5 14-03-2019 12:00 12.1 -- 13.5 2020-10-28 04:46:00
2 2019-03-26 12:00:00 Temperatura 9.6 del 26-03-2019 02:00, Menor que la Mínima 9.9 26-03-2019 12:00 9.6 -- 9.9 2020-10-28 04:47:00
2 2019-03-27 12:00:00 Temperatura 7.5 del 27-03-2019 03:00, Menor que la Mínima 9.4 27-03-2019 12:00 7.5 -- 9.4